<?xml version="1.0" encoding="UTF-8" standalone="no" ?>
<gpx xmlns="http://www.topografix.com/GPX/1/1" creator="MapSource 6.16.3" version="1.1" xmlns:xsi="http://www.w3.org/2001/XMLSchema-instance" xsi:schemaLocation="http://www.topografix.com/GPX/1/1 http://www.topografix.com/GPX/1/1/gpx.xsd">

  <metadata>
    <link href="http://www.garmin.com">
      <text>Garmin International</text>
    </link>
    <time>2013-10-01T21:07:57Z</time>
    <bounds maxlat="53.148455936461687" maxlon="13.31189981661737" minlat="52.534645898267627" minlon="12.432036604732275"/>
  </metadata>

  <trk>
    <name>Fontane-tour-1-mit-Heiner-gefahren-gesamt</name>
    <extensions>
      <gpxx:TrackExtension xmlns:gpxx="http://www.garmin.com/xmlschemas/GpxExtensions/v3">
        <gpxx:DisplayColor>Cyan</gpxx:DisplayColor>
      </gpxx:TrackExtension>
    </extensions>
    <trkseg>
      <trkpt lat="52.852577939629555" lon="12.450200105085969">
        <ele>35.700000000000003</ele>
        <time>2013-09-08T13:47:29Z</time>
      </trkpt>
      <trkpt lat="52.852500658482313" lon="12.449924508109689">
        <ele>36.200000000000003</ele>
        <time>2013-09-08T13:48:46Z</time>
      </trkpt>
      <trkpt lat="52.854646341875196" lon="12.446902664378285">
        <ele>33.799999999999997</ele>
        <time>2013-09-08T13:49:51Z</time>
      </trkpt>
      <trkpt lat="52.85519233904779" lon="12.44578686542809">
        <ele>32.799999999999997</ele>
        <time>2013-09-08T13:50:05Z</time>
      </trkpt>
      <trkpt lat="52.858600169420242" lon="12.433896381407976">
        <ele>32.299999999999997</ele>
        <time>2013-09-08T13:53:07Z</time>
      </trkpt>
      <trkpt lat="52.859766008332372" lon="12.432036604732275">
        <ele>32.299999999999997</ele>
        <time>2013-09-08T13:54:04Z</time>
      </trkpt>
      <trkpt lat="52.861798787489533" lon="12.437396328896284">
        <ele>29.899999999999999</ele>
        <time>2013-09-08T13:58:11Z</time>
      </trkpt>
      <trkpt lat="52.862240094691515" lon="12.436985531821847">
        <ele>31.899999999999999</ele>
        <time>2013-09-08T13:58:24Z</time>
      </trkpt>
      <trkpt lat="52.86302505992353" lon="12.435693126171827">
        <ele>33.299999999999997</ele>
        <time>2013-09-08T13:58:50Z</time>
      </trkpt>
      <trkpt lat="52.863691337406635" lon="12.436375161632895">
        <ele>32.799999999999997</ele>
        <time>2013-09-08T13:59:14Z</time>
      </trkpt>
      <trkpt lat="52.864675289019942" lon="12.436529891565442">
        <ele>31.399999999999999</ele>
        <time>2013-09-08T13:59:36Z</time>
      </trkpt>
      <trkpt lat="52.865107879042625" lon="12.436877572908998">
        <ele>31.899999999999999</ele>
        <time>2013-09-08T13:59:46Z</time>
      </trkpt>
      <trkpt lat="52.865957384929061" lon="12.437869906425476">
        <ele>32.299999999999997</ele>
        <time>2013-09-08T14:00:05Z</time>
      </trkpt>
      <trkpt lat="52.86653146147728" lon="12.440279368311167">
        <ele>31.399999999999999</ele>
        <time>2013-09-08T14:00:36Z</time>
      </trkpt>
      <trkpt lat="52.867026999592781" lon="12.440466368570924">
        <ele>32.299999999999997</ele>
        <time>2013-09-08T14:00:48Z</time>
      </trkpt>
      <trkpt lat="52.871036063879728" lon="12.444332772865891">
        <ele>31.399999999999999</ele>
        <time>2013-09-08T14:02:16Z</time>
      </trkpt>
      <trkpt lat="52.87611591629684" lon="12.447898602113128">
        <ele>31.899999999999999</ele>
        <time>2013-09-08T14:13:40Z</time>
      </trkpt>
      <trkpt lat="52.877685930579901" lon="12.449678331613541">
        <ele>33.299999999999997</ele>
        <time>2013-09-08T14:14:15Z</time>
      </trkpt>
      <trkpt lat="52.878228574991226" lon="12.45113736949861">
        <ele>30.899999999999999</ele>
        <time>2013-09-08T14:14:40Z</time>
      </trkpt>
      <trkpt lat="52.881998084485531" lon="12.456222921609879">
        <ele>32.299999999999997</ele>
        <time>2013-09-08T14:16:12Z</time>
      </trkpt>
      <trkpt lat="52.882928140461445" lon="12.457217602059245">
        <ele>31.399999999999999</ele>
        <time>2013-09-08T14:16:34Z</time>
      </trkpt>
      <trkpt lat="52.884705439209938" lon="12.458344297483563">
        <ele>31.399999999999999</ele>
        <time>2013-09-08T14:17:09Z</time>
      </trkpt>
      <trkpt lat="52.885409686714411" lon="12.459549615159631">
        <ele>32.799999999999997</ele>
        <time>2013-09-08T14:17:30Z</time>
      </trkpt>
      <trkpt lat="52.88610010407865" lon="12.460155626758933">
        <ele>32.799999999999997</ele>
        <time>2013-09-08T14:17:48Z</time>
      </trkpt>
      <trkpt lat="52.886947765946388" lon="12.461420958861709">
        <ele>33.299999999999997</ele>
        <time>2013-09-08T14:18:14Z</time>
      </trkpt>
      <trkpt lat="52.891034279018641" lon="12.462188573554158">
        <ele>36.200000000000003</ele>
        <time>2013-09-08T14:19:55Z</time>
      </trkpt>
      <trkpt lat="52.892540590837598" lon="12.461322974413633">
        <ele>34.299999999999997</ele>
        <time>2013-09-08T14:20:33Z</time>
      </trkpt>
      <trkpt lat="52.893989738076925" lon="12.461224738508463">
        <ele>34.299999999999997</ele>
        <time>2013-09-08T14:21:10Z</time>
      </trkpt>
      <trkpt lat="52.894081939011812" lon="12.46002503670752">
        <ele>34.700000000000003</ele>
        <time>2013-09-08T14:21:48Z</time>
      </trkpt>
      <trkpt lat="52.894431380555034" lon="12.460440611466765">
        <ele>34.700000000000003</ele>
        <time>2013-09-08T14:22:04Z</time>
      </trkpt>
      <trkpt lat="52.895369902253151" lon="12.460326869040728">
        <ele>34.299999999999997</ele>
        <time>2013-09-08T14:22:33Z</time>
      </trkpt>
      <trkpt lat="52.895444585010409" lon="12.46015889570117">
        <ele>33.299999999999997</ele>
        <time>2013-09-08T14:22:38Z</time>
      </trkpt>
      <trkpt lat="52.897237725555897" lon="12.46032502502203">
        <ele>33.799999999999997</ele>
        <time>2013-09-08T14:23:30Z</time>
      </trkpt>
      <trkpt lat="52.899537887424231" lon="12.458990374580026">
        <ele>32.299999999999997</ele>
        <time>2013-09-08T14:24:37Z</time>
      </trkpt>
      <trkpt lat="52.900618063285947" lon="12.457928890362382">
        <ele>34.299999999999997</ele>
        <time>2013-09-08T14:25:06Z</time>
      </trkpt>
      <trkpt lat="52.901318119838834" lon="12.458459800109267">
        <ele>33.299999999999997</ele>
        <time>2013-09-08T14:29:11Z</time>
      </trkpt>
      <trkpt lat="52.902730470523238" lon="12.458138940855861">
        <ele>32.799999999999997</ele>
        <time>2013-09-08T14:29:51Z</time>
      </trkpt>
      <trkpt lat="52.90284832008183" lon="12.458829274401069">
        <ele>33.799999999999997</ele>
        <time>2013-09-08T14:30:07Z</time>
      </trkpt>
      <trkpt lat="52.903022663667798" lon="12.458962965756655">
        <ele>34.299999999999997</ele>
        <time>2013-09-08T14:30:18Z</time>
      </trkpt>
      <trkpt lat="52.90385247208178" lon="12.458564238622785">
        <ele>32.299999999999997</ele>
        <time>2013-09-08T14:30:41Z</time>
      </trkpt>
      <trkpt lat="52.904238039627671" lon="12.458070628345013">
        <ele>32.299999999999997</ele>
        <time>2013-09-08T14:30:52Z</time>
      </trkpt>
      <trkpt lat="52.905430616810918" lon="12.457258924841881">
        <ele>31.399999999999999</ele>
        <time>2013-09-08T14:31:16Z</time>
      </trkpt>
      <trkpt lat="52.90658731944859" lon="12.456791717559099">
        <ele>31.899999999999999</ele>
        <time>2013-09-08T14:31:51Z</time>
      </trkpt>
      <trkpt lat="52.90835372172296" lon="12.45664469897747">
        <ele>33.299999999999997</ele>
        <time>2013-09-08T14:32:46Z</time>
      </trkpt>
      <trkpt lat="52.908684136345983" lon="12.456763219088316">
        <ele>32.299999999999997</ele>
        <time>2013-09-08T14:32:57Z</time>
      </trkpt>
      <trkpt lat="52.909390982240438" lon="12.457613814622164">
        <ele>30.899999999999999</ele>
        <time>2013-09-08T14:33:21Z</time>
      </trkpt>
      <trkpt lat="52.910251636058092" lon="12.459096238017082">
        <ele>34.299999999999997</ele>
        <time>2013-09-08T14:34:08Z</time>
      </trkpt>
      <trkpt lat="52.911827266216278" lon="12.459807693958282">
        <ele>32.299999999999997</ele>
        <time>2013-09-08T14:35:02Z</time>
      </trkpt>
      <trkpt lat="52.912336215376854" lon="12.460569273680449">
        <ele>30.399999999999999</ele>
        <time>2013-09-08T14:35:30Z</time>
      </trkpt>
      <trkpt lat="52.912229262292385" lon="12.460742276161909">
        <ele>29</ele>
        <time>2013-09-08T14:36:14Z</time>
      </trkpt>
      <trkpt lat="52.912901407107711" lon="12.460794663056731">
        <ele>28</ele>
        <time>2013-09-08T14:40:58Z</time>
      </trkpt>
      <trkpt lat="52.913578664883971" lon="12.460369197651744">
        <ele>28</ele>
        <time>2013-09-08T14:44:01Z</time>
      </trkpt>
      <trkpt lat="52.913522338494658" lon="12.460236428305507">
        <ele>27.5</ele>
        <time>2013-09-08T14:45:08Z</time>
      </trkpt>
      <trkpt lat="52.913673212751746" lon="12.460261071100831">
        <ele>28.5</ele>
        <time>2013-09-08T14:49:14Z</time>
      </trkpt>
      <trkpt lat="52.913560392335057" lon="12.460181107744575">
        <ele>29.899999999999999</ele>
        <time>2013-09-08T14:52:23Z</time>
      </trkpt>
      <trkpt lat="52.913609258830547" lon="12.460298119112849">
        <ele>28.5</ele>
        <time>2013-09-08T14:53:32Z</time>
      </trkpt>
      <trkpt lat="52.914284085854888" lon="12.459447607398033">
        <ele>31.899999999999999</ele>
        <time>2013-09-08T14:56:57Z</time>
      </trkpt>
      <trkpt lat="52.915506167337298" lon="12.456617960706353">
        <ele>31.399999999999999</ele>
        <time>2013-09-08T14:57:58Z</time>
      </trkpt>
      <trkpt lat="52.916934359818697" lon="12.455841964110732">
        <ele>30.899999999999999</ele>
        <time>2013-09-08T14:58:45Z</time>
      </trkpt>
      <trkpt lat="52.917524361982942" lon="12.455298565328121">
        <ele>31.899999999999999</ele>
        <time>2013-09-08T14:59:34Z</time>
      </trkpt>
      <trkpt lat="52.917379103600979" lon="12.455203766003251">
        <ele>30.399999999999999</ele>
        <time>2013-09-08T15:02:32Z</time>
      </trkpt>
      <trkpt lat="52.917833318933845" lon="12.455090275034308">
        <ele>30.399999999999999</ele>
        <time>2013-09-08T15:06:00Z</time>
      </trkpt>
      <trkpt lat="52.918137665838003" lon="12.454584762454033">
        <ele>33.299999999999997</ele>
        <time>2013-09-08T15:06:24Z</time>
      </trkpt>
      <trkpt lat="52.920158877968788" lon="12.455994933843613">
        <ele>37.200000000000003</ele>
        <time>2013-09-08T15:08:12Z</time>
      </trkpt>
      <trkpt lat="52.921797959133983" lon="12.456071795895696">
        <ele>40</ele>
        <time>2013-09-08T15:12:31Z</time>
      </trkpt>
      <trkpt lat="52.922902358695865" lon="12.455545328557491">
        <ele>36.700000000000003</ele>
        <time>2013-09-08T15:13:37Z</time>
      </trkpt>
      <trkpt lat="52.924252096563578" lon="12.454144796356559">
        <ele>35.700000000000003</ele>
        <time>2013-09-08T15:14:40Z</time>
      </trkpt>
      <trkpt lat="52.924565495923162" lon="12.453575413674116">
        <ele>36.700000000000003</ele>
        <time>2013-09-08T15:14:58Z</time>
      </trkpt>
      <trkpt lat="52.924971263855696" lon="12.452173875644803">
        <ele>38.100000000000001</ele>
        <time>2013-09-08T15:15:47Z</time>
      </trkpt>
      <trkpt lat="52.925309641286731" lon="12.451955694705248">
        <ele>38.100000000000001</ele>
        <time>2013-09-08T15:15:59Z</time>
      </trkpt>
      <trkpt lat="52.926120841875672" lon="12.451976230368018">
        <ele>38.100000000000001</ele>
        <time>2013-09-08T15:16:33Z</time>
      </trkpt>
      <trkpt lat="52.927361279726028" lon="12.45127902366221">
        <ele>38.600000000000001</ele>
        <time>2013-09-08T15:17:31Z</time>
      </trkpt>
      <trkpt lat="52.929097758606076" lon="12.448099097236991">
        <ele>39.100000000000001</ele>
        <time>2013-09-08T15:19:05Z</time>
      </trkpt>
      <trkpt lat="52.930247001349926" lon="12.447226960211992">
        <ele>39.100000000000001</ele>
        <time>2013-09-08T15:20:03Z</time>
      </trkpt>
      <trkpt lat="52.930802637711167" lon="12.447217237204313">
        <ele>39.600000000000001</ele>
        <time>2013-09-08T15:20:32Z</time>
      </trkpt>
      <trkpt lat="52.931000869721174" lon="12.446932587772608">
        <ele>39.600000000000001</ele>
        <time>2013-09-08T15:20:44Z</time>
      </trkpt>
      <trkpt lat="52.932384721934795" lon="12.446946837007999">
        <ele>35.200000000000003</ele>
        <time>2013-09-08T15:21:49Z</time>
      </trkpt>
      <trkpt lat="52.932966761291027" lon="12.447627112269402">
        <ele>34.700000000000003</ele>
        <time>2013-09-08T15:22:09Z</time>
      </trkpt>
      <trkpt lat="52.933616191148758" lon="12.449509603902698">
        <ele>34.700000000000003</ele>
        <time>2013-09-08T15:22:55Z</time>
      </trkpt>
      <trkpt lat="52.934087505564094" lon="12.450474109500647">
        <ele>38.100000000000001</ele>
        <time>2013-09-08T15:27:45Z</time>
      </trkpt>
      <trkpt lat="52.934152213856578" lon="12.450332790613174">
        <ele>38.600000000000001</ele>
        <time>2013-09-08T15:28:24Z</time>
      </trkpt>
      <trkpt lat="52.934459075331688" lon="12.451486391946673">
        <ele>38.100000000000001</ele>
        <time>2013-09-08T15:29:49Z</time>
      </trkpt>
      <trkpt lat="52.934533087536693" lon="12.452785335481167">
        <ele>40</ele>
        <time>2013-09-08T15:30:28Z</time>
      </trkpt>
      <trkpt lat="52.934855120256543" lon="12.453689659014344">
        <ele>39.600000000000001</ele>
        <time>2013-09-08T15:30:44Z</time>
      </trkpt>
      <trkpt lat="52.936810702085495" lon="12.453539036214352">
        <ele>40</ele>
        <time>2013-09-08T15:31:26Z</time>
      </trkpt>
      <trkpt lat="52.939360477030277" lon="12.45251577347517">
        <ele>40</ele>
        <time>2013-09-08T15:33:07Z</time>
      </trkpt>
      <trkpt lat="52.939378665760159" lon="12.451556464657187">
        <ele>40.5</ele>
        <time>2013-09-08T15:33:23Z</time>
      </trkpt>
      <trkpt lat="52.939180098474026" lon="12.451312886551023">
        <ele>42</ele>
        <time>2013-09-08T15:33:48Z</time>
      </trkpt>
      <trkpt lat="52.939431890845299" lon="12.452594731003046">
        <ele>69.400000000000006</ele>
        <time>2013-09-09T10:25:30Z</time>
      </trkpt>
      <trkpt lat="52.934988308697939" lon="12.453643558546901">
        <ele>45.799999999999997</ele>
        <time>2013-09-09T10:26:53Z</time>
      </trkpt>
      <trkpt lat="52.934815725311637" lon="12.453481033444405">
        <ele>45.799999999999997</ele>
        <time>2013-09-09T10:26:57Z</time>
      </trkpt>
      <trkpt lat="52.934510791674256" lon="12.45252356864512">
        <ele>42</ele>
        <time>2013-09-09T10:27:10Z</time>
      </trkpt>
      <trkpt lat="52.934108879417181" lon="12.452385183423758">
        <ele>42</ele>
        <time>2013-09-09T10:27:18Z</time>
      </trkpt>
      <trkpt lat="52.927265306934714" lon="12.455249615013599">
        <ele>38.600000000000001</ele>
        <time>2013-09-09T10:29:27Z</time>
      </trkpt>
      <trkpt lat="52.924835309386253" lon="12.455900888890028">
        <ele>37.600000000000001</ele>
        <time>2013-09-09T10:30:09Z</time>
      </trkpt>
      <trkpt lat="52.923132861033082" lon="12.457178123295307">
        <ele>39.100000000000001</ele>
        <time>2013-09-09T10:30:42Z</time>
      </trkpt>
      <trkpt lat="52.917466862127185" lon="12.459395807236433">
        <ele>36.700000000000003</ele>
        <time>2013-09-09T10:32:27Z</time>
      </trkpt>
      <trkpt lat="52.914784485474229" lon="12.46081561781466">
        <ele>34.700000000000003</ele>
        <time>2013-09-09T10:33:18Z</time>
      </trkpt>
      <trkpt lat="52.91287642903626" lon="12.461382569745183">
        <ele>36.700000000000003</ele>
        <time>2013-09-09T10:33:52Z</time>
      </trkpt>
      <trkpt lat="52.90190770290792" lon="12.460928186774254">
        <ele>35.200000000000003</ele>
        <time>2013-09-09T10:37:18Z</time>
      </trkpt>
      <trkpt lat="52.896064762026072" lon="12.46012712828815">
        <ele>29.899999999999999</ele>
        <time>2013-09-09T10:39:01Z</time>
      </trkpt>
      <trkpt lat="52.894566329196095" lon="12.460347404703498">
        <ele>33.299999999999997</ele>
        <time>2013-09-09T10:40:04Z</time>
      </trkpt>
      <trkpt lat="52.893894603475928" lon="12.459835773333907">
        <ele>31.899999999999999</ele>
        <time>2013-09-09T10:40:27Z</time>
      </trkpt>
      <trkpt lat="52.893333602696657" lon="12.459956472739577">
        <ele>31.899999999999999</ele>
        <time>2013-09-09T10:40:44Z</time>
      </trkpt>
      <trkpt lat="52.893217597156763" lon="12.459784476086497">
        <ele>31.399999999999999</ele>
        <time>2013-09-09T10:40:50Z</time>
      </trkpt>
      <trkpt lat="52.89173835888505" lon="12.459629494696856">
        <ele>29.899999999999999</ele>
        <time>2013-09-09T10:41:22Z</time>
      </trkpt>
      <trkpt lat="52.890783492475748" lon="12.459946162998676">
        <ele>29.899999999999999</ele>
        <time>2013-09-09T10:41:41Z</time>
      </trkpt>
      <trkpt lat="52.890970828011632" lon="12.461701165884733">
        <ele>33.799999999999997</ele>
        <time>2013-09-09T10:42:10Z</time>
      </trkpt>
      <trkpt lat="52.891247598454356" lon="12.462459225207567">
        <ele>34.299999999999997</ele>
        <time>2013-09-09T10:42:28Z</time>
      </trkpt>
      <trkpt lat="52.891160091385245" lon="12.465386185795069">
        <ele>31.399999999999999</ele>
        <time>2013-09-09T10:43:04Z</time>
      </trkpt>
      <trkpt lat="52.891451865434647" lon="12.46538920328021">
        <ele>32.299999999999997</ele>
        <time>2013-09-09T10:43:13Z</time>
      </trkpt>
      <trkpt lat="52.89159276522696" lon="12.464790819212794">
        <ele>32.299999999999997</ele>
        <time>2013-09-09T10:43:32Z</time>
      </trkpt>
      <trkpt lat="52.891252627596259" lon="12.464969186112285">
        <ele>31.899999999999999</ele>
        <time>2013-09-09T10:49:00Z</time>
      </trkpt>
      <trkpt lat="52.891114661470056" lon="12.465413678437471">
        <ele>31.399999999999999</ele>
        <time>2013-09-09T10:49:08Z</time>
      </trkpt>
      <trkpt lat="52.890855241566896" lon="12.469552410766482">
        <ele>30.899999999999999</ele>
        <time>2013-09-09T10:49:50Z</time>
      </trkpt>
      <trkpt lat="52.888199016451836" lon="12.476326329633594">
        <ele>30.399999999999999</ele>
        <time>2013-09-09T10:51:06Z</time>
      </trkpt>
      <trkpt lat="52.885473137721419" lon="12.488738419488072">
        <ele>33.299999999999997</ele>
        <time>2013-09-09T10:54:05Z</time>
      </trkpt>
      <trkpt lat="52.886413503438234" lon="12.484430372714996">
        <ele>32.799999999999997</ele>
        <time>2013-09-09T10:56:29Z</time>
      </trkpt>
      <trkpt lat="52.886785324662924" lon="12.483291858807206">
        <ele>33.299999999999997</ele>
        <time>2013-09-09T10:57:00Z</time>
      </trkpt>
      <trkpt lat="52.888570502400398" lon="12.503332486376166">
        <ele>37.200000000000003</ele>
        <time>2013-09-09T11:00:54Z</time>
      </trkpt>
      <trkpt lat="52.888528006151319" lon="12.504870062693954">
        <ele>35.700000000000003</ele>
        <time>2013-09-09T11:01:10Z</time>
      </trkpt>
      <trkpt lat="52.886384669691324" lon="12.517439480870962">
        <ele>37.200000000000003</ele>
        <time>2013-09-09T11:03:20Z</time>
      </trkpt>
      <trkpt lat="52.886186689138412" lon="12.51750536262989">
        <ele>36.200000000000003</ele>
        <time>2013-09-09T11:03:24Z</time>
      </trkpt>
      <trkpt lat="52.878733919933438" lon="12.512256363406777">
        <ele>32.799999999999997</ele>
        <time>2013-09-09T11:05:44Z</time>
      </trkpt>
      <trkpt lat="52.877625329419971" lon="12.51193156465888">
        <ele>32.799999999999997</ele>
        <time>2013-09-09T11:06:03Z</time>
      </trkpt>
      <trkpt lat="52.876815972849727" lon="12.51202343031764">
        <ele>31.899999999999999</ele>
        <time>2013-09-09T11:06:17Z</time>
      </trkpt>
      <trkpt lat="52.876266539096832" lon="12.512614438310266">
        <ele>33.299999999999997</ele>
        <time>2013-09-09T11:06:28Z</time>
      </trkpt>
      <trkpt lat="52.875907206907868" lon="12.513841213658452">
        <ele>33.799999999999997</ele>
        <time>2013-09-09T11:06:42Z</time>
      </trkpt>
      <trkpt lat="52.875620713457465" lon="12.514217896386981">
        <ele>33.799999999999997</ele>
        <time>2013-09-09T11:06:56Z</time>
      </trkpt>
      <trkpt lat="52.875804360955954" lon="12.516210274770856">
        <ele>34.299999999999997</ele>
        <time>2013-09-09T11:07:19Z</time>
      </trkpt>
      <trkpt lat="52.875347128137946" lon="12.5203369371593">
        <ele>34.700000000000003</ele>
        <time>2013-09-09T11:08:09Z</time>
      </trkpt>
      <trkpt lat="52.875915337353945" lon="12.526234360411763">
        <ele>37.600000000000001</ele>
        <time>2013-09-09T11:09:21Z</time>
      </trkpt>
      <trkpt lat="52.875776616856456" lon="12.52669989131391">
        <ele>38.100000000000001</ele>
        <time>2013-09-09T11:09:38Z</time>
      </trkpt>
      <trkpt lat="52.87497790530324" lon="12.526844730600715">
        <ele>38.100000000000001</ele>
        <time>2013-09-09T11:10:43Z</time>
      </trkpt>
      <trkpt lat="52.876217002049088" lon="12.530013425275683">
        <ele>37.600000000000001</ele>
        <time>2013-09-09T11:19:13Z</time>
      </trkpt>
      <trkpt lat="52.876640120521188" lon="12.533108359202743">
        <ele>35.700000000000003</ele>
        <time>2013-09-09T11:19:44Z</time>
      </trkpt>
      <trkpt lat="52.877872679382563" lon="12.538844430819154">
        <ele>36.700000000000003</ele>
        <time>2013-09-09T11:20:34Z</time>
      </trkpt>
      <trkpt lat="52.87792338989675" lon="12.540660286322236">
        <ele>37.200000000000003</ele>
        <time>2013-09-09T11:20:50Z</time>
      </trkpt>
      <trkpt lat="52.877231799066067" lon="12.549273110926151">
        <ele>37.600000000000001</ele>
        <time>2013-09-09T11:21:55Z</time>
      </trkpt>
      <trkpt lat="52.875205390155315" lon="12.56157380528748">
        <ele>37.200000000000003</ele>
        <time>2013-09-09T11:23:25Z</time>
      </trkpt>
      <trkpt lat="52.874114401638508" lon="12.569979596883059">
        <ele>36.700000000000003</ele>
        <time>2013-09-09T11:24:35Z</time>
      </trkpt>
      <trkpt lat="52.873102119192481" lon="12.569921761751175">
        <ele>35.200000000000003</ele>
        <time>2013-09-09T11:25:07Z</time>
      </trkpt>
      <trkpt lat="52.862363392487168" lon="12.572643365710974">
        <ele>31.399999999999999</ele>
        <time>2013-09-09T11:30:22Z</time>
      </trkpt>
      <trkpt lat="52.860890859737992" lon="12.571061868220568">
        <ele>31.899999999999999</ele>
        <time>2013-09-09T11:31:14Z</time>
      </trkpt>
      <trkpt lat="52.857975633814931" lon="12.568578729405999">
        <ele>34.299999999999997</ele>
        <time>2013-09-09T11:33:03Z</time>
      </trkpt>
      <trkpt lat="52.854820936918259" lon="12.567246677353978">
        <ele>34.700000000000003</ele>
        <time>2013-09-09T11:34:39Z</time>
      </trkpt>
      <trkpt lat="52.855521496385336" lon="12.572220666334033">
        <ele>33.299999999999997</ele>
        <time>2013-09-09T11:38:24Z</time>
      </trkpt>
      <trkpt lat="52.855616211891174" lon="12.575213341042399">
        <ele>33.299999999999997</ele>
        <time>2013-09-09T11:39:27Z</time>
      </trkpt>
      <trkpt lat="52.855475060641766" lon="12.578869862481952">
        <ele>32.799999999999997</ele>
        <time>2013-09-09T11:40:36Z</time>
      </trkpt>
      <trkpt lat="52.855089912191033" lon="12.582753365859389">
        <ele>31.899999999999999</ele>
        <time>2013-09-09T11:41:52Z</time>
      </trkpt>
      <trkpt lat="52.854646341875196" lon="12.591775981709361">
        <ele>33.299999999999997</ele>
        <time>2013-09-09T11:45:28Z</time>
      </trkpt>
      <trkpt lat="52.854170417413116" lon="12.5960255227983">
        <ele>31.899999999999999</ele>
        <time>2013-09-09T11:46:54Z</time>
      </trkpt>
      <trkpt lat="52.853009272366762" lon="12.601352641358972">
        <ele>32.799999999999997</ele>
        <time>2013-09-09T11:49:20Z</time>
      </trkpt>
      <trkpt lat="52.852215506136417" lon="12.603900069370866">
        <ele>36.700000000000003</ele>
        <time>2013-09-09T11:50:16Z</time>
      </trkpt>
      <trkpt lat="52.852017441764474" lon="12.604297287762165">
        <ele>36.700000000000003</ele>
        <time>2013-09-09T11:50:27Z</time>
      </trkpt>
      <trkpt lat="52.851440431550145" lon="12.603876264765859">
        <ele>37.600000000000001</ele>
        <time>2013-09-09T11:50:53Z</time>
      </trkpt>
      <trkpt lat="52.850190522149205" lon="12.605930417776108">
        <ele>41</ele>
        <time>2013-09-09T11:51:35Z</time>
      </trkpt>
      <trkpt lat="52.847428098320961" lon="12.611022172495723">
        <ele>40</ele>
        <time>2013-09-09T11:52:41Z</time>
      </trkpt>
      <trkpt lat="52.844916293397546" lon="12.616975922137499">
        <ele>36.700000000000003</ele>
        <time>2013-09-09T11:53:37Z</time>
      </trkpt>
      <trkpt lat="52.844450008124113" lon="12.618686417117715">
        <ele>34.299999999999997</ele>
        <time>2013-09-09T11:53:49Z</time>
      </trkpt>
      <trkpt lat="52.843941394239664" lon="12.621563589200377">
        <ele>29.899999999999999</ele>
        <time>2013-09-09T11:54:06Z</time>
      </trkpt>
      <trkpt lat="52.84340662881732" lon="12.623056741431355">
        <ele>28.5</ele>
        <time>2013-09-09T11:54:16Z</time>
      </trkpt>
      <trkpt lat="52.842623675242066" lon="12.624249905347824">
        <ele>30.399999999999999</ele>
        <time>2013-09-09T11:54:43Z</time>
      </trkpt>
      <trkpt lat="52.842816207557917" lon="12.626255778595805">
        <ele>27.5</ele>
        <time>2013-09-09T11:55:07Z</time>
      </trkpt>
      <trkpt lat="52.842744709923863" lon="12.628139024600387">
        <ele>29</ele>
        <time>2013-09-09T11:55:25Z</time>
      </trkpt>
      <trkpt lat="52.843085769563913" lon="12.631002115085721">
        <ele>31.399999999999999</ele>
        <time>2013-09-09T11:57:08Z</time>
      </trkpt>
      <trkpt lat="52.842788295820355" lon="12.62970375828445">
        <ele>32.799999999999997</ele>
        <time>2013-09-09T12:00:44Z</time>
      </trkpt>
      <trkpt lat="52.84290480427444" lon="12.629718258976936">
        <ele>32.799999999999997</ele>
        <time>2013-09-09T12:01:11Z</time>
      </trkpt>
      <trkpt lat="52.842757618054748" lon="12.627950934693217">
        <ele>30.399999999999999</ele>
        <time>2013-09-09T12:01:40Z</time>
      </trkpt>
      <trkpt lat="52.842854512855411" lon="12.626512935385108">
        <ele>30.899999999999999</ele>
        <time>2013-09-09T12:01:58Z</time>
      </trkpt>
      <trkpt lat="52.842642785981297" lon="12.62437823228538">
        <ele>27.5</ele>
        <time>2013-09-09T12:02:26Z</time>
      </trkpt>
      <trkpt lat="52.83758170902729" lon="12.625112487003207">
        <ele>32.299999999999997</ele>
        <time>2013-09-09T12:04:01Z</time>
      </trkpt>
      <trkpt lat="52.835985962301493" lon="12.624424081295729">
        <ele>33.799999999999997</ele>
        <time>2013-09-09T12:04:33Z</time>
      </trkpt>
      <trkpt lat="52.834439417347312" lon="12.623162101954222">
        <ele>30.899999999999999</ele>
        <time>2013-09-09T12:05:02Z</time>
      </trkpt>
      <trkpt lat="52.833781186491251" lon="12.620961517095566">
        <ele>30.399999999999999</ele>
        <time>2013-09-09T12:05:30Z</time>
      </trkpt>
      <trkpt lat="52.830558596178889" lon="12.6157446205616">
        <ele>31.399999999999999</ele>
        <time>2013-09-09T12:07:00Z</time>
      </trkpt>
      <trkpt lat="52.82745435833931" lon="12.607213016599417">
        <ele>24.699999999999999</ele>
        <time>2013-09-09T12:09:05Z</time>
      </trkpt>
      <trkpt lat="52.827042974531651" lon="12.605735119432211">
        <ele>28</ele>
        <time>2013-09-09T12:09:24Z</time>
      </trkpt>
      <trkpt lat="52.82716216519475" lon="12.591946301981807">
        <ele>33.799999999999997</ele>
        <time>2013-09-09T12:12:32Z</time>
      </trkpt>
      <trkpt lat="52.82695353962481" lon="12.586722364649177">
        <ele>33.799999999999997</ele>
        <time>2013-09-09T12:13:30Z</time>
      </trkpt>
      <trkpt lat="52.826996790245175" lon="12.584616998210549">
        <ele>31.399999999999999</ele>
        <time>2013-09-09T12:13:53Z</time>
      </trkpt>
      <trkpt lat="52.826004875823855" lon="12.577158026397228">
        <ele>28.5</ele>
        <time>2013-09-09T12:15:21Z</time>
      </trkpt>
      <trkpt lat="52.824778435751796" lon="12.573934681713581">
        <ele>29.899999999999999</ele>
        <time>2013-09-09T12:18:35Z</time>
      </trkpt>
      <trkpt lat="52.82523893751204" lon="12.575548281893134">
        <ele>30.899999999999999</ele>
        <time>2013-09-09T12:19:52Z</time>
      </trkpt>
      <trkpt lat="52.826062710955739" lon="12.577448962256312">
        <ele>30.899999999999999</ele>
        <time>2013-09-09T12:20:16Z</time>
      </trkpt>
      <trkpt lat="52.826936021447182" lon="12.58430234156549">
        <ele>34.299999999999997</ele>
        <time>2013-09-09T12:21:33Z</time>
      </trkpt>
      <trkpt lat="52.82712746411562" lon="12.592096338048577">
        <ele>37.200000000000003</ele>
        <time>2013-09-09T12:22:57Z</time>
      </trkpt>
      <trkpt lat="52.827003160491586" lon="12.604235429316759">
        <ele>29</ele>
        <time>2013-09-09T12:24:35Z</time>
      </trkpt>
      <trkpt lat="52.82709863036871" lon="12.606435511261225">
        <ele>30.399999999999999</ele>
        <time>2013-09-09T12:24:53Z</time>
      </trkpt>
      <trkpt lat="52.830231115221977" lon="12.614967199042439">
        <ele>34.299999999999997</ele>
        <time>2013-09-09T12:26:34Z</time>
      </trkpt>
      <trkpt lat="52.830905606970191" lon="12.616485161706805">
        <ele>32.799999999999997</ele>
        <time>2013-09-09T12:26:50Z</time>
      </trkpt>
      <trkpt lat="52.833728631958365" lon="12.620903514325619">
        <ele>32.799999999999997</ele>
        <time>2013-09-09T12:27:49Z</time>
      </trkpt>
      <trkpt lat="52.834564140066504" lon="12.623365866020322">
        <ele>35.700000000000003</ele>
        <time>2013-09-09T12:28:21Z</time>
      </trkpt>
      <trkpt lat="52.835321109741926" lon="12.624060977250338">
        <ele>35.700000000000003</ele>
        <time>2013-09-09T12:28:37Z</time>
      </trkpt>
      <trkpt lat="52.837097737938166" lon="12.625103937461972">
        <ele>35.200000000000003</ele>
        <time>2013-09-09T12:29:14Z</time>
      </trkpt>
      <trkpt lat="52.838148660957813" lon="12.625176189467311">
        <ele>33.799999999999997</ele>
        <time>2013-09-09T12:29:31Z</time>
      </trkpt>
      <trkpt lat="52.842543879523873" lon="12.624477641656995">
        <ele>31.899999999999999</ele>
        <time>2013-09-09T12:30:45Z</time>
      </trkpt>
      <trkpt lat="52.842739010229707" lon="12.62489958666265">
        <ele>32.299999999999997</ele>
        <time>2013-09-09T12:30:51Z</time>
      </trkpt>
      <trkpt lat="52.84276507794857" lon="12.628376735374331">
        <ele>33.299999999999997</ele>
        <time>2013-09-09T12:31:25Z</time>
      </trkpt>
      <trkpt lat="52.843237398192286" lon="12.6310826651752">
        <ele>34.299999999999997</ele>
        <time>2013-09-09T12:31:58Z</time>
      </trkpt>
      <trkpt lat="52.842533066868782" lon="12.634426960721612">
        <ele>35.200000000000003</ele>
        <time>2013-09-09T12:32:40Z</time>
      </trkpt>
      <trkpt lat="52.842545639723539" lon="12.636113902553916">
        <ele>34.700000000000003</ele>
        <time>2013-09-09T12:32:55Z</time>
      </trkpt>
      <trkpt lat="52.843331359326839" lon="12.644664281979203">
        <ele>33.799999999999997</ele>
        <time>2013-09-09T12:34:06Z</time>
      </trkpt>
      <trkpt lat="52.843248881399632" lon="12.64700124040246">
        <ele>33.799999999999997</ele>
        <time>2013-09-09T12:34:25Z</time>
      </trkpt>
      <trkpt lat="52.842610264196992" lon="12.654539505019784">
        <ele>34.299999999999997</ele>
        <time>2013-09-09T12:35:33Z</time>
      </trkpt>
      <trkpt lat="52.842692658305168" lon="12.661558259278536">
        <ele>33.799999999999997</ele>
        <time>2013-09-09T12:36:43Z</time>
      </trkpt>
      <trkpt lat="52.842772370204329" lon="12.662865165621042">
        <ele>33.299999999999997</ele>
        <time>2013-09-09T12:36:56Z</time>
      </trkpt>
      <trkpt lat="52.843092139810324" lon="12.664511539041996">
        <ele>33.799999999999997</ele>
        <time>2013-09-09T12:37:13Z</time>
      </trkpt>
      <trkpt lat="52.845034897327423" lon="12.67213043756783">
        <ele>33.799999999999997</ele>
        <time>2013-09-09T12:38:37Z</time>
      </trkpt>
      <trkpt lat="52.845418034121394" lon="12.679297802969813">
        <ele>34.700000000000003</ele>
        <time>2013-09-09T12:39:47Z</time>
      </trkpt>
      <trkpt lat="52.845505960285664" lon="12.684332393109798">
        <ele>36.700000000000003</ele>
        <time>2013-09-09T12:43:49Z</time>
      </trkpt>
      <trkpt lat="52.84549456089735" lon="12.685064133256674">
        <ele>36.700000000000003</ele>
        <time>2013-09-09T12:43:57Z</time>
      </trkpt>
      <trkpt lat="52.845107316970825" lon="12.687185760587454">
        <ele>39.100000000000001</ele>
        <time>2013-09-09T12:44:22Z</time>
      </trkpt>
      <trkpt lat="52.843599999323487" lon="12.69434742629528">
        <ele>39.100000000000001</ele>
        <time>2013-09-09T12:46:03Z</time>
      </trkpt>
      <trkpt lat="52.842899775132537" lon="12.701737331226468">
        <ele>33.799999999999997</ele>
        <time>2013-09-09T12:46:54Z</time>
      </trkpt>
      <trkpt lat="52.841827478259802" lon="12.706888765096664">
        <ele>34.700000000000003</ele>
        <time>2013-09-09T12:47:36Z</time>
      </trkpt>
      <trkpt lat="52.84133336506784" lon="12.711998708546162">
        <ele>34.700000000000003</ele>
        <time>2013-09-09T12:48:19Z</time>
      </trkpt>
      <trkpt lat="52.841393714770675" lon="12.714954083785415">
        <ele>37.200000000000003</ele>
        <time>2013-09-09T12:48:49Z</time>
      </trkpt>
      <trkpt lat="52.840693909674883" lon="12.715600077062845">
        <ele>31.899999999999999</ele>
        <time>2013-09-09T12:49:01Z</time>
      </trkpt>
      <trkpt lat="52.840384617447853" lon="12.71566771902144">
        <ele>32.299999999999997</ele>
        <time>2013-09-09T12:49:05Z</time>
      </trkpt>
      <trkpt lat="52.837101006880403" lon="12.714587124064565">
        <ele>29.5</ele>
        <time>2013-09-09T12:49:54Z</time>
      </trkpt>
      <trkpt lat="52.836607564240694" lon="12.711894270032644">
        <ele>30.399999999999999</ele>
        <time>2013-09-09T12:50:26Z</time>
      </trkpt>
      <trkpt lat="52.835949417203665" lon="12.710406985133886">
        <ele>31.899999999999999</ele>
        <time>2013-09-09T12:50:51Z</time>
      </trkpt>
      <trkpt lat="52.836184278130531" lon="12.710974104702473">
        <ele>32.299999999999997</ele>
        <time>2013-09-09T12:51:40Z</time>
      </trkpt>
      <trkpt lat="52.835930809378624" lon="12.710419977083802">
        <ele>31.399999999999999</ele>
        <time>2013-09-09T12:53:43Z</time>
      </trkpt>
      <trkpt lat="52.835767529904842" lon="12.710373541340232">
        <ele>31.399999999999999</ele>
        <time>2013-09-09T12:53:47Z</time>
      </trkpt>
      <trkpt lat="52.831461075693369" lon="12.711757058277726">
        <ele>31.899999999999999</ele>
        <time>2013-09-09T12:55:12Z</time>
      </trkpt>
      <trkpt lat="52.822771305218339" lon="12.715124823153019">
        <ele>29.899999999999999</ele>
        <time>2013-09-09T12:57:48Z</time>
      </trkpt>
      <trkpt lat="52.818075511604548" lon="12.715130439028144">
        <ele>30.399999999999999</ele>
        <time>2013-09-09T12:59:05Z</time>
      </trkpt>
      <trkpt lat="52.813933594152331" lon="12.716633565723896">
        <ele>31.899999999999999</ele>
        <time>2013-09-09T13:00:32Z</time>
      </trkpt>
      <trkpt lat="52.816801965236664" lon="12.726090531796217">
        <ele>32.299999999999997</ele>
        <time>2013-09-09T13:02:52Z</time>
      </trkpt>
      <trkpt lat="52.817779798060656" lon="12.730552218854427">
        <ele>31.399999999999999</ele>
        <time>2013-09-09T13:03:45Z</time>
      </trkpt>
      <trkpt lat="52.817796478047967" lon="12.734142858535051">
        <ele>32.799999999999997</ele>
        <time>2013-09-09T13:04:25Z</time>
      </trkpt>
      <trkpt lat="52.81810786575079" lon="12.7399374358356">
        <ele>32.799999999999997</ele>
        <time>2013-09-09T13:05:33Z</time>
      </trkpt>
      <trkpt lat="52.82066049054265" lon="12.750634420663118">
        <ele>32.799999999999997</ele>
        <time>2013-09-09T13:12:49Z</time>
      </trkpt>
      <trkpt lat="52.820829218253493" lon="12.754334025084972">
        <ele>32.299999999999997</ele>
        <time>2013-09-09T13:15:57Z</time>
      </trkpt>
      <trkpt lat="52.820653198286891" lon="12.754579614847898">
        <ele>32.299999999999997</ele>
        <time>2013-09-09T13:16:05Z</time>
      </trkpt>
      <trkpt lat="52.82127320766449" lon="12.759873541072011">
        <ele>32.299999999999997</ele>
        <time>2013-09-09T13:17:11Z</time>
      </trkpt>
      <trkpt lat="52.81670406460762" lon="12.765541635453701">
        <ele>33.299999999999997</ele>
        <time>2013-09-09T13:19:24Z</time>
      </trkpt>
      <trkpt lat="52.816653437912464" lon="12.767162527889013">
        <ele>33.299999999999997</ele>
        <time>2013-09-09T13:23:47Z</time>
      </trkpt>
      <trkpt lat="52.816778160631657" lon="12.766649639233947">
        <ele>34.299999999999997</ele>
        <time>2013-09-09T13:24:44Z</time>
      </trkpt>
      <trkpt lat="52.816765839233994" lon="12.765650600194931">
        <ele>33.799999999999997</ele>
        <time>2013-09-09T13:25:10Z</time>
      </trkpt>
      <trkpt lat="52.816986031830311" lon="12.765661831945181">
        <ele>34.700000000000003</ele>
        <time>2013-09-09T13:25:23Z</time>
      </trkpt>
      <trkpt lat="52.814945792779326" lon="12.764574363827705">
        <ele>38.100000000000001</ele>
        <time>2013-09-09T13:26:26Z</time>
      </trkpt>
      <trkpt lat="52.813480384647846" lon="12.764221737161279">
        <ele>40</ele>
        <time>2013-09-09T13:27:26Z</time>
      </trkpt>
      <trkpt lat="52.814496690407395" lon="12.761619659140706">
        <ele>42.399999999999999</ele>
        <time>2013-09-09T13:28:23Z</time>
      </trkpt>
      <trkpt lat="52.814508341252804" lon="12.760031623765826">
        <ele>42.399999999999999</ele>
        <time>2013-09-09T13:29:04Z</time>
      </trkpt>
      <trkpt lat="52.814698023721576" lon="12.759691569954157">
        <ele>43.899999999999999</ele>
        <time>2013-09-09T13:30:56Z</time>
      </trkpt>
      <trkpt lat="52.814532229676843" lon="12.760137738659978">
        <ele>43.399999999999999</ele>
        <time>2013-09-09T13:31:40Z</time>
      </trkpt>
      <trkpt lat="52.814581599086523" lon="12.7612279728055">
        <ele>42.399999999999999</ele>
        <time>2013-09-09T13:32:03Z</time>
      </trkpt>
      <trkpt lat="52.813455993309617" lon="12.764526419341564">
        <ele>38.100000000000001</ele>
        <time>2013-09-09T13:32:56Z</time>
      </trkpt>
      <trkpt lat="52.812610091641545" lon="12.770498860627413">
        <ele>35.200000000000003</ele>
        <time>2013-09-09T13:34:04Z</time>
      </trkpt>
      <trkpt lat="52.811970887705684" lon="12.771400921046734">
        <ele>34.700000000000003</ele>
        <time>2013-09-09T13:34:19Z</time>
      </trkpt>
      <trkpt lat="52.811751700937748" lon="12.771184416487813">
        <ele>36.200000000000003</ele>
        <time>2013-09-09T13:34:27Z</time>
      </trkpt>
      <trkpt lat="52.80657378025353" lon="12.774281110614538">
        <ele>43.399999999999999</ele>
        <time>2013-09-09T13:36:35Z</time>
      </trkpt>
      <trkpt lat="52.80691877938807" lon="12.774180192500353">
        <ele>43.899999999999999</ele>
        <time>2013-09-09T13:36:49Z</time>
      </trkpt>
      <trkpt lat="52.806919366121292" lon="12.774356966838241">
        <ele>42.899999999999999</ele>
        <time>2013-09-09T13:36:56Z</time>
      </trkpt>
      <trkpt lat="52.80571773648262" lon="12.776665762066841">
        <ele>45.799999999999997</ele>
        <time>2013-09-09T13:38:52Z</time>
      </trkpt>
      <trkpt lat="52.805395536124706" lon="12.775289202108979">
        <ele>43.899999999999999</ele>
        <time>2013-09-09T13:39:27Z</time>
      </trkpt>
      <trkpt lat="52.805142821744084" lon="12.775142937898636">
        <ele>43.399999999999999</ele>
        <time>2013-09-09T13:39:37Z</time>
      </trkpt>
      <trkpt lat="52.803511787205935" lon="12.775959419086576">
        <ele>35.700000000000003</ele>
        <time>2013-09-09T13:40:03Z</time>
      </trkpt>
      <trkpt lat="52.803195789456367" lon="12.774743037298322">
        <ele>31.899999999999999</ele>
        <time>2013-09-09T13:40:17Z</time>
      </trkpt>
      <trkpt lat="52.802753476426005" lon="12.774113388732076">
        <ele>34.700000000000003</ele>
        <time>2013-09-09T13:40:28Z</time>
      </trkpt>
      <trkpt lat="52.799666002392769" lon="12.772672288119793">
        <ele>36.700000000000003</ele>
        <time>2013-09-09T13:41:41Z</time>
      </trkpt>
      <trkpt lat="52.788768773898482" lon="12.765526883304119">
        <ele>38.100000000000001</ele>
        <time>2013-09-09T13:45:19Z</time>
      </trkpt>
      <trkpt lat="52.788358060643077" lon="12.765515064820647">
        <ele>40</ele>
        <time>2013-09-09T13:45:30Z</time>
      </trkpt>
      <trkpt lat="52.78840072453022" lon="12.76763929054141">
        <ele>38.600000000000001</ele>
        <time>2013-09-09T13:45:59Z</time>
      </trkpt>
      <trkpt lat="52.78784366324544" lon="12.770561138167977">
        <ele>39.600000000000001</ele>
        <time>2013-09-09T13:46:35Z</time>
      </trkpt>
      <trkpt lat="52.787608969956636" lon="12.770696841180325">
        <ele>37.600000000000001</ele>
        <time>2013-09-09T13:46:41Z</time>
      </trkpt>
      <trkpt lat="52.785874921828508" lon="12.770381513983011">
        <ele>39.600000000000001</ele>
        <time>2013-09-09T13:47:22Z</time>
      </trkpt>
      <trkpt lat="52.785460939630866" lon="12.773121306672692">
        <ele>41</ele>
        <time>2013-09-09T13:48:10Z</time>
      </trkpt>
      <trkpt lat="52.784577235579491" lon="12.772986106574535">
        <ele>39.600000000000001</ele>
        <time>2013-09-09T13:48:38Z</time>
      </trkpt>
      <trkpt lat="52.784426612779498" lon="12.773177213966846">
        <ele>39.600000000000001</ele>
        <time>2013-09-09T13:48:42Z</time>
      </trkpt>
      <trkpt lat="52.782629868015647" lon="12.778502907603979">
        <ele>41.5</ele>
        <time>2013-09-09T13:49:49Z</time>
      </trkpt>
      <trkpt lat="52.782353768125176" lon="12.778671635314822">
        <ele>40</ele>
        <time>2013-09-09T13:49:54Z</time>
      </trkpt>
      <trkpt lat="52.781478865072131" lon="12.778403665870428">
        <ele>40</ele>
        <time>2013-09-09T13:50:10Z</time>
      </trkpt>
      <trkpt lat="52.781261103227735" lon="12.778584714978933">
        <ele>41.5</ele>
        <time>2013-09-09T13:50:15Z</time>
      </trkpt>
      <trkpt lat="52.780028460547328" lon="12.803763533011079">
        <ele>40.5</ele>
        <time>2013-09-09T13:54:17Z</time>
      </trkpt>
      <trkpt lat="52.774853222072124" lon="12.808669377118349">
        <ele>37.200000000000003</ele>
        <time>2013-09-09T13:56:20Z</time>
      </trkpt>
      <trkpt lat="52.773761311545968" lon="12.809959938749671">
        <ele>36.200000000000003</ele>
        <time>2013-09-09T13:56:41Z</time>
      </trkpt>
      <trkpt lat="52.769202562049031" lon="12.80896358191967">
        <ele>34.700000000000003</ele>
        <time>2013-09-09T13:58:23Z</time>
      </trkpt>
      <trkpt lat="52.768644662573934" lon="12.809807220473886">
        <ele>37.600000000000001</ele>
        <time>2013-09-09T13:59:08Z</time>
      </trkpt>
      <trkpt lat="52.76842849329114" lon="12.812034459784627">
        <ele>36.200000000000003</ele>
        <time>2013-09-09T13:59:58Z</time>
      </trkpt>
      <trkpt lat="52.767943181097507" lon="12.813732801005244">
        <ele>32.799999999999997</ele>
        <time>2013-09-09T14:00:35Z</time>
      </trkpt>
      <trkpt lat="52.767354268580675" lon="12.813580334186554">
        <ele>33.799999999999997</ele>
        <time>2013-09-09T14:02:01Z</time>
      </trkpt>
      <trkpt lat="52.766932658851147" lon="12.814761428162456">
        <ele>34.700000000000003</ele>
        <time>2013-09-09T14:03:27Z</time>
      </trkpt>
      <trkpt lat="52.766552790999413" lon="12.815328799188137">
        <ele>36.200000000000003</ele>
        <time>2013-09-09T14:04:01Z</time>
      </trkpt>
      <trkpt lat="52.764965007081628" lon="12.816332867369056">
        <ele>34.700000000000003</ele>
        <time>2013-09-09T14:06:01Z</time>
      </trkpt>
      <trkpt lat="52.764097899198532" lon="12.816463373601437">
        <ele>34.299999999999997</ele>
        <time>2013-09-09T14:07:33Z</time>
      </trkpt>
      <trkpt lat="52.764261597767472" lon="12.816946674138308">
        <ele>34.700000000000003</ele>
        <time>2013-09-09T14:08:03Z</time>
      </trkpt>
      <trkpt lat="52.768000094220042" lon="12.820021407678723">
        <ele>40</ele>
        <time>2013-09-09T14:09:54Z</time>
      </trkpt>
      <trkpt lat="52.772148298099637" lon="12.825036635622382">
        <ele>40</ele>
        <time>2013-09-09T14:11:31Z</time>
      </trkpt>
      <trkpt lat="52.771061668172479" lon="12.825697381049395">
        <ele>40</ele>
        <time>2013-09-09T14:12:00Z</time>
      </trkpt>
      <trkpt lat="52.770488262176514" lon="12.826527860015631">
        <ele>40</ele>
        <time>2013-09-09T14:12:18Z</time>
      </trkpt>
      <trkpt lat="52.770455488935113" lon="12.826864058151841">
        <ele>39.100000000000001</ele>
        <time>2013-09-09T14:12:27Z</time>
      </trkpt>
      <trkpt lat="52.771291919052601" lon="12.828399706631899">
        <ele>41</ele>
        <time>2013-09-09T14:13:13Z</time>
      </trkpt>
      <trkpt lat="52.771213799715042" lon="12.828699024394155">
        <ele>40.5</ele>
        <time>2013-09-09T14:14:00Z</time>
      </trkpt>
      <trkpt lat="52.771328967064619" lon="12.82943420112133">
        <ele>40.5</ele>
        <time>2013-09-09T14:15:24Z</time>
      </trkpt>
      <trkpt lat="52.771221762523055" lon="12.829327080398798">
        <ele>41</ele>
        <time>2013-09-09T14:19:16Z</time>
      </trkpt>
      <trkpt lat="52.775675570592284" lon="12.83715988509357">
        <ele>44.399999999999999</ele>
        <time>2013-09-09T14:32:21Z</time>
      </trkpt>
      <trkpt lat="52.776125762611628" lon="12.836677841842175">
        <ele>42</ele>
        <time>2013-09-09T14:32:47Z</time>
      </trkpt>
      <trkpt lat="52.778169102966785" lon="12.832183884456754">
        <ele>36.700000000000003</ele>
        <time>2013-09-09T14:34:07Z</time>
      </trkpt>
      <trkpt lat="52.780007924884558" lon="12.834174167364836">
        <ele>38.100000000000001</ele>
        <time>2013-09-09T14:34:57Z</time>
      </trkpt>
      <trkpt lat="52.780290562659502" lon="12.834731983020902">
        <ele>40</ele>
        <time>2013-09-09T14:35:13Z</time>
      </trkpt>
      <trkpt lat="52.780307410284877" lon="12.835489120334387">
        <ele>40.5</ele>
        <time>2013-09-09T14:35:28Z</time>
      </trkpt>
      <trkpt lat="52.779688658192754" lon="12.836848078295588">
        <ele>36.700000000000003</ele>
        <time>2013-09-09T14:35:52Z</time>
      </trkpt>
      <trkpt lat="52.779653202742338" lon="12.837703200057149">
        <ele>34.700000000000003</ele>
        <time>2013-09-09T14:36:00Z</time>
      </trkpt>
      <trkpt lat="52.7804668340832" lon="12.840064214542508">
        <ele>33.799999999999997</ele>
        <time>2013-09-09T14:36:28Z</time>
      </trkpt>
      <trkpt lat="52.781778601929545" lon="12.846420463174582">
        <ele>35.200000000000003</ele>
        <time>2013-09-09T14:37:44Z</time>
      </trkpt>
      <trkpt lat="52.782143885269761" lon="12.846507970243692">
        <ele>34.700000000000003</ele>
        <time>2013-09-09T14:37:52Z</time>
      </trkpt>
      <trkpt lat="52.784540187567472" lon="12.844413835555315">
        <ele>35.200000000000003</ele>
        <time>2013-09-09T14:38:51Z</time>
      </trkpt>
      <trkpt lat="52.784837326034904" lon="12.844345774501562">
        <ele>35.200000000000003</ele>
        <time>2013-09-09T14:38:58Z</time>
      </trkpt>
      <trkpt lat="52.788551598787308" lon="12.849593935534358">
        <ele>37.200000000000003</ele>
        <time>2013-09-09T14:41:02Z</time>
      </trkpt>
      <trkpt lat="52.789279986172915" lon="12.851315075531602">
        <ele>35.200000000000003</ele>
        <time>2013-09-09T14:42:50Z</time>
      </trkpt>
      <trkpt lat="52.790857460349798" lon="12.853301418945193">
        <ele>33.299999999999997</ele>
        <time>2013-09-09T14:43:31Z</time>
      </trkpt>
      <trkpt lat="52.791214277967811" lon="12.855030186474323">
        <ele>33.299999999999997</ele>
        <time>2013-09-09T14:43:53Z</time>
      </trkpt>
      <trkpt lat="52.791421981528401" lon="12.857852373272181">
        <ele>33.299999999999997</ele>
        <time>2013-09-09T14:44:23Z</time>
      </trkpt>
      <trkpt lat="52.795233400538564" lon="12.866794103756547">
        <ele>32.799999999999997</ele>
        <time>2013-09-09T14:46:15Z</time>
      </trkpt>
      <trkpt lat="52.793895062059164" lon="12.875047093257308">
        <ele>32.799999999999997</ele>
        <time>2013-09-09T14:47:45Z</time>
      </trkpt>
      <trkpt lat="52.794274091720581" lon="12.876262804493308">
        <ele>32.799999999999997</ele>
        <time>2013-09-09T14:47:59Z</time>
      </trkpt>
      <trkpt lat="52.794593190774322" lon="12.876527924090624">
        <ele>32.299999999999997</ele>
        <time>2013-09-09T14:48:05Z</time>
      </trkpt>
      <trkpt lat="52.797207422554493" lon="12.877087667584419">
        <ele>32.299999999999997</ele>
        <time>2013-09-09T14:48:50Z</time>
      </trkpt>
      <trkpt lat="52.797702206298709" lon="12.877852767705917">
        <ele>32.799999999999997</ele>
        <time>2013-09-09T14:49:03Z</time>
      </trkpt>
      <trkpt lat="52.798378625884652" lon="12.877635341137648">
        <ele>32.299999999999997</ele>
        <time>2013-09-09T14:49:16Z</time>
      </trkpt>
      <trkpt lat="52.799868173897266" lon="12.878505298867822">
        <ele>31.399999999999999</ele>
        <time>2013-09-09T14:49:46Z</time>
      </trkpt>
      <trkpt lat="52.800968298688531" lon="12.881204774603248">
        <ele>32.299999999999997</ele>
        <time>2013-09-09T14:50:27Z</time>
      </trkpt>
      <trkpt lat="52.802055766806006" lon="12.88547501899302">
        <ele>31.399999999999999</ele>
        <time>2013-09-09T14:51:26Z</time>
      </trkpt>
      <trkpt lat="52.808135915547609" lon="12.896735183894634">
        <ele>31.899999999999999</ele>
        <time>2013-09-09T14:54:07Z</time>
      </trkpt>
      <trkpt lat="52.808312941342592" lon="12.896680785343051">
        <ele>31.899999999999999</ele>
        <time>2013-09-09T14:54:11Z</time>
      </trkpt>
      <trkpt lat="52.817667983472347" lon="12.88313546217978">
        <ele>31.399999999999999</ele>
        <time>2013-09-09T14:58:15Z</time>
      </trkpt>
      <trkpt lat="52.826915988698602" lon="12.872948180884123">
        <ele>32.299999999999997</ele>
        <time>2013-09-09T15:01:53Z</time>
      </trkpt>
      <trkpt lat="52.827318236231804" lon="12.872848771512508">
        <ele>31.899999999999999</ele>
        <time>2013-09-09T15:02:06Z</time>
      </trkpt>
      <trkpt lat="52.828570241108537" lon="12.87396440282464">
        <ele>32.299999999999997</ele>
        <time>2013-09-09T15:02:46Z</time>
      </trkpt>
      <trkpt lat="52.82901406288147" lon="12.873868094757199">
        <ele>32.799999999999997</ele>
        <time>2013-09-09T15:02:59Z</time>
      </trkpt>
      <trkpt lat="52.834054436534643" lon="12.869255030527711">
        <ele>31.899999999999999</ele>
        <time>2013-09-09T15:05:37Z</time>
      </trkpt>
      <trkpt lat="52.840198120102286" lon="12.862172573804855">
        <ele>32.299999999999997</ele>
        <time>2013-09-09T15:08:48Z</time>
      </trkpt>
      <trkpt lat="52.841637041419744" lon="12.861961517482996">
        <ele>33.799999999999997</ele>
        <time>2013-09-09T15:09:32Z</time>
      </trkpt>
      <trkpt lat="52.843265226110816" lon="12.862066961824894">
        <ele>33.799999999999997</ele>
        <time>2013-09-09T15:10:16Z</time>
      </trkpt>
      <trkpt lat="52.846806161105633" lon="12.864065794274211">
        <ele>35.700000000000003</ele>
        <time>2013-09-09T15:11:55Z</time>
      </trkpt>
      <trkpt lat="52.84691940061748" lon="12.864630315452814">
        <ele>35.200000000000003</ele>
        <time>2013-09-09T15:12:30Z</time>
      </trkpt>
      <trkpt lat="52.847094666212797" lon="12.864673985168338">
        <ele>34.700000000000003</ele>
        <time>2013-09-09T15:13:29Z</time>
      </trkpt>
      <trkpt lat="52.847038088366389" lon="12.864549765363336">
        <ele>34.299999999999997</ele>
        <time>2013-09-09T15:14:14Z</time>
      </trkpt>
      <trkpt lat="52.845088792964816" lon="12.865609237924218">
        <ele>32.799999999999997</ele>
        <time>2013-09-09T15:15:14Z</time>
      </trkpt>
      <trkpt lat="52.84549648873508" lon="12.867601700127125">
        <ele>32.799999999999997</ele>
        <time>2013-09-09T15:15:49Z</time>
      </trkpt>
      <trkpt lat="52.845639064908028" lon="12.86786581389606">
        <ele>32.799999999999997</ele>
        <time>2013-09-09T15:15:57Z</time>
      </trkpt>
      <trkpt lat="52.845853641629219" lon="12.867575464770198">
        <ele>33.799999999999997</ele>
        <time>2013-09-09T15:17:40Z</time>
      </trkpt>
      <trkpt lat="52.846029661595821" lon="12.868437124416232">
        <ele>34.299999999999997</ele>
        <time>2013-09-09T16:38:02Z</time>
      </trkpt>
      <trkpt lat="52.845859006047249" lon="12.867567669600248">
        <ele>25.100000000000001</ele>
        <time>2013-09-09T19:04:45Z</time>
      </trkpt>
      <trkpt lat="52.847365569323301" lon="12.86677566356957">
        <ele>28</ele>
        <time>2013-09-10T07:38:14Z</time>
      </trkpt>
      <trkpt lat="52.847560113295913" lon="12.867615194991231">
        <ele>27.5</ele>
        <time>2013-09-10T07:38:32Z</time>
      </trkpt>
      <trkpt lat="52.847948195412755" lon="12.86757898516953">
        <ele>28</ele>
        <time>2013-09-10T07:38:46Z</time>
      </trkpt>
      <trkpt lat="52.849440174177289" lon="12.866262020543218">
        <ele>28.5</ele>
        <time>2013-09-10T07:39:42Z</time>
      </trkpt>
      <trkpt lat="52.849785927683115" lon="12.865275889635086">
        <ele>27.5</ele>
        <time>2013-09-10T07:39:59Z</time>
      </trkpt>
      <trkpt lat="52.849680567160249" lon="12.863447880372405">
        <ele>28</ele>
        <time>2013-09-10T07:40:26Z</time>
      </trkpt>
      <trkpt lat="52.851085290312767" lon="12.860682858154178">
        <ele>28</ele>
        <time>2013-09-10T07:41:19Z</time>
      </trkpt>
      <trkpt lat="52.852768376469612" lon="12.856021765619516">
        <ele>29.5</ele>
        <time>2013-09-10T07:42:32Z</time>
      </trkpt>
      <trkpt lat="52.857534661889076" lon="12.849419340491295">
        <ele>28.5</ele>
        <time>2013-09-10T07:44:24Z</time>
      </trkpt>
      <trkpt lat="52.858331194147468" lon="12.848491966724396">
        <ele>30.399999999999999</ele>
        <time>2013-09-10T07:44:42Z</time>
      </trkpt>
      <trkpt lat="52.866713600233197" lon="12.840671483427286">
        <ele>36.700000000000003</ele>
        <time>2013-09-10T07:47:53Z</time>
      </trkpt>
      <trkpt lat="52.881084876134992" lon="12.82408956438303">
        <ele>45.799999999999997</ele>
        <time>2013-09-10T07:55:36Z</time>
      </trkpt>
      <trkpt lat="52.882093219086528" lon="12.822531620040536">
        <ele>45.299999999999997</ele>
        <time>2013-09-10T07:55:59Z</time>
      </trkpt>
      <trkpt lat="52.887620665132999" lon="12.812616415321827">
        <ele>42.399999999999999</ele>
        <time>2013-09-10T07:58:16Z</time>
      </trkpt>
      <trkpt lat="52.887912020087242" lon="12.812443161383271">
        <ele>41</ele>
        <time>2013-09-10T07:58:21Z</time>
      </trkpt>
      <trkpt lat="52.888761106878519" lon="12.813039114698768">
        <ele>41</ele>
        <time>2013-09-10T07:58:36Z</time>
      </trkpt>
      <trkpt lat="52.888993537053466" lon="12.81297474168241">
        <ele>40.5</ele>
        <time>2013-09-10T07:58:40Z</time>
      </trkpt>
      <trkpt lat="52.89263010956347" lon="12.799669560045004">
        <ele>41</ele>
        <time>2013-09-10T08:01:59Z</time>
      </trkpt>
      <trkpt lat="52.89635150693357" lon="12.80072090215981">
        <ele>41.5</ele>
        <time>2013-09-10T08:06:38Z</time>
      </trkpt>
      <trkpt lat="52.897264296188951" lon="12.800698522478342">
        <ele>42</ele>
        <time>2013-09-10T08:14:24Z</time>
      </trkpt>
      <trkpt lat="52.89959111250937" lon="12.800035765394568">
        <ele>43.399999999999999</ele>
        <time>2013-09-10T08:15:22Z</time>
      </trkpt>
      <trkpt lat="52.900795340538025" lon="12.800160069018602">
        <ele>43.399999999999999</ele>
        <time>2013-09-10T08:15:49Z</time>
      </trkpt>
      <trkpt lat="52.908688662573695" lon="12.804031083360314">
        <ele>40</ele>
        <time>2013-09-10T08:18:30Z</time>
      </trkpt>
      <trkpt lat="52.908898461610079" lon="12.804306596517563">
        <ele>40</ele>
        <time>2013-09-10T08:18:38Z</time>
      </trkpt>
      <trkpt lat="52.910638796165586" lon="12.804735582321882">
        <ele>40.5</ele>
        <time>2013-09-10T08:19:13Z</time>
      </trkpt>
      <trkpt lat="52.911230307072401" lon="12.804378177970648">
        <ele>42.399999999999999</ele>
        <time>2013-09-10T08:19:29Z</time>
      </trkpt>
      <trkpt lat="52.911956766620278" lon="12.804351691156626">
        <ele>42</ele>
        <time>2013-09-10T08:20:08Z</time>
      </trkpt>
      <trkpt lat="52.91366851888597" lon="12.806091941893101">
        <ele>40</ele>
        <time>2013-09-10T08:21:18Z</time>
      </trkpt>
      <trkpt lat="52.914357176050544" lon="12.805803688243032">
        <ele>39.600000000000001</ele>
        <time>2013-09-10T08:21:41Z</time>
      </trkpt>
      <trkpt lat="52.914774678647518" lon="12.805889435112476">
        <ele>40.5</ele>
        <time>2013-09-10T08:21:55Z</time>
      </trkpt>
      <trkpt lat="52.914985064417124" lon="12.80566387809813">
        <ele>40.5</ele>
        <time>2013-09-10T08:22:16Z</time>
      </trkpt>
      <trkpt lat="52.915007108822465" lon="12.805972835049033">
        <ele>39.600000000000001</ele>
        <time>2013-09-10T08:22:36Z</time>
      </trkpt>
      <trkpt lat="52.916560359299183" lon="12.807323914021254">
        <ele>40</ele>
        <time>2013-09-10T08:23:32Z</time>
      </trkpt>
      <trkpt lat="52.916047722101212" lon="12.808694690465927">
        <ele>37.600000000000001</ele>
        <time>2013-09-10T08:24:14Z</time>
      </trkpt>
      <trkpt lat="52.916108574718237" lon="12.809449899941683">
        <ele>37.200000000000003</ele>
        <time>2013-09-10T08:24:33Z</time>
      </trkpt>
      <trkpt lat="52.916808715090156" lon="12.809106158092618">
        <ele>37.600000000000001</ele>
        <time>2013-09-10T08:25:00Z</time>
      </trkpt>
      <trkpt lat="52.916921116411686" lon="12.80932417139411">
        <ele>36.700000000000003</ele>
        <time>2013-09-10T08:25:12Z</time>
      </trkpt>
      <trkpt lat="52.916876524686813" lon="12.808763924986124">
        <ele>38.600000000000001</ele>
        <time>2013-09-10T08:25:27Z</time>
      </trkpt>
      <trkpt lat="52.917316658422351" lon="12.808502996340394">
        <ele>38.600000000000001</ele>
        <time>2013-09-10T08:25:41Z</time>
      </trkpt>
      <trkpt lat="52.919670464470983" lon="12.80818272382021">
        <ele>38.600000000000001</ele>
        <time>2013-09-10T08:26:39Z</time>
      </trkpt>
      <trkpt lat="52.920757262036204" lon="12.80846368521452">
        <ele>39.600000000000001</ele>
        <time>2013-09-10T08:27:59Z</time>
      </trkpt>
      <trkpt lat="52.920993966981769" lon="12.810046523809433">
        <ele>34.700000000000003</ele>
        <time>2013-09-10T08:29:03Z</time>
      </trkpt>
      <trkpt lat="52.921803658828139" lon="12.810597885400057">
        <ele>35.700000000000003</ele>
        <time>2013-09-10T08:34:24Z</time>
      </trkpt>
      <trkpt lat="52.923136213794351" lon="12.812123810872436">
        <ele>36.200000000000003</ele>
        <time>2013-09-10T08:35:10Z</time>
      </trkpt>
      <trkpt lat="52.92353049851954" lon="12.812253311276436">
        <ele>38.100000000000001</ele>
        <time>2013-09-10T08:35:22Z</time>
      </trkpt>
      <trkpt lat="52.924151262268424" lon="12.811408080160618">
        <ele>41.5</ele>
        <time>2013-09-10T08:36:01Z</time>
      </trkpt>
      <trkpt lat="52.923640888184309" lon="12.811004240065813">
        <ele>40.5</ele>
        <time>2013-09-10T08:36:25Z</time>
      </trkpt>
      <trkpt lat="52.923154570162296" lon="12.810149788856506">
        <ele>41.5</ele>
        <time>2013-09-10T08:36:53Z</time>
      </trkpt>
      <trkpt lat="52.922467840835452" lon="12.809399692341685">
        <ele>37.600000000000001</ele>
        <time>2013-09-10T08:38:44Z</time>
      </trkpt>
      <trkpt lat="52.922687781974673" lon="12.80963983386755">
        <ele>37.200000000000003</ele>
        <time>2013-09-10T08:41:06Z</time>
      </trkpt>
      <trkpt lat="52.922720136120915" lon="12.809392064809799">
        <ele>37.600000000000001</ele>
        <time>2013-09-10T08:42:31Z</time>
      </trkpt>
      <trkpt lat="52.92395512573421" lon="12.807534132152796">
        <ele>40</ele>
        <time>2013-09-10T08:43:48Z</time>
      </trkpt>
      <trkpt lat="52.923760581761599" lon="12.807642929255962">
        <ele>39.100000000000001</ele>
        <time>2013-09-10T08:44:12Z</time>
      </trkpt>
      <trkpt lat="52.923890417441726" lon="12.8074043802917">
        <ele>40</ele>
        <time>2013-09-10T08:45:23Z</time>
      </trkpt>
      <trkpt lat="52.925229258835316" lon="12.809273460879922">
        <ele>39.100000000000001</ele>
        <time>2013-09-10T08:47:37Z</time>
      </trkpt>
      <trkpt lat="52.924723159521818" lon="12.810423541814089">
        <ele>36.700000000000003</ele>
        <time>2013-09-10T08:48:09Z</time>
      </trkpt>
      <trkpt lat="52.923764940351248" lon="12.811955837532878">
        <ele>34.700000000000003</ele>
        <time>2013-09-10T08:48:53Z</time>
      </trkpt>
      <trkpt lat="52.92374306358397" lon="12.812311733141541">
        <ele>33.799999999999997</ele>
        <time>2013-09-10T08:49:04Z</time>
      </trkpt>
      <trkpt lat="52.924687033519149" lon="12.814805433154106">
        <ele>32.299999999999997</ele>
        <time>2013-09-10T08:49:44Z</time>
      </trkpt>
      <trkpt lat="52.925135465338826" lon="12.815391914919019">
        <ele>32.799999999999997</ele>
        <time>2013-09-10T08:49:59Z</time>
      </trkpt>
      <trkpt lat="52.925779363140464" lon="12.815687796100974">
        <ele>33.299999999999997</ele>
        <time>2013-09-10T08:50:15Z</time>
      </trkpt>
      <trkpt lat="52.92669877409935" lon="12.815576735883951">
        <ele>34.299999999999997</ele>
        <time>2013-09-10T08:50:39Z</time>
      </trkpt>
      <trkpt lat="52.926900526508689" lon="12.815385460853577">
        <ele>35.200000000000003</ele>
        <time>2013-09-10T08:50:49Z</time>
      </trkpt>
      <trkpt lat="52.927404781803489" lon="12.814193302765489">
        <ele>35.200000000000003</ele>
        <time>2013-09-10T08:51:23Z</time>
      </trkpt>
      <trkpt lat="52.928910758346319" lon="12.811961201950908">
        <ele>37.600000000000001</ele>
        <time>2013-09-10T08:52:33Z</time>
      </trkpt>
      <trkpt lat="52.929155258461833" lon="12.811372373253107">
        <ele>38.600000000000001</ele>
        <time>2013-09-10T08:53:34Z</time>
      </trkpt>
      <trkpt lat="52.929900074377656" lon="12.81218022108078">
        <ele>37.200000000000003</ele>
        <time>2013-09-10T08:54:02Z</time>
      </trkpt>
      <trkpt lat="52.931644432246685" lon="12.813508166000247">
        <ele>38.100000000000001</ele>
        <time>2013-09-10T08:55:10Z</time>
      </trkpt>
      <trkpt lat="52.935669841244817" lon="12.816053163260221">
        <ele>38.600000000000001</ele>
        <time>2013-09-10T08:57:12Z</time>
      </trkpt>
      <trkpt lat="52.935787858441472" lon="12.816655905917287">
        <ele>37.600000000000001</ele>
        <time>2013-09-10T08:57:27Z</time>
      </trkpt>
      <trkpt lat="52.938884468749166" lon="12.823339970782399">
        <ele>32.799999999999997</ele>
        <time>2013-09-10T08:59:26Z</time>
      </trkpt>
      <trkpt lat="52.939675804227591" lon="12.825340982526541">
        <ele>34.700000000000003</ele>
        <time>2013-09-10T09:00:03Z</time>
      </trkpt>
      <trkpt lat="52.940042428672314" lon="12.826775461435318">
        <ele>35.200000000000003</ele>
        <time>2013-09-10T09:00:37Z</time>
      </trkpt>
      <trkpt lat="52.940474934875965" lon="12.827528910711408">
        <ele>33.299999999999997</ele>
        <time>2013-09-10T09:00:57Z</time>
      </trkpt>
      <trkpt lat="52.941616969183087" lon="12.828576900064945">
        <ele>31.399999999999999</ele>
        <time>2013-09-10T09:01:27Z</time>
      </trkpt>
      <trkpt lat="52.942781886085868" lon="12.828214969485998">
        <ele>32.299999999999997</ele>
        <time>2013-09-10T09:01:59Z</time>
      </trkpt>
      <trkpt lat="52.943740021437407" lon="12.829670235514641">
        <ele>31.899999999999999</ele>
        <time>2013-09-10T09:02:36Z</time>
      </trkpt>
      <trkpt lat="52.944074207916856" lon="12.829944239929318">
        <ele>32.299999999999997</ele>
        <time>2013-09-10T09:02:46Z</time>
      </trkpt>
      <trkpt lat="52.945425538346171" lon="12.829880034551024">
        <ele>33.799999999999997</ele>
        <time>2013-09-10T09:03:15Z</time>
      </trkpt>
      <trkpt lat="52.945438781753182" lon="12.830960210412741">
        <ele>32.799999999999997</ele>
        <time>2013-09-10T09:03:35Z</time>
      </trkpt>
      <trkpt lat="52.94613054022193" lon="12.832790063694119">
        <ele>30.899999999999999</ele>
        <time>2013-09-10T09:04:08Z</time>
      </trkpt>
      <trkpt lat="52.947601061314344" lon="12.835535975173116">
        <ele>31.399999999999999</ele>
        <time>2013-09-10T09:05:06Z</time>
      </trkpt>
      <trkpt lat="52.947893338277936" lon="12.835846189409494">
        <ele>31.399999999999999</ele>
        <time>2013-09-10T09:05:14Z</time>
      </trkpt>
      <trkpt lat="52.950366670265794" lon="12.836525458842516">
        <ele>34.700000000000003</ele>
        <time>2013-09-10T09:06:28Z</time>
      </trkpt>
      <trkpt lat="52.951334360986948" lon="12.83643233589828">
        <ele>35.700000000000003</ele>
        <time>2013-09-10T09:06:57Z</time>
      </trkpt>
      <trkpt lat="52.951694196090102" lon="12.839742936193943">
        <ele>32.299999999999997</ele>
        <time>2013-09-10T09:07:42Z</time>
      </trkpt>
      <trkpt lat="52.951623285189271" lon="12.840494541451335">
        <ele>33.799999999999997</ele>
        <time>2013-09-10T09:07:52Z</time>
      </trkpt>
      <trkpt lat="52.95068359002471" lon="12.84220109693706">
        <ele>34.299999999999997</ele>
        <time>2013-09-10T09:08:22Z</time>
      </trkpt>
      <trkpt lat="52.949192617088556" lon="12.843375485390425">
        <ele>35.700000000000003</ele>
        <time>2013-09-10T09:10:00Z</time>
      </trkpt>
      <trkpt lat="52.950240271165967" lon="12.842724798247218">
        <ele>36.200000000000003</ele>
        <time>2013-09-10T09:41:49Z</time>
      </trkpt>
      <trkpt lat="52.951531670987606" lon="12.841130308806896">
        <ele>36.200000000000003</ele>
        <time>2013-09-10T09:42:22Z</time>
      </trkpt>
      <trkpt lat="52.951961075887084" lon="12.83973690122366">
        <ele>35.700000000000003</ele>
        <time>2013-09-10T09:42:42Z</time>
      </trkpt>
      <trkpt lat="52.951582716777921" lon="12.836375003680587">
        <ele>37.600000000000001</ele>
        <time>2013-09-10T09:43:25Z</time>
      </trkpt>
      <trkpt lat="52.95714033767581" lon="12.835562294349074">
        <ele>36.200000000000003</ele>
        <time>2013-09-10T09:45:06Z</time>
      </trkpt>
      <trkpt lat="52.958829458802938" lon="12.834988720715046">
        <ele>35.200000000000003</ele>
        <time>2013-09-10T09:45:36Z</time>
      </trkpt>
      <trkpt lat="52.959348214790225" lon="12.836438789963722">
        <ele>35.200000000000003</ele>
        <time>2013-09-10T09:46:12Z</time>
      </trkpt>
      <trkpt lat="52.960426127538085" lon="12.836240390315652">
        <ele>36.700000000000003</ele>
        <time>2013-09-10T09:46:33Z</time>
      </trkpt>
      <trkpt lat="52.963826078921556" lon="12.837527096271515">
        <ele>38.600000000000001</ele>
        <time>2013-09-10T09:47:50Z</time>
      </trkpt>
      <trkpt lat="52.967578321695328" lon="12.8404376283288">
        <ele>44.399999999999999</ele>
        <time>2013-09-10T09:52:37Z</time>
      </trkpt>
      <trkpt lat="52.967574298381805" lon="12.840713812038302">
        <ele>44.399999999999999</ele>
        <time>2013-09-10T09:53:04Z</time>
      </trkpt>
      <trkpt lat="52.967347064986825" lon="12.840484818443656">
        <ele>45.299999999999997</ele>
        <time>2013-09-10T09:54:14Z</time>
      </trkpt>
      <trkpt lat="52.967640934512019" lon="12.840357832610607">
        <ele>45.299999999999997</ele>
        <time>2013-09-10T09:55:50Z</time>
      </trkpt>
      <trkpt lat="52.967316890135407" lon="12.840175190940499">
        <ele>44.399999999999999</ele>
        <time>2013-09-10T09:57:04Z</time>
      </trkpt>
      <trkpt lat="52.967213541269302" lon="12.839453341439366">
        <ele>43.399999999999999</ele>
        <time>2013-09-10T09:57:21Z</time>
      </trkpt>
      <trkpt lat="52.967316806316376" lon="12.839210433885455">
        <ele>43.899999999999999</ele>
        <time>2013-09-10T09:57:28Z</time>
      </trkpt>
      <trkpt lat="52.972461534664035" lon="12.833153838291764">
        <ele>44.399999999999999</ele>
        <time>2013-09-10T09:59:52Z</time>
      </trkpt>
      <trkpt lat="52.97437378205359" lon="12.830062592402101">
        <ele>38.600000000000001</ele>
        <time>2013-09-10T10:00:28Z</time>
      </trkpt>
      <trkpt lat="52.977193873375654" lon="12.828343380242586">
        <ele>41.5</ele>
        <time>2013-09-10T10:01:28Z</time>
      </trkpt>
      <trkpt lat="52.977396380156279" lon="12.832309026271105">
        <ele>48.200000000000003</ele>
        <time>2013-09-10T10:02:36Z</time>
      </trkpt>
      <trkpt lat="52.9776422213763" lon="12.834581276401877">
        <ele>45.799999999999997</ele>
        <time>2013-09-10T10:02:59Z</time>
      </trkpt>
      <trkpt lat="52.981177289038897" lon="12.853083238005638">
        <ele>57.799999999999997</ele>
        <time>2013-09-10T10:07:17Z</time>
      </trkpt>
      <trkpt lat="52.981616836041212" lon="12.854688875377178">
        <ele>57.799999999999997</ele>
        <time>2013-09-10T10:07:39Z</time>
      </trkpt>
      <trkpt lat="52.98214397393167" lon="12.855435535311699">
        <ele>57.799999999999997</ele>
        <time>2013-09-10T10:07:54Z</time>
      </trkpt>
      <trkpt lat="52.982711177319288" lon="12.855440396815538">
        <ele>58.299999999999997</ele>
        <time>2013-09-10T10:08:14Z</time>
      </trkpt>
      <trkpt lat="52.982566589489579" lon="12.856477238237858">
        <ele>56.899999999999999</ele>
        <time>2013-09-10T10:08:37Z</time>
      </trkpt>
      <trkpt lat="52.982730036601424" lon="12.86014256067574">
        <ele>56.899999999999999</ele>
        <time>2013-09-10T10:09:29Z</time>
      </trkpt>
      <trkpt lat="52.982990965247154" lon="12.862516734749079">
        <ele>54.899999999999999</ele>
        <time>2013-09-10T10:09:57Z</time>
      </trkpt>
      <trkpt lat="52.984905140474439" lon="12.873025462031364">
        <ele>51.100000000000001</ele>
        <time>2013-09-10T10:11:51Z</time>
      </trkpt>
      <trkpt lat="52.986307684332132" lon="12.878758935257792">
        <ele>50.600000000000001</ele>
        <time>2013-09-10T10:12:55Z</time>
      </trkpt>
      <trkpt lat="52.98748173750937" lon="12.884352263063192">
        <ele>51.100000000000001</ele>
        <time>2013-09-10T10:14:02Z</time>
      </trkpt>
      <trkpt lat="52.988118091598153" lon="12.889207899570465">
        <ele>52.5</ele>
        <time>2013-09-10T10:15:01Z</time>
      </trkpt>
      <trkpt lat="52.989487359300256" lon="12.897176239639521">
        <ele>43.399999999999999</ele>
        <time>2013-09-10T10:16:26Z</time>
      </trkpt>
      <trkpt lat="52.989423321560025" lon="12.897594412788749">
        <ele>43.399999999999999</ele>
        <time>2013-09-10T10:16:33Z</time>
      </trkpt>
      <trkpt lat="52.992667872458696" lon="12.899941680952907">
        <ele>42</ele>
        <time>2013-09-10T10:17:42Z</time>
      </trkpt>
      <trkpt lat="52.99295729957521" lon="12.900346526876092">
        <ele>42.399999999999999</ele>
        <time>2013-09-10T10:17:56Z</time>
      </trkpt>
      <trkpt lat="52.993343286216259" lon="12.898326488211751">
        <ele>42</ele>
        <time>2013-09-10T10:19:26Z</time>
      </trkpt>
      <trkpt lat="52.994507281109691" lon="12.897140784189105">
        <ele>45.799999999999997</ele>
        <time>2013-09-10T10:31:26Z</time>
      </trkpt>
      <trkpt lat="52.996708117425442" lon="12.896295133978128">
        <ele>47.200000000000003</ele>
        <time>2013-09-10T10:32:28Z</time>
      </trkpt>
      <trkpt lat="52.998252063989639" lon="12.896015010774136">
        <ele>48.200000000000003</ele>
        <time>2013-09-10T10:33:35Z</time>
      </trkpt>
      <trkpt lat="53.002864960581064" lon="12.895818538963795">
        <ele>47.200000000000003</ele>
        <time>2013-09-10T10:35:13Z</time>
      </trkpt>
      <trkpt lat="53.006008761003613" lon="12.896075025200844">
        <ele>47.200000000000003</ele>
        <time>2013-09-10T10:36:11Z</time>
      </trkpt>
      <trkpt lat="53.006528690457344" lon="12.896465705707669">
        <ele>47.700000000000003</ele>
        <time>2013-09-10T10:36:27Z</time>
      </trkpt>
      <trkpt lat="53.008308839052916" lon="12.895948961377144">
        <ele>47.700000000000003</ele>
        <time>2013-09-10T10:36:58Z</time>
      </trkpt>
      <trkpt lat="53.016817811876535" lon="12.8956213966012">
        <ele>48.200000000000003</ele>
        <time>2013-09-10T10:39:40Z</time>
      </trkpt>
      <trkpt lat="53.017727583646774" lon="12.895346134901047">
        <ele>48.200000000000003</ele>
        <time>2013-09-10T10:39:52Z</time>
      </trkpt>
      <trkpt lat="53.02037768997252" lon="12.895446214824915">
        <ele>48.700000000000003</ele>
        <time>2013-09-10T10:40:45Z</time>
      </trkpt>
      <trkpt lat="53.02255597896874" lon="12.896389178931713">
        <ele>49.200000000000003</ele>
        <time>2013-09-10T10:41:25Z</time>
      </trkpt>
      <trkpt lat="53.033010391518474" lon="12.899679830297828">
        <ele>50.600000000000001</ele>
        <time>2013-09-10T10:44:35Z</time>
      </trkpt>
      <trkpt lat="53.035860741510987" lon="12.900401931256056">
        <ele>51.100000000000001</ele>
        <time>2013-09-10T10:45:28Z</time>
      </trkpt>
      <trkpt lat="53.037306368350983" lon="12.899406161159277">
        <ele>54</ele>
        <time>2013-09-10T10:46:03Z</time>
      </trkpt>
      <trkpt lat="53.037906428799033" lon="12.899222178384662">
        <ele>52.100000000000001</ele>
        <time>2013-09-10T10:46:17Z</time>
      </trkpt>
      <trkpt lat="53.038654765114188" lon="12.899380763992667">
        <ele>53.5</ele>
        <time>2013-09-10T10:46:32Z</time>
      </trkpt>
      <trkpt lat="53.041600836440921" lon="12.90116049349308">
        <ele>53</ele>
        <time>2013-09-10T10:47:28Z</time>
      </trkpt>
      <trkpt lat="53.041347283869982" lon="12.905238624662161">
        <ele>49.700000000000003</ele>
        <time>2013-09-10T10:48:12Z</time>
      </trkpt>
      <trkpt lat="53.040955932810903" lon="12.906250236555934">
        <ele>50.100000000000001</ele>
        <time>2013-09-10T10:55:55Z</time>
      </trkpt>
      <trkpt lat="53.051594998687506" lon="12.906852141022682">
        <ele>60.200000000000003</ele>
        <time>2013-09-10T11:05:08Z</time>
      </trkpt>
      <trkpt lat="53.053484363481402" lon="12.907173838466406">
        <ele>60.700000000000003</ele>
        <time>2013-09-10T11:05:47Z</time>
      </trkpt>
      <trkpt lat="53.0536571983248" lon="12.907048109918833">
        <ele>61.200000000000003</ele>
        <time>2013-09-10T11:05:54Z</time>
      </trkpt>
      <trkpt lat="53.059984361752868" lon="12.908734465017915">
        <ele>60.200000000000003</ele>
        <time>2013-09-10T11:08:08Z</time>
      </trkpt>
      <trkpt lat="53.060977114364505" lon="12.908680820837617">
        <ele>58.799999999999997</ele>
        <time>2013-09-10T11:08:29Z</time>
      </trkpt>
      <trkpt lat="53.064309926703572" lon="12.909229835495353">
        <ele>59.299999999999997</ele>
        <time>2013-09-10T11:09:30Z</time>
      </trkpt>
      <trkpt lat="53.065069494768977" lon="12.909171665087342">
        <ele>59.299999999999997</ele>
        <time>2013-09-10T11:09:45Z</time>
      </trkpt>
      <trkpt lat="53.068155711516738" lon="12.907846989110112">
        <ele>59.700000000000003</ele>
        <time>2013-09-10T11:10:44Z</time>
      </trkpt>
      <trkpt lat="53.068851493299007" lon="12.907769037410617">
        <ele>58.799999999999997</ele>
        <time>2013-09-10T11:10:56Z</time>
      </trkpt>
      <trkpt lat="53.070929702371359" lon="12.908167010173202">
        <ele>57.799999999999997</ele>
        <time>2013-09-10T11:11:32Z</time>
      </trkpt>
      <trkpt lat="53.071745596826077" lon="12.908006496727467">
        <ele>58.799999999999997</ele>
        <time>2013-09-10T11:11:49Z</time>
      </trkpt>
      <trkpt lat="53.073197593912482" lon="12.907212898135185">
        <ele>59.299999999999997</ele>
        <time>2013-09-10T11:12:18Z</time>
      </trkpt>
      <trkpt lat="53.074140641838312" lon="12.906453162431717">
        <ele>58.799999999999997</ele>
        <time>2013-09-10T11:12:34Z</time>
      </trkpt>
      <trkpt lat="53.077015466988087" lon="12.903871620073915">
        <ele>57.799999999999997</ele>
        <time>2013-09-10T11:13:28Z</time>
      </trkpt>
      <trkpt lat="53.077731616795063" lon="12.902983138337731">
        <ele>57.299999999999997</ele>
        <time>2013-09-10T11:13:45Z</time>
      </trkpt>
      <trkpt lat="53.079388383775949" lon="12.903238786384463">
        <ele>56.899999999999999</ele>
        <time>2013-09-10T11:14:12Z</time>
      </trkpt>
      <trkpt lat="53.082174696028233" lon="12.902778284624219">
        <ele>57.299999999999997</ele>
        <time>2013-09-10T11:14:59Z</time>
      </trkpt>
      <trkpt lat="53.088084189221263" lon="12.89766188710928">
        <ele>60.700000000000003</ele>
        <time>2013-09-10T11:17:06Z</time>
      </trkpt>
      <trkpt lat="53.089691922068596" lon="12.89568392559886">
        <ele>60.200000000000003</ele>
        <time>2013-09-10T11:17:40Z</time>
      </trkpt>
      <trkpt lat="53.094725841656327" lon="12.890849662944674">
        <ele>59.299999999999997</ele>
        <time>2013-09-10T11:19:20Z</time>
      </trkpt>
      <trkpt lat="53.09524929150939" lon="12.890665512531996">
        <ele>57.799999999999997</ele>
        <time>2013-09-10T11:19:28Z</time>
      </trkpt>
      <trkpt lat="53.095874916762114" lon="12.890891823917627">
        <ele>57.299999999999997</ele>
        <time>2013-09-10T11:19:37Z</time>
      </trkpt>
      <trkpt lat="53.096491321921349" lon="12.892046766355634">
        <ele>56.399999999999999</ele>
        <time>2013-09-10T11:19:51Z</time>
      </trkpt>
      <trkpt lat="53.097431436181068" lon="12.892274502664804">
        <ele>60.200000000000003</ele>
        <time>2013-09-10T11:20:10Z</time>
      </trkpt>
      <trkpt lat="53.097888585180044" lon="12.892275005578995">
        <ele>60.700000000000003</ele>
        <time>2013-09-10T11:20:25Z</time>
      </trkpt>
      <trkpt lat="53.098637424409389" lon="12.89172749966383">
        <ele>61.200000000000003</ele>
        <time>2013-09-10T11:20:55Z</time>
      </trkpt>
      <trkpt lat="53.098557125777006" lon="12.891517365351319">
        <ele>61.200000000000003</ele>
        <time>2013-09-10T11:21:06Z</time>
      </trkpt>
      <trkpt lat="53.098390158265829" lon="12.89166203700006">
        <ele>78</ele>
        <time>2013-09-10T17:01:27Z</time>
      </trkpt>
      <trkpt lat="53.098592916503549" lon="12.892893673852086">
        <ele>78</ele>
        <time>2013-09-10T17:01:31Z</time>
      </trkpt>
      <trkpt lat="53.098774300888181" lon="12.892028829082847">
        <ele>62.600000000000001</ele>
        <time>2013-09-10T18:05:24Z</time>
      </trkpt>
      <trkpt lat="53.098725015297532" lon="12.892629727721214">
        <ele>63.100000000000001</ele>
        <time>2013-09-10T18:05:49Z</time>
      </trkpt>
      <trkpt lat="53.099919939413667" lon="12.89221809245646">
        <ele>62.600000000000001</ele>
        <time>2013-09-10T18:07:07Z</time>
      </trkpt>
      <trkpt lat="53.099594889208674" lon="12.892145086079836">
        <ele>63.100000000000001</ele>
        <time>2013-09-10T18:07:35Z</time>
      </trkpt>
      <trkpt lat="53.098709927871823" lon="12.892668200656772">
        <ele>62.100000000000001</ele>
        <time>2013-09-10T18:11:43Z</time>
      </trkpt>
      <trkpt lat="53.09845176525414" lon="12.893378734588623">
        <ele>61.200000000000003</ele>
        <time>2013-09-10T18:23:33Z</time>
      </trkpt>
      <trkpt lat="53.098655613139272" lon="12.892657304182649">
        <ele>71.299999999999997</ele>
        <time>2013-09-10T18:24:21Z</time>
      </trkpt>
      <trkpt lat="53.098831800743937" lon="12.892690161243081">
        <ele>67.900000000000006</ele>
        <time>2013-09-10T19:52:28Z</time>
      </trkpt>
      <trkpt lat="53.098725434392691" lon="12.892732070758939">
        <ele>69.799999999999997</ele>
        <time>2013-09-10T19:54:52Z</time>
      </trkpt>
      <trkpt lat="53.098894413560629" lon="12.892762999981642">
        <ele>72.200000000000003</ele>
        <time>2013-09-11T07:20:58Z</time>
      </trkpt>
      <trkpt lat="53.098888965323567" lon="12.892926363274455">
        <ele>67</ele>
        <time>2013-09-11T07:21:17Z</time>
      </trkpt>
      <trkpt lat="53.098711185157299" lon="12.895257705822587">
        <ele>62.600000000000001</ele>
        <time>2013-09-11T07:22:32Z</time>
      </trkpt>
      <trkpt lat="53.098318576812744" lon="12.897712262347341">
        <ele>63.600000000000001</ele>
        <time>2013-09-11T07:23:22Z</time>
      </trkpt>
      <trkpt lat="53.098613535985351" lon="12.897600615397096">
        <ele>64.599999999999994</ele>
        <time>2013-09-11T07:23:38Z</time>
      </trkpt>
      <trkpt lat="53.099416438490152" lon="12.897904375568032">
        <ele>64.599999999999994</ele>
        <time>2013-09-11T07:23:58Z</time>
      </trkpt>
      <trkpt lat="53.100739438086748" lon="12.899163840338588">
        <ele>63.100000000000001</ele>
        <time>2013-09-11T07:24:28Z</time>
      </trkpt>
      <trkpt lat="53.104213820770383" lon="12.901548994705081">
        <ele>65</ele>
        <time>2013-09-11T07:25:44Z</time>
      </trkpt>
      <trkpt lat="53.109940672293305" lon="12.908440260216594">
        <ele>65.5</ele>
        <time>2013-09-11T07:27:51Z</time>
      </trkpt>
      <trkpt lat="53.111838335171342" lon="12.911619516089559">
        <ele>65</ele>
        <time>2013-09-11T07:28:44Z</time>
      </trkpt>
      <trkpt lat="53.113594930619001" lon="12.914034090936184">
        <ele>70.299999999999997</ele>
        <time>2013-09-11T07:29:29Z</time>
      </trkpt>
      <trkpt lat="53.116975938901305" lon="12.919573104009032">
        <ele>71.299999999999997</ele>
        <time>2013-09-11T07:31:11Z</time>
      </trkpt>
      <trkpt lat="53.120233733206987" lon="12.922766860574484">
        <ele>70.799999999999997</ele>
        <time>2013-09-11T07:32:32Z</time>
      </trkpt>
      <trkpt lat="53.120725164189935" lon="12.923383768647909">
        <ele>70.799999999999997</ele>
        <time>2013-09-11T07:32:45Z</time>
      </trkpt>
      <trkpt lat="53.120983997359872" lon="12.924091704189777">
        <ele>70.799999999999997</ele>
        <time>2013-09-11T07:32:58Z</time>
      </trkpt>
      <trkpt lat="53.122109435498714" lon="12.924603838473558">
        <ele>66</ele>
        <time>2013-09-11T07:33:30Z</time>
      </trkpt>
      <trkpt lat="53.123460430651903" lon="12.927372297272086">
        <ele>61.200000000000003</ele>
        <time>2013-09-11T07:34:22Z</time>
      </trkpt>
      <trkpt lat="53.125118790194392" lon="12.92921899817884">
        <ele>62.100000000000001</ele>
        <time>2013-09-11T07:35:10Z</time>
      </trkpt>
      <trkpt lat="53.126625521108508" lon="12.931590909138322">
        <ele>63.100000000000001</ele>
        <time>2013-09-11T07:37:16Z</time>
      </trkpt>
      <trkpt lat="53.127040509134531" lon="12.931726025417447">
        <ele>64.599999999999994</ele>
        <time>2013-09-11T07:38:03Z</time>
      </trkpt>
      <trkpt lat="53.128524776548147" lon="12.930713072419167">
        <ele>62.600000000000001</ele>
        <time>2013-09-11T07:38:47Z</time>
      </trkpt>
      <trkpt lat="53.128940435126424" lon="12.929957360029221">
        <ele>62.600000000000001</ele>
        <time>2013-09-11T07:39:09Z</time>
      </trkpt>
      <trkpt lat="53.129021739587188" lon="12.929339613765478">
        <ele>62.600000000000001</ele>
        <time>2013-09-11T07:39:24Z</time>
      </trkpt>
      <trkpt lat="53.129243524745107" lon="12.92916719801724">
        <ele>62.100000000000001</ele>
        <time>2013-09-11T07:39:34Z</time>
      </trkpt>
      <trkpt lat="53.129838807508349" lon="12.929151859134436">
        <ele>62.100000000000001</ele>
        <time>2013-09-11T07:39:54Z</time>
      </trkpt>
      <trkpt lat="53.130166288465261" lon="12.929499121382833">
        <ele>61.700000000000003</ele>
        <time>2013-09-11T07:40:06Z</time>
      </trkpt>
      <trkpt lat="53.13068906776607" lon="12.93033848516643">
        <ele>61.200000000000003</ele>
        <time>2013-09-11T07:40:27Z</time>
      </trkpt>
      <trkpt lat="53.131560031324625" lon="12.933280868455768">
        <ele>61.700000000000003</ele>
        <time>2013-09-11T07:41:23Z</time>
      </trkpt>
      <trkpt lat="53.131870580837131" lon="12.933618491515517">
        <ele>62.100000000000001</ele>
        <time>2013-09-11T07:41:34Z</time>
      </trkpt>
      <trkpt lat="53.132979674264789" lon="12.936039520427585">
        <ele>61.700000000000003</ele>
        <time>2013-09-11T07:42:22Z</time>
      </trkpt>
      <trkpt lat="53.132952181622386" lon="12.936961865052581">
        <ele>61.700000000000003</ele>
        <time>2013-09-11T07:42:35Z</time>
      </trkpt>
      <trkpt lat="53.132418841123581" lon="12.940624421462417">
        <ele>67.400000000000006</ele>
        <time>2013-09-11T07:44:17Z</time>
      </trkpt>
      <trkpt lat="53.131209583953023" lon="12.942099133506417">
        <ele>67.400000000000006</ele>
        <time>2013-09-11T07:45:09Z</time>
      </trkpt>
      <trkpt lat="53.129087034612894" lon="12.945285765454173">
        <ele>61.200000000000003</ele>
        <time>2013-09-11T07:46:16Z</time>
      </trkpt>
      <trkpt lat="53.128650337457657" lon="12.946974886581302">
        <ele>62.600000000000001</ele>
        <time>2013-09-11T07:46:51Z</time>
      </trkpt>
      <trkpt lat="53.128864914178848" lon="12.947489200159907">
        <ele>62.100000000000001</ele>
        <time>2013-09-11T07:47:02Z</time>
      </trkpt>
      <trkpt lat="53.13005137257278" lon="12.948834495618939">
        <ele>63.100000000000001</ele>
        <time>2013-09-11T07:47:47Z</time>
      </trkpt>
      <trkpt lat="53.130268212407827" lon="12.950300825759768">
        <ele>63.600000000000001</ele>
        <time>2013-09-11T07:48:21Z</time>
      </trkpt>
      <trkpt lat="53.130321688950062" lon="12.963676834478974">
        <ele>66</ele>
        <time>2013-09-11T07:52:17Z</time>
      </trkpt>
      <trkpt lat="53.129623560234904" lon="12.96674033626914">
        <ele>69.400000000000006</ele>
        <time>2013-09-11T07:53:31Z</time>
      </trkpt>
      <trkpt lat="53.129322063177824" lon="12.967339223250747">
        <ele>70.299999999999997</ele>
        <time>2013-09-11T07:53:46Z</time>
      </trkpt>
      <trkpt lat="53.129203878343105" lon="12.967196563258767">
        <ele>70.799999999999997</ele>
        <time>2013-09-11T07:54:36Z</time>
      </trkpt>
      <trkpt lat="53.129130369052291" lon="12.967407535761595">
        <ele>71.299999999999997</ele>
        <time>2013-09-11T07:55:51Z</time>
      </trkpt>
      <trkpt lat="53.127367738634348" lon="12.968467762693763">
        <ele>69.400000000000006</ele>
        <time>2013-09-11T07:56:34Z</time>
      </trkpt>
      <trkpt lat="53.11593976803124" lon="12.974437437951565">
        <ele>67</ele>
        <time>2013-09-11T08:00:48Z</time>
      </trkpt>
      <trkpt lat="53.115218337625265" lon="12.974705239757895">
        <ele>65</ele>
        <time>2013-09-11T08:01:04Z</time>
      </trkpt>
      <trkpt lat="53.114332035183907" lon="12.974536428228021">
        <ele>67.900000000000006</ele>
        <time>2013-09-11T08:04:31Z</time>
      </trkpt>
      <trkpt lat="53.115040892735124" lon="12.974824514240026">
        <ele>67.900000000000006</ele>
        <time>2013-09-11T08:09:12Z</time>
      </trkpt>
      <trkpt lat="53.114078063517809" lon="12.975430274382234">
        <ele>67.900000000000006</ele>
        <time>2013-09-11T08:10:02Z</time>
      </trkpt>
      <trkpt lat="53.114092228934169" lon="12.975878119468689">
        <ele>67</ele>
        <time>2013-09-11T08:10:39Z</time>
      </trkpt>
      <trkpt lat="53.114745011553168" lon="12.977374121546745">
        <ele>67.400000000000006</ele>
        <time>2013-09-11T08:11:41Z</time>
      </trkpt>
      <trkpt lat="53.115629889070988" lon="12.978519760072231">
        <ele>66</ele>
        <time>2013-09-11T08:12:13Z</time>
      </trkpt>
      <trkpt lat="53.115916885435581" lon="12.979462640359998">
        <ele>64.599999999999994</ele>
        <time>2013-09-11T08:12:37Z</time>
      </trkpt>
      <trkpt lat="53.116338578984141" lon="12.980068232864141">
        <ele>64.599999999999994</ele>
        <time>2013-09-11T08:12:53Z</time>
      </trkpt>
      <trkpt lat="53.116980716586113" lon="12.982015935704112">
        <ele>64.599999999999994</ele>
        <time>2013-09-11T08:13:41Z</time>
      </trkpt>
      <trkpt lat="53.116989936679602" lon="12.982708197087049">
        <ele>66.5</ele>
        <time>2013-09-11T08:14:14Z</time>
      </trkpt>
      <trkpt lat="53.11580833978951" lon="12.984414082020521">
        <ele>68.400000000000006</ele>
        <time>2013-09-11T08:15:48Z</time>
      </trkpt>
      <trkpt lat="53.115038964897394" lon="12.986925132572651">
        <ele>64.599999999999994</ele>
        <time>2013-09-11T08:17:21Z</time>
      </trkpt>
      <trkpt lat="53.113983012735844" lon="12.989222863689065">
        <ele>63.600000000000001</ele>
        <time>2013-09-11T08:18:32Z</time>
      </trkpt>
      <trkpt lat="53.112971736118197" lon="12.988982303068042">
        <ele>63.100000000000001</ele>
        <time>2013-09-11T08:20:58Z</time>
      </trkpt>
      <trkpt lat="53.112915409728885" lon="12.98936284147203">
        <ele>61.200000000000003</ele>
        <time>2013-09-11T08:21:37Z</time>
      </trkpt>
      <trkpt lat="53.112547025084496" lon="12.9900171328336">
        <ele>61.200000000000003</ele>
        <time>2013-09-11T08:21:50Z</time>
      </trkpt>
      <trkpt lat="53.112273272126913" lon="12.990736132487655">
        <ele>60.700000000000003</ele>
        <time>2013-09-11T08:22:03Z</time>
      </trkpt>
      <trkpt lat="53.111629793420434" lon="12.993924608454108">
        <ele>67</ele>
        <time>2013-09-11T08:22:59Z</time>
      </trkpt>
      <trkpt lat="53.111248416826129" lon="12.997237639501691">
        <ele>63.100000000000001</ele>
        <time>2013-09-11T08:23:34Z</time>
      </trkpt>
      <trkpt lat="53.112592287361622" lon="12.998398700729012">
        <ele>62.100000000000001</ele>
        <time>2013-09-11T08:24:10Z</time>
      </trkpt>
      <trkpt lat="53.113212296739221" lon="12.998636411502957">
        <ele>62.600000000000001</ele>
        <time>2013-09-11T08:24:29Z</time>
      </trkpt>
      <trkpt lat="53.113798778504133" lon="12.998566841706634">
        <ele>62.600000000000001</ele>
        <time>2013-09-11T08:24:56Z</time>
      </trkpt>
      <trkpt lat="53.115507178008556" lon="12.999379718676209">
        <ele>67.400000000000006</ele>
        <time>2013-09-11T08:26:01Z</time>
      </trkpt>
      <trkpt lat="53.11603456735611" lon="13.000116907060146">
        <ele>66.5</ele>
        <time>2013-09-11T08:26:22Z</time>
      </trkpt>
      <trkpt lat="53.116466319188476" lon="13.001587931066751">
        <ele>63.100000000000001</ele>
        <time>2013-09-11T08:26:49Z</time>
      </trkpt>
      <trkpt lat="53.117230162024498" lon="13.002571128308773">
        <ele>62.600000000000001</ele>
        <time>2013-09-11T08:27:20Z</time>
      </trkpt>
      <trkpt lat="53.117967937141657" lon="13.003172026947141">
        <ele>65</ele>
        <time>2013-09-11T08:27:51Z</time>
      </trkpt>
      <trkpt lat="53.118532793596387" lon="13.002189500257373">
        <ele>69.400000000000006</ele>
        <time>2013-09-11T08:28:36Z</time>
      </trkpt>
      <trkpt lat="53.11918817460537" lon="13.002439113333821">
        <ele>69.400000000000006</ele>
        <time>2013-09-11T08:29:05Z</time>
      </trkpt>
      <trkpt lat="53.119602911174297" lon="13.002893580123782">
        <ele>69.799999999999997</ele>
        <time>2013-09-11T08:29:21Z</time>
      </trkpt>
      <trkpt lat="53.120118230581284" lon="13.003989765420556">
        <ele>68.400000000000006</ele>
        <time>2013-09-11T08:29:43Z</time>
      </trkpt>
      <trkpt lat="53.120834128931165" lon="13.004683535546064">
        <ele>68.400000000000006</ele>
        <time>2013-09-11T08:30:07Z</time>
      </trkpt>
      <trkpt lat="53.122292663902044" lon="13.004020694643259">
        <ele>69.400000000000006</ele>
        <time>2013-09-11T08:30:53Z</time>
      </trkpt>
      <trkpt lat="53.123977929353714" lon="13.005081675946712">
        <ele>75.099999999999994</ele>
        <time>2013-09-11T08:32:05Z</time>
      </trkpt>
      <trkpt lat="53.124261405318975" lon="13.005051165819168">
        <ele>74.200000000000003</ele>
        <time>2013-09-11T08:32:16Z</time>
      </trkpt>
      <trkpt lat="53.124855682253838" lon="13.003697991371155">
        <ele>69.799999999999997</ele>
        <time>2013-09-11T08:32:52Z</time>
      </trkpt>
      <trkpt lat="53.125248793512583" lon="13.003502190113068">
        <ele>67.400000000000006</ele>
        <time>2013-09-11T08:33:04Z</time>
      </trkpt>
      <trkpt lat="53.125510811805725" lon="13.003752138465643">
        <ele>65.5</ele>
        <time>2013-09-11T08:33:12Z</time>
      </trkpt>
      <trkpt lat="53.124892059713602" lon="13.007386028766632">
        <ele>64.099999999999994</ele>
        <time>2013-09-11T08:34:26Z</time>
      </trkpt>
      <trkpt lat="53.124959701672196" lon="13.008168563246727">
        <ele>66.5</ele>
        <time>2013-09-11T08:36:42Z</time>
      </trkpt>
      <trkpt lat="53.124340111389756" lon="13.00930866971612">
        <ele>70.799999999999997</ele>
        <time>2013-09-11T08:38:01Z</time>
      </trkpt>
      <trkpt lat="53.124587209895253" lon="13.010221710428596">
        <ele>74.599999999999994</ele>
        <time>2013-09-11T08:38:40Z</time>
      </trkpt>
      <trkpt lat="53.125059362500906" lon="13.009853074327111">
        <ele>77.5</ele>
        <time>2013-09-11T08:39:10Z</time>
      </trkpt>
      <trkpt lat="53.125699404627085" lon="13.010089863091707">
        <ele>81.400000000000006</ele>
        <time>2013-09-11T08:39:50Z</time>
      </trkpt>
      <trkpt lat="53.127131201326847" lon="13.011828605085611">
        <ele>82.299999999999997</ele>
        <time>2013-09-11T08:40:49Z</time>
      </trkpt>
      <trkpt lat="53.12881076708436" lon="13.013499621301889">
        <ele>81.400000000000006</ele>
        <time>2013-09-11T08:41:47Z</time>
      </trkpt>
      <trkpt lat="53.129968140274286" lon="13.013962637633085">
        <ele>83.299999999999997</ele>
        <time>2013-09-11T08:42:20Z</time>
      </trkpt>
      <trkpt lat="53.130710860714316" lon="13.01463034003973">
        <ele>81.400000000000006</ele>
        <time>2013-09-11T08:42:41Z</time>
      </trkpt>
      <trkpt lat="53.131219306960702" lon="13.015736835077405">
        <ele>81.900000000000006</ele>
        <time>2013-09-11T08:43:09Z</time>
      </trkpt>
      <trkpt lat="53.131442684680223" lon="13.015860384330153">
        <ele>82.299999999999997</ele>
        <time>2013-09-11T08:44:26Z</time>
      </trkpt>
      <trkpt lat="53.131820624694228" lon="13.016990516334772">
        <ele>81.900000000000006</ele>
        <time>2013-09-11T08:44:53Z</time>
      </trkpt>
      <trkpt lat="53.134015761315823" lon="13.019837765023112">
        <ele>82.799999999999997</ele>
        <time>2013-09-11T08:46:29Z</time>
      </trkpt>
      <trkpt lat="53.13424970023334" lon="13.021305436268449">
        <ele>82.799999999999997</ele>
        <time>2013-09-11T08:47:04Z</time>
      </trkpt>
      <trkpt lat="53.135119238868356" lon="13.024727599695325">
        <ele>82.799999999999997</ele>
        <time>2013-09-11T08:48:10Z</time>
      </trkpt>
      <trkpt lat="53.136225985363126" lon="13.025628570467234">
        <ele>78</ele>
        <time>2013-09-11T08:48:58Z</time>
      </trkpt>
      <trkpt lat="53.137091919779778" lon="13.026888202875853">
        <ele>73.700000000000003</ele>
        <time>2013-09-11T08:49:29Z</time>
      </trkpt>
      <trkpt lat="53.137852577492595" lon="13.027249714359641">
        <ele>79</ele>
        <time>2013-09-11T08:50:10Z</time>
      </trkpt>
      <trkpt lat="53.13883937895298" lon="13.028209358453751">
        <ele>77</ele>
        <time>2013-09-11T08:50:45Z</time>
      </trkpt>
      <trkpt lat="53.141109617426991" lon="13.03138836286962">
        <ele>65.5</ele>
        <time>2013-09-11T08:51:53Z</time>
      </trkpt>
      <trkpt lat="53.143189838156104" lon="13.033747198060155">
        <ele>67.400000000000006</ele>
        <time>2013-09-11T08:52:55Z</time>
      </trkpt>
      <trkpt lat="53.144208071753383" lon="13.036011485382915">
        <ele>65</ele>
        <time>2013-09-11T08:53:37Z</time>
      </trkpt>
      <trkpt lat="53.146245712414384" lon="13.038686066865921">
        <ele>66.5</ele>
        <time>2013-09-11T08:54:34Z</time>
      </trkpt>
      <trkpt lat="53.146472359076142" lon="13.039722489193082">
        <ele>66</ele>
        <time>2013-09-11T08:54:52Z</time>
      </trkpt>
      <trkpt lat="53.146662209182978" lon="13.042080737650394">
        <ele>63.100000000000001</ele>
        <time>2013-09-11T08:55:25Z</time>
      </trkpt>
      <trkpt lat="53.147299066185951" lon="13.044406464323401">
        <ele>66.5</ele>
        <time>2013-09-11T08:56:12Z</time>
      </trkpt>
      <trkpt lat="53.147826120257378" lon="13.044010838493705">
        <ele>63.100000000000001</ele>
        <time>2013-09-11T08:56:30Z</time>
      </trkpt>
      <trkpt lat="53.148144632577896" lon="13.042569570243359">
        <ele>59.299999999999997</ele>
        <time>2013-09-11T08:56:49Z</time>
      </trkpt>
      <trkpt lat="53.148423666134477" lon="13.042213506996632">
        <ele>59.299999999999997</ele>
        <time>2013-09-11T08:58:32Z</time>
      </trkpt>
      <trkpt lat="53.148135328665376" lon="13.042392963543534">
        <ele>62.100000000000001</ele>
        <time>2013-09-11T09:21:34Z</time>
      </trkpt>
      <trkpt lat="53.148455936461687" lon="13.042095992714167">
        <ele>62.100000000000001</ele>
        <time>2013-09-11T09:22:00Z</time>
      </trkpt>
      <trkpt lat="53.148088809102774" lon="13.042801162227988">
        <ele>64.099999999999994</ele>
        <time>2013-09-11T09:22:41Z</time>
      </trkpt>
      <trkpt lat="53.147525461390615" lon="13.046264564618468">
        <ele>68.900000000000006</ele>
        <time>2013-09-11T09:24:03Z</time>
      </trkpt>
      <trkpt lat="53.147787814959884" lon="13.049789741635323">
        <ele>66</ele>
        <time>2013-09-11T09:24:59Z</time>
      </trkpt>
      <trkpt lat="53.147726962342858" lon="13.053011996671557">
        <ele>64.099999999999994</ele>
        <time>2013-09-11T09:25:46Z</time>
      </trkpt>
      <trkpt lat="53.143938174471259" lon="13.052857937291265">
        <ele>82.299999999999997</ele>
        <time>2013-09-11T09:27:59Z</time>
      </trkpt>
      <trkpt lat="53.143121022731066" lon="13.059032382443547">
        <ele>89.099999999999994</ele>
        <time>2013-09-11T09:29:49Z</time>
      </trkpt>
      <trkpt lat="53.143040472641587" lon="13.061249814927578">
        <ele>90.5</ele>
        <time>2013-09-11T09:30:32Z</time>
      </trkpt>
      <trkpt lat="53.141937917098403" lon="13.071359731256962">
        <ele>92.400000000000006</ele>
        <time>2013-09-11T09:32:55Z</time>
      </trkpt>
      <trkpt lat="53.137868670746684" lon="13.076459784060717">
        <ele>91</ele>
        <time>2013-09-11T09:35:14Z</time>
      </trkpt>
      <trkpt lat="53.133154939860106" lon="13.081976333633065">
        <ele>86.700000000000003</ele>
        <time>2013-09-11T09:37:48Z</time>
      </trkpt>
      <trkpt lat="53.129388028755784" lon="13.085458595305681">
        <ele>83.299999999999997</ele>
        <time>2013-09-11T09:39:36Z</time>
      </trkpt>
      <trkpt lat="53.127174787223339" lon="13.087261794134974">
        <ele>82.299999999999997</ele>
        <time>2013-09-11T09:40:51Z</time>
      </trkpt>
      <trkpt lat="53.126224279403687" lon="13.088881764560938">
        <ele>84.700000000000003</ele>
        <time>2013-09-11T09:41:49Z</time>
      </trkpt>
      <trkpt lat="53.126082206144929" lon="13.088855026289821">
        <ele>84.700000000000003</ele>
        <time>2013-09-11T09:42:44Z</time>
      </trkpt>
      <trkpt lat="53.125660931691527" lon="13.090340970084071">
        <ele>83.299999999999997</ele>
        <time>2013-09-11T09:44:04Z</time>
      </trkpt>
      <trkpt lat="53.120545372366905" lon="13.096650531515479">
        <ele>76.099999999999994</ele>
        <time>2013-09-11T09:46:58Z</time>
      </trkpt>
      <trkpt lat="53.120275139808655" lon="13.097224105149508">
        <ele>77</ele>
        <time>2013-09-11T09:47:11Z</time>
      </trkpt>
      <trkpt lat="53.116581318899989" lon="13.100402439013124">
        <ele>62.100000000000001</ele>
        <time>2013-09-11T09:49:00Z</time>
      </trkpt>
      <trkpt lat="53.116241935640574" lon="13.100410234183073">
        <ele>62.100000000000001</ele>
        <time>2013-09-11T09:49:07Z</time>
      </trkpt>
      <trkpt lat="53.115440206602216" lon="13.099929699674249">
        <ele>62.100000000000001</ele>
        <time>2013-09-11T09:49:26Z</time>
      </trkpt>
      <trkpt lat="53.11418023891747" lon="13.100181492045522">
        <ele>67.400000000000006</ele>
        <time>2013-09-11T09:50:16Z</time>
      </trkpt>
      <trkpt lat="53.112656911835074" lon="13.10449406504631">
        <ele>70.799999999999997</ele>
        <time>2013-09-11T09:54:27Z</time>
      </trkpt>
      <trkpt lat="53.112347032874823" lon="13.104133140295744">
        <ele>71.299999999999997</ele>
        <time>2013-09-11T09:54:41Z</time>
      </trkpt>
      <trkpt lat="53.106790417805314" lon="13.104352494701743">
        <ele>80.400000000000006</ele>
        <time>2013-09-11T09:57:06Z</time>
      </trkpt>
      <trkpt lat="53.105088388547301" lon="13.104078993201256">
        <ele>76.099999999999994</ele>
        <time>2013-09-11T09:57:44Z</time>
      </trkpt>
      <trkpt lat="53.10410812497139" lon="13.104311423376203">
        <ele>64.599999999999994</ele>
        <time>2013-09-11T09:57:55Z</time>
      </trkpt>
      <trkpt lat="53.103423658758402" lon="13.104180665686727">
        <ele>63.100000000000001</ele>
        <time>2013-09-11T09:58:02Z</time>
      </trkpt>
      <trkpt lat="53.102527465671301" lon="13.103221440687776">
        <ele>59.299999999999997</ele>
        <time>2013-09-11T09:58:14Z</time>
      </trkpt>
      <trkpt lat="53.101407894864678" lon="13.101044995710254">
        <ele>55.399999999999999</ele>
        <time>2013-09-11T09:58:33Z</time>
      </trkpt>
      <trkpt lat="53.100002920255065" lon="13.10014913789928">
        <ele>64.599999999999994</ele>
        <time>2013-09-11T09:59:15Z</time>
      </trkpt>
      <trkpt lat="53.096827603876591" lon="13.09705663472414">
        <ele>79</ele>
        <time>2013-09-11T10:01:24Z</time>
      </trkpt>
      <trkpt lat="53.093952359631658" lon="13.095011869445443">
        <ele>76.099999999999994</ele>
        <time>2013-09-11T10:02:24Z</time>
      </trkpt>
      <trkpt lat="53.091764682903886" lon="13.095183111727238">
        <ele>75.599999999999994</ele>
        <time>2013-09-11T10:03:08Z</time>
      </trkpt>
      <trkpt lat="53.091211309656501" lon="13.093956084921956">
        <ele>77</ele>
        <time>2013-09-11T10:03:39Z</time>
      </trkpt>
      <trkpt lat="53.09146486222744" lon="13.093721894547343">
        <ele>77</ele>
        <time>2013-09-11T10:04:01Z</time>
      </trkpt>
      <trkpt lat="53.09141406789422" lon="13.09340170584619">
        <ele>80.900000000000006</ele>
        <time>2013-09-11T10:15:16Z</time>
      </trkpt>
      <trkpt lat="53.091177279129624" lon="13.093868074938655">
        <ele>78</ele>
        <time>2013-09-11T10:30:12Z</time>
      </trkpt>
      <trkpt lat="53.090930767357349" lon="13.093297518789768">
        <ele>79.900000000000006</ele>
        <time>2013-09-11T10:30:51Z</time>
      </trkpt>
      <trkpt lat="53.090992793440819" lon="13.093752404674888">
        <ele>79</ele>
        <time>2013-09-11T10:31:03Z</time>
      </trkpt>
      <trkpt lat="53.088041273877025" lon="13.096431763842702">
        <ele>78.5</ele>
        <time>2013-09-11T10:32:26Z</time>
      </trkpt>
      <trkpt lat="53.088109586387873" lon="13.09624208137393">
        <ele>78.5</ele>
        <time>2013-09-11T10:32:36Z</time>
      </trkpt>
      <trkpt lat="53.087950497865677" lon="13.095743274316192">
        <ele>79.5</ele>
        <time>2013-09-11T10:32:52Z</time>
      </trkpt>
      <trkpt lat="53.084332784637809" lon="13.091217214241624">
        <ele>83.299999999999997</ele>
        <time>2013-09-11T10:43:19Z</time>
      </trkpt>
      <trkpt lat="53.084399504587054" lon="13.091036081314087">
        <ele>83.799999999999997</ele>
        <time>2013-09-11T10:44:58Z</time>
      </trkpt>
      <trkpt lat="53.083849819377065" lon="13.090996937826276">
        <ele>83.799999999999997</ele>
        <time>2013-09-11T10:45:50Z</time>
      </trkpt>
      <trkpt lat="53.081486960873008" lon="13.089834535494447">
        <ele>88.599999999999994</ele>
        <time>2013-09-11T10:49:53Z</time>
      </trkpt>
      <trkpt lat="53.081291997805238" lon="13.089538738131523">
        <ele>88.599999999999994</ele>
        <time>2013-09-11T10:53:24Z</time>
      </trkpt>
      <trkpt lat="53.080701911821961" lon="13.08960847556591">
        <ele>88.599999999999994</ele>
        <time>2013-09-11T10:55:39Z</time>
      </trkpt>
      <trkpt lat="53.075367836281657" lon="13.087855987250805">
        <ele>77.5</ele>
        <time>2013-09-11T10:59:04Z</time>
      </trkpt>
      <trkpt lat="53.073178315535188" lon="13.089248472824693">
        <ele>75.099999999999994</ele>
        <time>2013-09-11T10:59:59Z</time>
      </trkpt>
      <trkpt lat="53.072632569819689" lon="13.089388031512499">
        <ele>74.599999999999994</ele>
        <time>2013-09-11T11:00:10Z</time>
      </trkpt>
      <trkpt lat="53.072341298684478" lon="13.089737892150879">
        <ele>74.200000000000003</ele>
        <time>2013-09-11T11:00:17Z</time>
      </trkpt>
      <trkpt lat="53.069391958415508" lon="13.096488174051046">
        <ele>66.5</ele>
        <time>2013-09-11T11:01:48Z</time>
      </trkpt>
      <trkpt lat="53.06509648449719" lon="13.092393614351749">
        <ele>61.200000000000003</ele>
        <time>2013-09-11T11:04:11Z</time>
      </trkpt>
      <trkpt lat="53.063879599794745" lon="13.09257441200316">
        <ele>61.700000000000003</ele>
        <time>2013-09-11T11:04:54Z</time>
      </trkpt>
      <trkpt lat="53.063572905957699" lon="13.092446168884635">
        <ele>62.100000000000001</ele>
        <time>2013-09-11T11:05:09Z</time>
      </trkpt>
      <trkpt lat="53.06074820458889" lon="13.088852427899837">
        <ele>69.400000000000006</ele>
        <time>2013-09-11T11:07:31Z</time>
      </trkpt>
      <trkpt lat="53.057585209608078" lon="13.089913660660386">
        <ele>64.099999999999994</ele>
        <time>2013-09-11T11:09:05Z</time>
      </trkpt>
      <trkpt lat="53.05570506490767" lon="13.088395111262798">
        <ele>63.100000000000001</ele>
        <time>2013-09-11T11:09:46Z</time>
      </trkpt>
      <trkpt lat="53.055406920611858" lon="13.088330486789346">
        <ele>62.600000000000001</ele>
        <time>2013-09-11T11:09:56Z</time>
      </trkpt>
      <trkpt lat="53.054900905117393" lon="13.088831221684813">
        <ele>60.200000000000003</ele>
        <time>2013-09-11T11:10:08Z</time>
      </trkpt>
      <trkpt lat="53.053319910541177" lon="13.088485971093178">
        <ele>63.600000000000001</ele>
        <time>2013-09-11T11:10:40Z</time>
      </trkpt>
      <trkpt lat="53.052881537005305" lon="13.088797861710191">
        <ele>64.099999999999994</ele>
        <time>2013-09-11T11:10:53Z</time>
      </trkpt>
      <trkpt lat="53.051601117476821" lon="13.090570298954844">
        <ele>65</ele>
        <time>2013-09-11T11:11:30Z</time>
      </trkpt>
      <trkpt lat="53.051303559914231" lon="13.090732824057341">
        <ele>65.5</ele>
        <time>2013-09-11T11:11:43Z</time>
      </trkpt>
      <trkpt lat="53.05147647857666" lon="13.090712539851665">
        <ele>65.5</ele>
        <time>2013-09-11T11:11:55Z</time>
      </trkpt>
      <trkpt lat="53.045590873807669" lon="13.092416832223535">
        <ele>63.600000000000001</ele>
        <time>2013-09-11T11:21:04Z</time>
      </trkpt>
      <trkpt lat="53.041817508637905" lon="13.09215079061687">
        <ele>63.600000000000001</ele>
        <time>2013-09-11T11:22:42Z</time>
      </trkpt>
      <trkpt lat="53.030628841370344" lon="13.087353659793735">
        <ele>63.600000000000001</ele>
        <time>2013-09-11T11:28:12Z</time>
      </trkpt>
      <trkpt lat="53.023659540340304" lon="13.087542839348316">
        <ele>64.099999999999994</ele>
        <time>2013-09-11T11:37:39Z</time>
      </trkpt>
      <trkpt lat="53.019458865746856" lon="13.088508099317551">
        <ele>65</ele>
        <time>2013-09-11T11:43:09Z</time>
      </trkpt>
      <trkpt lat="53.014005934819579" lon="13.090818738564849">
        <ele>62.600000000000001</ele>
        <time>2013-09-11T11:45:12Z</time>
      </trkpt>
      <trkpt lat="53.013681219890714" lon="13.091377560049295">
        <ele>62.600000000000001</ele>
        <time>2013-09-11T11:45:22Z</time>
      </trkpt>
      <trkpt lat="53.006640421226621" lon="13.114186730235815">
        <ele>62.100000000000001</ele>
        <time>2013-09-11T11:50:46Z</time>
      </trkpt>
      <trkpt lat="53.007182311266661" lon="13.121663136407733">
        <ele>57.799999999999997</ele>
        <time>2013-09-11T11:52:07Z</time>
      </trkpt>
      <trkpt lat="53.007176863029599" lon="13.126750700175762">
        <ele>51.100000000000001</ele>
        <time>2013-09-11T11:52:54Z</time>
      </trkpt>
      <trkpt lat="53.008354939520359" lon="13.129207771271467">
        <ele>49.200000000000003</ele>
        <time>2013-09-11T11:53:26Z</time>
      </trkpt>
      <trkpt lat="53.008888782933354" lon="13.13072900287807">
        <ele>48.200000000000003</ele>
        <time>2013-09-11T11:53:43Z</time>
      </trkpt>
      <trkpt lat="53.008419312536716" lon="13.136151926591992">
        <ele>52.100000000000001</ele>
        <time>2013-09-11T11:54:47Z</time>
      </trkpt>
      <trkpt lat="53.00831931643188" lon="13.139732927083969">
        <ele>49.700000000000003</ele>
        <time>2013-09-11T11:55:30Z</time>
      </trkpt>
      <trkpt lat="53.008029889315367" lon="13.141377372667193">
        <ele>47.700000000000003</ele>
        <time>2013-09-11T11:55:47Z</time>
      </trkpt>
      <trkpt lat="53.007838530465961" lon="13.142156470566988">
        <ele>48.700000000000003</ele>
        <time>2013-09-11T11:55:57Z</time>
      </trkpt>
      <trkpt lat="53.007072592154145" lon="13.141550039872527">
        <ele>50.100000000000001</ele>
        <time>2013-09-11T11:59:33Z</time>
      </trkpt>
      <trkpt lat="53.007229920476675" lon="13.140534404665232">
        <ele>50.600000000000001</ele>
        <time>2013-09-11T12:02:03Z</time>
      </trkpt>
      <trkpt lat="53.007336035370827" lon="13.140463158488274">
        <ele>50.600000000000001</ele>
        <time>2013-09-11T12:04:46Z</time>
      </trkpt>
      <trkpt lat="53.006915599107742" lon="13.140313038602471">
        <ele>54.5</ele>
        <time>2013-09-11T12:08:40Z</time>
      </trkpt>
      <trkpt lat="53.0070611089468" lon="13.141642324626446">
        <ele>54.5</ele>
        <time>2013-09-11T12:09:10Z</time>
      </trkpt>
      <trkpt lat="53.007782036438584" lon="13.142270464450121">
        <ele>51.600000000000001</ele>
        <time>2013-09-11T12:09:44Z</time>
      </trkpt>
      <trkpt lat="53.007560921832919" lon="13.146359575912356">
        <ele>51.100000000000001</ele>
        <time>2013-09-11T12:10:46Z</time>
      </trkpt>
      <trkpt lat="53.007384734228253" lon="13.147797323763371">
        <ele>50.600000000000001</ele>
        <time>2013-09-11T12:11:04Z</time>
      </trkpt>
      <trkpt lat="53.006890369579196" lon="13.149860193952918">
        <ele>48.700000000000003</ele>
        <time>2013-09-11T12:11:30Z</time>
      </trkpt>
      <trkpt lat="53.006857093423605" lon="13.150815311819315">
        <ele>49.200000000000003</ele>
        <time>2013-09-11T12:11:44Z</time>
      </trkpt>
      <trkpt lat="53.006946360692382" lon="13.151640426367521">
        <ele>51.100000000000001</ele>
        <time>2013-09-11T12:12:09Z</time>
      </trkpt>
      <trkpt lat="53.007329497486353" lon="13.152701407670975">
        <ele>51.100000000000001</ele>
        <time>2013-09-11T12:12:47Z</time>
      </trkpt>
      <trkpt lat="53.006822476163507" lon="13.1554458104074">
        <ele>52.5</ele>
        <time>2013-09-11T12:14:14Z</time>
      </trkpt>
      <trkpt lat="53.00740116275847" lon="13.155418904498219">
        <ele>53.5</ele>
        <time>2013-09-11T12:16:17Z</time>
      </trkpt>
      <trkpt lat="53.007405437529087" lon="13.155184965580702">
        <ele>54</ele>
        <time>2013-09-11T12:16:25Z</time>
      </trkpt>
      <trkpt lat="53.007644237950444" lon="13.155688382685184">
        <ele>53.5</ele>
        <time>2013-09-11T12:21:33Z</time>
      </trkpt>
      <trkpt lat="53.00752186216414" lon="13.155768094584346">
        <ele>54</ele>
        <time>2013-09-11T12:23:18Z</time>
      </trkpt>
      <trkpt lat="53.0074427369982" lon="13.155262917280197">
        <ele>54</ele>
        <time>2013-09-11T12:24:32Z</time>
      </trkpt>
      <trkpt lat="53.007921259850264" lon="13.155332403257489">
        <ele>53</ele>
        <time>2013-09-11T12:24:52Z</time>
      </trkpt>
      <trkpt lat="53.008017316460609" lon="13.155169961974025">
        <ele>51.600000000000001</ele>
        <time>2013-09-11T12:24:58Z</time>
      </trkpt>
      <trkpt lat="53.008152013644576" lon="13.153211530297995">
        <ele>49.200000000000003</ele>
        <time>2013-09-11T12:25:24Z</time>
      </trkpt>
      <trkpt lat="53.007360007613897" lon="13.152952529489994">
        <ele>50.100000000000001</ele>
        <time>2013-09-11T12:25:51Z</time>
      </trkpt>
      <trkpt lat="53.007390517741442" lon="13.152605602517724">
        <ele>50.100000000000001</ele>
        <time>2013-09-11T12:26:04Z</time>
      </trkpt>
      <trkpt lat="53.00712707452476" lon="13.152167396619916">
        <ele>49.700000000000003</ele>
        <time>2013-09-11T12:26:12Z</time>
      </trkpt>
      <trkpt lat="53.006497761234641" lon="13.152586659416556">
        <ele>49.200000000000003</ele>
        <time>2013-09-11T12:26:34Z</time>
      </trkpt>
      <trkpt lat="53.005948662757874" lon="13.15258489921689">
        <ele>50.600000000000001</ele>
        <time>2013-09-11T12:26:51Z</time>
      </trkpt>
      <trkpt lat="53.005726877599955" lon="13.151252595707774">
        <ele>51.600000000000001</ele>
        <time>2013-09-11T12:27:28Z</time>
      </trkpt>
      <trkpt lat="53.005007710307837" lon="13.151580663397908">
        <ele>51.600000000000001</ele>
        <time>2013-09-11T12:27:50Z</time>
      </trkpt>
      <trkpt lat="53.002033140510321" lon="13.153824834153056">
        <ele>54</ele>
        <time>2013-09-11T12:29:13Z</time>
      </trkpt>
      <trkpt lat="53.0020687635988" lon="13.153205579146743">
        <ele>53</ele>
        <time>2013-09-11T12:29:26Z</time>
      </trkpt>
      <trkpt lat="52.999888295307755" lon="13.150014085695148">
        <ele>63.600000000000001</ele>
        <time>2013-09-11T12:30:50Z</time>
      </trkpt>
      <trkpt lat="52.998447781428695" lon="13.146918481215835">
        <ele>74.200000000000003</ele>
        <time>2013-09-11T12:32:19Z</time>
      </trkpt>
      <trkpt lat="52.995854923501611" lon="13.140457794070244">
        <ele>70.299999999999997</ele>
        <time>2013-09-11T12:34:02Z</time>
      </trkpt>
      <trkpt lat="52.995031233876944" lon="13.131707506254315">
        <ele>77.5</ele>
        <time>2013-09-11T12:35:51Z</time>
      </trkpt>
      <trkpt lat="52.994765024632215" lon="13.129948731511831">
        <ele>66</ele>
        <time>2013-09-11T12:36:11Z</time>
      </trkpt>
      <trkpt lat="52.99433327279985" lon="13.128612488508224">
        <ele>64.599999999999994</ele>
        <time>2013-09-11T12:36:21Z</time>
      </trkpt>
      <trkpt lat="52.992477435618639" lon="13.124998295679688">
        <ele>62.100000000000001</ele>
        <time>2013-09-11T12:37:03Z</time>
      </trkpt>
      <trkpt lat="52.991396924480796" lon="13.123875372111797">
        <ele>54.899999999999999</ele>
        <time>2013-09-11T12:37:17Z</time>
      </trkpt>
      <trkpt lat="52.990275593474507" lon="13.123043635860085">
        <ele>55.899999999999999</ele>
        <time>2013-09-11T12:37:32Z</time>
      </trkpt>
      <trkpt lat="52.989571765065193" lon="13.122879937291145">
        <ele>55.899999999999999</ele>
        <time>2013-09-11T12:37:43Z</time>
      </trkpt>
      <trkpt lat="52.988679762929678" lon="13.121364740654826">
        <ele>56.399999999999999</ele>
        <time>2013-09-11T12:38:06Z</time>
      </trkpt>
      <trkpt lat="52.988096131011844" lon="13.120064958930016">
        <ele>55.899999999999999</ele>
        <time>2013-09-11T12:38:25Z</time>
      </trkpt>
      <trkpt lat="52.987932180985808" lon="13.118345914408565">
        <ele>58.299999999999997</ele>
        <time>2013-09-11T12:38:55Z</time>
      </trkpt>
      <trkpt lat="52.988033434376121" lon="13.118149107322097">
        <ele>51.600000000000001</ele>
        <time>2013-09-11T12:41:21Z</time>
      </trkpt>
      <trkpt lat="52.98785699531436" lon="13.11903272755444">
        <ele>59.299999999999997</ele>
        <time>2013-09-11T12:41:55Z</time>
      </trkpt>
      <trkpt lat="52.98782522790134" lon="13.1185651011765">
        <ele>59.700000000000003</ele>
        <time>2013-09-11T12:42:40Z</time>
      </trkpt>
      <trkpt lat="52.987878369167447" lon="13.118833741173148">
        <ele>59.700000000000003</ele>
        <time>2013-09-11T12:44:56Z</time>
      </trkpt>
      <trkpt lat="52.98770603723824" lon="13.118670880794525">
        <ele>59.299999999999997</ele>
        <time>2013-09-11T12:47:11Z</time>
      </trkpt>
      <trkpt lat="52.987887589260936" lon="13.118891660124063">
        <ele>60.200000000000003</ele>
        <time>2013-09-11T12:47:53Z</time>
      </trkpt>
      <trkpt lat="52.987942071631551" lon="13.118750425055623">
        <ele>61.200000000000003</ele>
        <time>2013-09-11T12:49:43Z</time>
      </trkpt>
      <trkpt lat="52.987965289503336" lon="13.117750380188227">
        <ele>61.200000000000003</ele>
        <time>2013-09-11T12:50:42Z</time>
      </trkpt>
      <trkpt lat="52.987047303467989" lon="13.116093361750245">
        <ele>59.299999999999997</ele>
        <time>2013-09-11T12:51:04Z</time>
      </trkpt>
      <trkpt lat="52.986572301015258" lon="13.113674679771066">
        <ele>60.200000000000003</ele>
        <time>2013-09-11T12:51:32Z</time>
      </trkpt>
      <trkpt lat="52.986257812008262" lon="13.113068165257573">
        <ele>60.200000000000003</ele>
        <time>2013-09-11T12:51:42Z</time>
      </trkpt>
      <trkpt lat="52.985833017155528" lon="13.112812014296651">
        <ele>59.700000000000003</ele>
        <time>2013-09-11T12:51:50Z</time>
      </trkpt>
      <trkpt lat="52.983664115890861" lon="13.112820815294981">
        <ele>59.299999999999997</ele>
        <time>2013-09-11T12:52:26Z</time>
      </trkpt>
      <trkpt lat="52.982805222272873" lon="13.112342208623886">
        <ele>63.600000000000001</ele>
        <time>2013-09-11T12:52:49Z</time>
      </trkpt>
      <trkpt lat="52.979831825941801" lon="13.109983960166574">
        <ele>66.5</ele>
        <time>2013-09-11T12:54:14Z</time>
      </trkpt>
      <trkpt lat="52.975663589313626" lon="13.107205694541335">
        <ele>61.700000000000003</ele>
        <time>2013-09-11T12:55:43Z</time>
      </trkpt>
      <trkpt lat="52.972614420577884" lon="13.10249456204474">
        <ele>52.100000000000001</ele>
        <time>2013-09-11T12:57:08Z</time>
      </trkpt>
      <trkpt lat="52.971976641565561" lon="13.102537393569946">
        <ele>53.5</ele>
        <time>2013-09-11T12:57:33Z</time>
      </trkpt>
      <trkpt lat="52.971905395388603" lon="13.102276213467121">
        <ele>53</ele>
        <time>2013-09-11T12:58:13Z</time>
      </trkpt>
      <trkpt lat="52.971922410652041" lon="13.102630181238055">
        <ele>53.5</ele>
        <time>2013-09-11T12:59:44Z</time>
      </trkpt>
      <trkpt lat="52.971835574135184" lon="13.102392721921206">
        <ele>52.5</ele>
        <time>2013-09-11T13:00:46Z</time>
      </trkpt>
      <trkpt lat="52.971540866419673" lon="13.102332036942244">
        <ele>53.5</ele>
        <time>2013-09-11T13:01:21Z</time>
      </trkpt>
      <trkpt lat="52.970734527334571" lon="13.104196423664689">
        <ele>54.899999999999999</ele>
        <time>2013-09-11T13:02:24Z</time>
      </trkpt>
      <trkpt lat="52.971207182854414" lon="13.102744510397315">
        <ele>52.5</ele>
        <time>2013-09-11T13:03:17Z</time>
      </trkpt>
      <trkpt lat="52.970416182652116" lon="13.100498160347342">
        <ele>53.5</ele>
        <time>2013-09-11T13:04:10Z</time>
      </trkpt>
      <trkpt lat="52.970153661444783" lon="13.100268160924315">
        <ele>54.5</ele>
        <time>2013-09-11T13:04:23Z</time>
      </trkpt>
      <trkpt lat="52.966592693701386" lon="13.098031869158149">
        <ele>58.799999999999997</ele>
        <time>2013-09-11T13:06:02Z</time>
      </trkpt>
      <trkpt lat="52.946034818887711" lon="13.097315803170204">
        <ele>49.200000000000003</ele>
        <time>2013-09-11T13:22:58Z</time>
      </trkpt>
      <trkpt lat="52.945481697097421" lon="13.097609840333462">
        <ele>49.700000000000003</ele>
        <time>2013-09-11T13:23:10Z</time>
      </trkpt>
      <trkpt lat="52.941909329965711" lon="13.101036278530955">
        <ele>50.100000000000001</ele>
        <time>2013-09-11T13:24:41Z</time>
      </trkpt>
      <trkpt lat="52.941176081076264" lon="13.101540701463819">
        <ele>49.200000000000003</ele>
        <time>2013-09-11T13:24:57Z</time>
      </trkpt>
      <trkpt lat="52.933621387928724" lon="13.101266529411077">
        <ele>52.100000000000001</ele>
        <time>2013-09-11T13:27:45Z</time>
      </trkpt>
      <trkpt lat="52.932208785787225" lon="13.106877710670233">
        <ele>52.100000000000001</ele>
        <time>2013-09-11T13:29:09Z</time>
      </trkpt>
      <trkpt lat="52.931676534935832" lon="13.10788806527853">
        <ele>53</ele>
        <time>2013-09-11T13:29:43Z</time>
      </trkpt>
      <trkpt lat="52.931802598759532" lon="13.108085207641125">
        <ele>54</ele>
        <time>2013-09-11T13:30:11Z</time>
      </trkpt>
      <trkpt lat="52.931641666218638" lon="13.108800686895847">
        <ele>53.5</ele>
        <time>2013-09-11T13:30:45Z</time>
      </trkpt>
      <trkpt lat="52.93180838227272" lon="13.10811135917902">
        <ele>54</ele>
        <time>2013-09-11T13:32:18Z</time>
      </trkpt>
      <trkpt lat="52.932009380310774" lon="13.108039861544967">
        <ele>55.399999999999999</ele>
        <time>2013-09-11T13:32:32Z</time>
      </trkpt>
      <trkpt lat="52.932600472122431" lon="13.108637910336256">
        <ele>52.5</ele>
        <time>2013-09-11T13:39:51Z</time>
      </trkpt>
      <trkpt lat="52.932084901258349" lon="13.108370276167989">
        <ele>53</ele>
        <time>2013-09-11T13:45:08Z</time>
      </trkpt>
      <trkpt lat="52.930567860603333" lon="13.114328132942319">
        <ele>51.100000000000001</ele>
        <time>2013-09-11T13:47:07Z</time>
      </trkpt>
      <trkpt lat="52.930157566443086" lon="13.114582439884543">
        <ele>51.100000000000001</ele>
        <time>2013-09-11T13:47:21Z</time>
      </trkpt>
      <trkpt lat="52.928151274099946" lon="13.114926181733608">
        <ele>53</ele>
        <time>2013-09-11T13:48:11Z</time>
      </trkpt>
      <trkpt lat="52.92512733489275" lon="13.116398882120848">
        <ele>53</ele>
        <time>2013-09-11T13:49:16Z</time>
      </trkpt>
      <trkpt lat="52.922911662608385" lon="13.118910184130073">
        <ele>51.600000000000001</ele>
        <time>2013-09-11T13:50:10Z</time>
      </trkpt>
      <trkpt lat="52.917252033948898" lon="13.12737506814301">
        <ele>54.899999999999999</ele>
        <time>2013-09-11T13:53:03Z</time>
      </trkpt>
      <trkpt lat="52.918800339102745" lon="13.129674140363932">
        <ele>52.100000000000001</ele>
        <time>2013-09-11T13:54:01Z</time>
      </trkpt>
      <trkpt lat="52.918677963316441" lon="13.129605073481798">
        <ele>52.5</ele>
        <time>2013-09-11T13:54:10Z</time>
      </trkpt>
      <trkpt lat="52.918410496786237" lon="13.129915036261082">
        <ele>52.100000000000001</ele>
        <time>2013-09-11T13:57:47Z</time>
      </trkpt>
      <trkpt lat="52.918723812326789" lon="13.129648575559258">
        <ele>41.5</ele>
        <time>2013-09-11T13:59:39Z</time>
      </trkpt>
      <trkpt lat="52.919603576883674" lon="13.131285393610597">
        <ele>40.5</ele>
        <time>2013-09-11T14:00:22Z</time>
      </trkpt>
      <trkpt lat="52.919284394010901" lon="13.13181571662426">
        <ele>41</ele>
        <time>2013-09-11T14:00:45Z</time>
      </trkpt>
      <trkpt lat="52.919542221352458" lon="13.131432579830289">
        <ele>41.5</ele>
        <time>2013-09-11T14:01:01Z</time>
      </trkpt>
      <trkpt lat="52.919541215524077" lon="13.130988338962197">
        <ele>41</ele>
        <time>2013-09-11T14:01:12Z</time>
      </trkpt>
      <trkpt lat="52.918388368561864" lon="13.128807535395026">
        <ele>41.5</ele>
        <time>2013-09-11T14:01:58Z</time>
      </trkpt>
      <trkpt lat="52.917258990928531" lon="13.127339780330658">
        <ele>45.799999999999997</ele>
        <time>2013-09-11T14:02:41Z</time>
      </trkpt>
      <trkpt lat="52.913968674838543" lon="13.132658181712031">
        <ele>41.5</ele>
        <time>2013-09-11T14:04:19Z</time>
      </trkpt>
      <trkpt lat="52.91096686385572" lon="13.137149540707469">
        <ele>51.600000000000001</ele>
        <time>2013-09-11T14:06:21Z</time>
      </trkpt>
      <trkpt lat="52.910639382898808" lon="13.137250877916813">
        <ele>53</ele>
        <time>2013-09-11T14:06:34Z</time>
      </trkpt>
      <trkpt lat="52.910403432324529" lon="13.136508911848068">
        <ele>52.100000000000001</ele>
        <time>2013-09-11T14:06:55Z</time>
      </trkpt>
      <trkpt lat="52.910380968824029" lon="13.134830938652158">
        <ele>53.5</ele>
        <time>2013-09-11T14:07:57Z</time>
      </trkpt>
      <trkpt lat="52.910384405404329" lon="13.136264160275459">
        <ele>53.5</ele>
        <time>2013-09-11T14:14:03Z</time>
      </trkpt>
      <trkpt lat="52.910639131441712" lon="13.137332601472735">
        <ele>54.5</ele>
        <time>2013-09-11T14:14:29Z</time>
      </trkpt>
      <trkpt lat="52.910113083198667" lon="13.137813974171877">
        <ele>52.100000000000001</ele>
        <time>2013-09-11T14:14:45Z</time>
      </trkpt>
      <trkpt lat="52.904480276629329" lon="13.139413660392165">
        <ele>48.700000000000003</ele>
        <time>2013-09-11T14:16:48Z</time>
      </trkpt>
      <trkpt lat="52.903890190646052" lon="13.139767376706004">
        <ele>44.799999999999997</ele>
        <time>2013-09-11T14:16:59Z</time>
      </trkpt>
      <trkpt lat="52.903156941756606" lon="13.140241876244545">
        <ele>41.5</ele>
        <time>2013-09-11T14:17:12Z</time>
      </trkpt>
      <trkpt lat="52.901136316359043" lon="13.142615295946598">
        <ele>49.700000000000003</ele>
        <time>2013-09-11T14:18:21Z</time>
      </trkpt>
      <trkpt lat="52.896872526034713" lon="13.145969733595848">
        <ele>46.799999999999997</ele>
        <time>2013-09-11T14:20:16Z</time>
      </trkpt>
      <trkpt lat="52.895607110112906" lon="13.146636094897985">
        <ele>43.399999999999999</ele>
        <time>2013-09-11T14:20:45Z</time>
      </trkpt>
      <trkpt lat="52.895491858944297" lon="13.147566318511963">
        <ele>45.299999999999997</ele>
        <time>2013-09-11T14:21:06Z</time>
      </trkpt>
      <trkpt lat="52.895828392356634" lon="13.149064164608717">
        <ele>45.799999999999997</ele>
        <time>2013-09-11T14:21:34Z</time>
      </trkpt>
      <trkpt lat="52.896043974906206" lon="13.151019578799605">
        <ele>39.600000000000001</ele>
        <time>2013-09-11T14:24:09Z</time>
      </trkpt>
      <trkpt lat="52.896213959902525" lon="13.151100464165211">
        <ele>39.600000000000001</ele>
        <time>2013-09-11T14:24:20Z</time>
      </trkpt>
      <trkpt lat="52.893427312374115" lon="13.153231730684638">
        <ele>40.5</ele>
        <time>2013-09-11T14:26:01Z</time>
      </trkpt>
      <trkpt lat="52.893668124452233" lon="13.153208764269948">
        <ele>39.600000000000001</ele>
        <time>2013-09-11T14:26:15Z</time>
      </trkpt>
      <trkpt lat="52.893798379227519" lon="13.15370773896575">
        <ele>41.5</ele>
        <time>2013-09-11T14:26:55Z</time>
      </trkpt>
      <trkpt lat="52.893962161615491" lon="13.15371603704989">
        <ele>41</ele>
        <time>2013-09-11T14:59:37Z</time>
      </trkpt>
      <trkpt lat="52.893816567957401" lon="13.153693825006485">
        <ele>45.799999999999997</ele>
        <time>2013-09-11T15:01:41Z</time>
      </trkpt>
      <trkpt lat="52.893598303198814" lon="13.154457835480571">
        <ele>50.600000000000001</ele>
        <time>2013-09-11T17:42:36Z</time>
      </trkpt>
      <trkpt lat="52.893871804699302" lon="13.154046619310975">
        <ele>50.100000000000001</ele>
        <time>2013-09-11T17:43:37Z</time>
      </trkpt>
      <trkpt lat="52.893685474991798" lon="13.153966404497623">
        <ele>49.200000000000003</ele>
        <time>2013-09-11T18:15:42Z</time>
      </trkpt>
      <trkpt lat="52.893787985667586" lon="13.154070675373077">
        <ele>49.200000000000003</ele>
        <time>2013-09-11T18:32:59Z</time>
      </trkpt>
      <trkpt lat="52.893805084750056" lon="13.153888704255223">
        <ele>49.700000000000003</ele>
        <time>2013-09-11T18:36:55Z</time>
      </trkpt>
      <trkpt lat="52.893803408369422" lon="13.154146112501621">
        <ele>50.100000000000001</ele>
        <time>2013-09-11T18:41:16Z</time>
      </trkpt>
      <trkpt lat="52.893926538527012" lon="13.153969338163733">
        <ele>67</ele>
        <time>2013-09-12T07:32:51Z</time>
      </trkpt>
      <trkpt lat="52.893577180802822" lon="13.153194095939398">
        <ele>66.5</ele>
        <time>2013-09-12T07:33:17Z</time>
      </trkpt>
      <trkpt lat="52.882521282881498" lon="13.16085247322917">
        <ele>60.700000000000003</ele>
        <time>2013-09-12T07:36:53Z</time>
      </trkpt>
      <trkpt lat="52.881258968263865" lon="13.161535765975714">
        <ele>59.299999999999997</ele>
        <time>2013-09-12T07:37:14Z</time>
      </trkpt>
      <trkpt lat="52.876189341768622" lon="13.162402538582683">
        <ele>57.299999999999997</ele>
        <time>2013-09-12T07:38:32Z</time>
      </trkpt>
      <trkpt lat="52.869499996304512" lon="13.166602961719036">
        <ele>54</ele>
        <time>2013-09-12T07:40:22Z</time>
      </trkpt>
      <trkpt lat="52.86985706537962" lon="13.168004164472222">
        <ele>54</ele>
        <time>2013-09-12T07:40:40Z</time>
      </trkpt>
      <trkpt lat="52.869824795052409" lon="13.168482938781381">
        <ele>54</ele>
        <time>2013-09-12T07:40:46Z</time>
      </trkpt>
      <trkpt lat="52.867596382275224" lon="13.178267972543836">
        <ele>55.399999999999999</ele>
        <time>2013-09-12T07:42:42Z</time>
      </trkpt>
      <trkpt lat="52.867541061714292" lon="13.179814517498016">
        <ele>56.399999999999999</ele>
        <time>2013-09-12T07:43:01Z</time>
      </trkpt>
      <trkpt lat="52.867569141089916" lon="13.189080795273185">
        <ele>54</ele>
        <time>2013-09-12T07:44:26Z</time>
      </trkpt>
      <trkpt lat="52.867746334522963" lon="13.193566035479307">
        <ele>54.5</ele>
        <time>2013-09-12T07:45:07Z</time>
      </trkpt>
      <trkpt lat="52.869046870619059" lon="13.217398216947913">
        <ele>49.700000000000003</ele>
        <time>2013-09-12T07:54:59Z</time>
      </trkpt>
      <trkpt lat="52.869442496448755" lon="13.21847059763968">
        <ele>50.100000000000001</ele>
        <time>2013-09-12T07:55:13Z</time>
      </trkpt>
      <trkpt lat="52.87012780085206" lon="13.219687230885029">
        <ele>50.600000000000001</ele>
        <time>2013-09-12T07:55:32Z</time>
      </trkpt>
      <trkpt lat="52.871324736624956" lon="13.220126358792186">
        <ele>52.100000000000001</ele>
        <time>2013-09-12T07:55:57Z</time>
      </trkpt>
      <trkpt lat="52.872279435396194" lon="13.221277361735702">
        <ele>54</ele>
        <time>2013-09-12T07:56:22Z</time>
      </trkpt>
      <trkpt lat="52.87320563569665" lon="13.223490519449115">
        <ele>53.5</ele>
        <time>2013-09-12T07:56:56Z</time>
      </trkpt>
      <trkpt lat="52.874687975272536" lon="13.22555867023766">
        <ele>52.5</ele>
        <time>2013-09-12T07:57:32Z</time>
      </trkpt>
      <trkpt lat="52.876051375642419" lon="13.226911425590515">
        <ele>53</ele>
        <time>2013-09-12T07:58:03Z</time>
      </trkpt>
      <trkpt lat="52.877419469878078" lon="13.227769313380122">
        <ele>53.5</ele>
        <time>2013-09-12T07:58:34Z</time>
      </trkpt>
      <trkpt lat="52.877786513417959" lon="13.228359902277589">
        <ele>54</ele>
        <time>2013-09-12T07:58:49Z</time>
      </trkpt>
      <trkpt lat="52.879986260086298" lon="13.233883492648602">
        <ele>62.100000000000001</ele>
        <time>2013-09-12T08:00:35Z</time>
      </trkpt>
      <trkpt lat="52.880375683307648" lon="13.234577598050237">
        <ele>68.900000000000006</ele>
        <time>2013-09-12T08:00:50Z</time>
      </trkpt>
      <trkpt lat="52.881745873019099" lon="13.240325236693025">
        <ele>68.900000000000006</ele>
        <time>2013-09-12T08:04:42Z</time>
      </trkpt>
      <trkpt lat="52.883685110136867" lon="13.244125507771969">
        <ele>61.200000000000003</ele>
        <time>2013-09-12T08:05:29Z</time>
      </trkpt>
      <trkpt lat="52.887531062588096" lon="13.250252678990364">
        <ele>59.700000000000003</ele>
        <time>2013-09-12T08:05:48Z</time>
      </trkpt>
      <trkpt lat="52.890508314594626" lon="13.256072318181396">
        <ele>54.5</ele>
        <time>2013-09-12T08:07:16Z</time>
      </trkpt>
      <trkpt lat="52.892062067985535" lon="13.257152158766985">
        <ele>55.899999999999999</ele>
        <time>2013-09-12T08:07:49Z</time>
      </trkpt>
      <trkpt lat="52.892533717676997" lon="13.257768983021379">
        <ele>55.399999999999999</ele>
        <time>2013-09-12T08:08:04Z</time>
      </trkpt>
      <trkpt lat="52.892406061291695" lon="13.260909765958786">
        <ele>57.799999999999997</ele>
        <time>2013-09-12T08:08:48Z</time>
      </trkpt>
      <trkpt lat="52.892139684408903" lon="13.262333935126662">
        <ele>57.799999999999997</ele>
        <time>2013-09-12T08:09:07Z</time>
      </trkpt>
      <trkpt lat="52.891127485781908" lon="13.264994937926531">
        <ele>57.799999999999997</ele>
        <time>2013-09-12T08:09:42Z</time>
      </trkpt>
      <trkpt lat="52.890601772814989" lon="13.266899725422263">
        <ele>56.899999999999999</ele>
        <time>2013-09-12T08:10:05Z</time>
      </trkpt>
      <trkpt lat="52.890258701518178" lon="13.267221171408892">
        <ele>56.899999999999999</ele>
        <time>2013-09-12T08:10:14Z</time>
      </trkpt>
      <trkpt lat="52.888837801292539" lon="13.270339490845799">
        <ele>42.399999999999999</ele>
        <time>2013-09-12T08:10:44Z</time>
      </trkpt>
      <trkpt lat="52.885174658149481" lon="13.276818534359336">
        <ele>39.100000000000001</ele>
        <time>2013-09-12T08:12:03Z</time>
      </trkpt>
      <trkpt lat="52.882909281179309" lon="13.281710296869278">
        <ele>39.100000000000001</ele>
        <time>2013-09-12T08:13:09Z</time>
      </trkpt>
      <trkpt lat="52.882278459146619" lon="13.283536126837134">
        <ele>38.100000000000001</ele>
        <time>2013-09-12T08:13:33Z</time>
      </trkpt>
      <trkpt lat="52.875168928876519" lon="13.289573863148689">
        <ele>35.200000000000003</ele>
        <time>2013-09-12T08:15:46Z</time>
      </trkpt>
      <trkpt lat="52.87354233674705" lon="13.294206792488694">
        <ele>35.200000000000003</ele>
        <time>2013-09-12T08:16:42Z</time>
      </trkpt>
      <trkpt lat="52.872825432568789" lon="13.298619110137224">
        <ele>35.200000000000003</ele>
        <time>2013-09-12T08:17:33Z</time>
      </trkpt>
      <trkpt lat="52.871661437675357" lon="13.301726365461946">
        <ele>35.200000000000003</ele>
        <time>2013-09-12T08:18:13Z</time>
      </trkpt>
      <trkpt lat="52.871255837380886" lon="13.301712870597839">
        <ele>35.700000000000003</ele>
        <time>2013-09-12T08:18:22Z</time>
      </trkpt>
      <trkpt lat="52.870643706992269" lon="13.302835123613477">
        <ele>36.700000000000003</ele>
        <time>2013-09-12T08:18:41Z</time>
      </trkpt>
      <trkpt lat="52.867298824712634" lon="13.302563466131687">
        <ele>33.799999999999997</ele>
        <time>2013-09-12T08:19:43Z</time>
      </trkpt>
      <trkpt lat="52.867131773382425" lon="13.303177440539002">
        <ele>35.700000000000003</ele>
        <time>2013-09-12T08:19:56Z</time>
      </trkpt>
      <trkpt lat="52.866999423131347" lon="13.303173333406448">
        <ele>36.700000000000003</ele>
        <time>2013-09-12T08:24:17Z</time>
      </trkpt>
      <trkpt lat="52.865804582834244" lon="13.307341821491718">
        <ele>36.200000000000003</ele>
        <time>2013-09-12T08:27:23Z</time>
      </trkpt>
      <trkpt lat="52.84781601279974" lon="13.295848639681935">
        <ele>35.700000000000003</ele>
        <time>2013-09-12T08:33:24Z</time>
      </trkpt>
      <trkpt lat="52.837149621918797" lon="13.299163430929184">
        <ele>37.200000000000003</ele>
        <time>2013-09-12T08:36:28Z</time>
      </trkpt>
      <trkpt lat="52.836474711075425" lon="13.300005728378892">
        <ele>36.700000000000003</ele>
        <time>2013-09-12T08:36:42Z</time>
      </trkpt>
      <trkpt lat="52.833320684731007" lon="13.301931722089648">
        <ele>36.700000000000003</ele>
        <time>2013-09-12T08:37:39Z</time>
      </trkpt>
      <trkpt lat="52.833057912066579" lon="13.301777495071292">
        <ele>36.700000000000003</ele>
        <time>2013-09-12T08:37:47Z</time>
      </trkpt>
      <trkpt lat="52.820030003786087" lon="13.31189981661737">
        <ele>33.299999999999997</ele>
        <time>2013-09-12T08:42:20Z</time>
      </trkpt>
      <trkpt lat="52.817666558548808" lon="13.307226067408919">
        <ele>34.700000000000003</ele>
        <time>2013-09-12T08:43:32Z</time>
      </trkpt>
      <trkpt lat="52.815710138529539" lon="13.302515437826514">
        <ele>33.799999999999997</ele>
        <time>2013-09-12T08:44:36Z</time>
      </trkpt>
      <trkpt lat="52.809844817966223" lon="13.299832558259368">
        <ele>34.299999999999997</ele>
        <time>2013-09-12T08:46:24Z</time>
      </trkpt>
      <trkpt lat="52.805430488660932" lon="13.296348117291927">
        <ele>35.200000000000003</ele>
        <time>2013-09-12T08:47:59Z</time>
      </trkpt>
      <trkpt lat="52.803859720006585" lon="13.29490534029901">
        <ele>34.700000000000003</ele>
        <time>2013-09-12T08:48:46Z</time>
      </trkpt>
      <trkpt lat="52.800708878785372" lon="13.293499695137143">
        <ele>33.799999999999997</ele>
        <time>2013-09-12T08:49:56Z</time>
      </trkpt>
      <trkpt lat="52.799091506749392" lon="13.291818369179964">
        <ele>33.799999999999997</ele>
        <time>2013-09-12T08:50:33Z</time>
      </trkpt>
      <trkpt lat="52.7985954657197" lon="13.291571941226721">
        <ele>34.299999999999997</ele>
        <time>2013-09-12T08:50:45Z</time>
      </trkpt>
      <trkpt lat="52.797378413379192" lon="13.291529361158609">
        <ele>34.700000000000003</ele>
        <time>2013-09-12T08:51:22Z</time>
      </trkpt>
      <trkpt lat="52.79635657556355" lon="13.292079465463758">
        <ele>33.299999999999997</ele>
        <time>2013-09-12T08:51:42Z</time>
      </trkpt>
      <trkpt lat="52.795805465430021" lon="13.292004112154245">
        <ele>34.299999999999997</ele>
        <time>2013-09-12T08:51:54Z</time>
      </trkpt>
      <trkpt lat="52.794704837724566" lon="13.290479779243469">
        <ele>34.700000000000003</ele>
        <time>2013-09-12T08:52:25Z</time>
      </trkpt>
      <trkpt lat="52.792317001149058" lon="13.286439534276724">
        <ele>35.200000000000003</ele>
        <time>2013-09-12T08:54:14Z</time>
      </trkpt>
      <trkpt lat="52.791879465803504" lon="13.28675402328372">
        <ele>34.700000000000003</ele>
        <time>2013-09-12T08:54:27Z</time>
      </trkpt>
      <trkpt lat="52.790484800934792" lon="13.284411616623402">
        <ele>36.200000000000003</ele>
        <time>2013-09-12T08:55:09Z</time>
      </trkpt>
      <trkpt lat="52.789390040561557" lon="13.282974120229483">
        <ele>34.299999999999997</ele>
        <time>2013-09-12T08:55:38Z</time>
      </trkpt>
      <trkpt lat="52.787304790690541" lon="13.281308300793171">
        <ele>34.700000000000003</ele>
        <time>2013-09-12T08:56:25Z</time>
      </trkpt>
      <trkpt lat="52.785336300730705" lon="13.280343208462">
        <ele>35.200000000000003</ele>
        <time>2013-09-12T08:57:06Z</time>
      </trkpt>
      <trkpt lat="52.784652002155781" lon="13.280195100232959">
        <ele>34.700000000000003</ele>
        <time>2013-09-12T08:57:19Z</time>
      </trkpt>
      <trkpt lat="52.772568566724658" lon="13.279293961822987">
        <ele>34.299999999999997</ele>
        <time>2013-09-12T09:01:02Z</time>
      </trkpt>
      <trkpt lat="52.770664198324084" lon="13.279332434758544">
        <ele>32.799999999999997</ele>
        <time>2013-09-12T09:01:39Z</time>
      </trkpt>
      <trkpt lat="52.769885770976543" lon="13.279068823903799">
        <ele>32.799999999999997</ele>
        <time>2013-09-12T09:01:57Z</time>
      </trkpt>
      <trkpt lat="52.767228120937943" lon="13.278895318508148">
        <ele>31.399999999999999</ele>
        <time>2013-09-12T09:02:49Z</time>
      </trkpt>
      <trkpt lat="52.765907635912299" lon="13.278524503111839">
        <ele>33.299999999999997</ele>
        <time>2013-09-12T09:03:20Z</time>
      </trkpt>
      <trkpt lat="52.765792971476912" lon="13.277545664459467">
        <ele>32.799999999999997</ele>
        <time>2013-09-12T09:03:51Z</time>
      </trkpt>
      <trkpt lat="52.762142233550549" lon="13.269733563065529">
        <ele>31.399999999999999</ele>
        <time>2013-09-12T09:06:00Z</time>
      </trkpt>
      <trkpt lat="52.761277891695499" lon="13.267463576048613">
        <ele>29.899999999999999</ele>
        <time>2013-09-12T09:06:31Z</time>
      </trkpt>
      <trkpt lat="52.756955595687032" lon="13.246428687125444">
        <ele>30.399999999999999</ele>
        <time>2013-09-12T09:12:46Z</time>
      </trkpt>
      <trkpt lat="52.756730960682034" lon="13.246445786207914">
        <ele>30.899999999999999</ele>
        <time>2013-09-12T09:14:19Z</time>
      </trkpt>
      <trkpt lat="52.756312536075711" lon="13.244424238801003">
        <ele>29.899999999999999</ele>
        <time>2013-09-12T09:15:31Z</time>
      </trkpt>
      <trkpt lat="52.75584583170712" lon="13.241068124771118">
        <ele>31.399999999999999</ele>
        <time>2013-09-12T09:16:45Z</time>
      </trkpt>
      <trkpt lat="52.755270833149552" lon="13.238758658990264">
        <ele>29.899999999999999</ele>
        <time>2013-09-12T09:17:48Z</time>
      </trkpt>
      <trkpt lat="52.754634562879801" lon="13.238378372043371">
        <ele>32.299999999999997</ele>
        <time>2013-09-12T09:18:04Z</time>
      </trkpt>
      <trkpt lat="52.753950012847781" lon="13.237340273335576">
        <ele>31.899999999999999</ele>
        <time>2013-09-12T09:23:10Z</time>
      </trkpt>
      <trkpt lat="52.753928387537599" lon="13.237090911716223">
        <ele>32.299999999999997</ele>
        <time>2013-09-12T09:23:14Z</time>
      </trkpt>
      <trkpt lat="52.754146568477154" lon="13.236784972250462">
        <ele>33.299999999999997</ele>
        <time>2013-09-12T09:23:33Z</time>
      </trkpt>
      <trkpt lat="52.754039112478495" lon="13.236251715570688">
        <ele>33.299999999999997</ele>
        <time>2013-09-12T09:24:40Z</time>
      </trkpt>
      <trkpt lat="52.752011613920331" lon="13.235304979607463">
        <ele>33.299999999999997</ele>
        <time>2013-09-12T09:25:38Z</time>
      </trkpt>
      <trkpt lat="52.751792594790459" lon="13.233796739950776">
        <ele>31.899999999999999</ele>
        <time>2013-09-12T09:26:00Z</time>
      </trkpt>
      <trkpt lat="52.751154061406851" lon="13.232418168336153">
        <ele>31.399999999999999</ele>
        <time>2013-09-12T09:26:23Z</time>
      </trkpt>
      <trkpt lat="52.75063362903893" lon="13.231763793155551">
        <ele>31.899999999999999</ele>
        <time>2013-09-12T09:27:16Z</time>
      </trkpt>
      <trkpt lat="52.750665564090014" lon="13.232226725667715">
        <ele>31.399999999999999</ele>
        <time>2013-09-12T09:27:59Z</time>
      </trkpt>
      <trkpt lat="52.751208459958434" lon="13.232815889641643">
        <ele>31.899999999999999</ele>
        <time>2013-09-12T09:28:16Z</time>
      </trkpt>
      <trkpt lat="52.751631829887629" lon="13.233713172376156">
        <ele>31.899999999999999</ele>
        <time>2013-09-12T09:28:32Z</time>
      </trkpt>
      <trkpt lat="52.751908265054226" lon="13.235443532466888">
        <ele>32.799999999999997</ele>
        <time>2013-09-12T09:29:00Z</time>
      </trkpt>
      <trkpt lat="52.753723869100213" lon="13.236492108553648">
        <ele>32.799999999999997</ele>
        <time>2013-09-12T09:29:53Z</time>
      </trkpt>
      <trkpt lat="52.753790589049459" lon="13.237418727949262">
        <ele>31.899999999999999</ele>
        <time>2013-09-12T09:30:57Z</time>
      </trkpt>
      <trkpt lat="52.754430463537574" lon="13.23842816054821">
        <ele>32.299999999999997</ele>
        <time>2013-09-12T09:31:24Z</time>
      </trkpt>
      <trkpt lat="52.755247112363577" lon="13.239019839093089">
        <ele>29.899999999999999</ele>
        <time>2013-09-12T09:31:40Z</time>
      </trkpt>
      <trkpt lat="52.75558297522366" lon="13.240902498364449">
        <ele>31.899999999999999</ele>
        <time>2013-09-12T09:32:32Z</time>
      </trkpt>
      <trkpt lat="52.754692062735558" lon="13.242554990574718">
        <ele>31.899999999999999</ele>
        <time>2013-09-12T09:33:05Z</time>
      </trkpt>
      <trkpt lat="52.7524708583951" lon="13.245958797633648">
        <ele>30.899999999999999</ele>
        <time>2013-09-12T09:34:09Z</time>
      </trkpt>
      <trkpt lat="52.749785715714097" lon="13.249669298529625">
        <ele>30.899999999999999</ele>
        <time>2013-09-12T09:35:19Z</time>
      </trkpt>
      <trkpt lat="52.747605415061116" lon="13.252317393198609">
        <ele>31.899999999999999</ele>
        <time>2013-09-12T09:36:19Z</time>
      </trkpt>
      <trkpt lat="52.743642618879676" lon="13.256383035331964">
        <ele>31.899999999999999</ele>
        <time>2013-09-12T09:39:01Z</time>
      </trkpt>
      <trkpt lat="52.741927513852715" lon="13.26090264134109">
        <ele>32.299999999999997</ele>
        <time>2013-09-12T09:40:26Z</time>
      </trkpt>
      <trkpt lat="52.741563739255071" lon="13.262272663414478">
        <ele>33.299999999999997</ele>
        <time>2013-09-12T09:40:47Z</time>
      </trkpt>
      <trkpt lat="52.74109753780067" lon="13.26285713352263">
        <ele>32.799999999999997</ele>
        <time>2013-09-12T09:41:12Z</time>
      </trkpt>
      <trkpt lat="52.740414496511221" lon="13.262637695297599">
        <ele>31.899999999999999</ele>
        <time>2013-09-12T09:41:27Z</time>
      </trkpt>
      <trkpt lat="52.738234363496304" lon="13.262775661423802">
        <ele>32.799999999999997</ele>
        <time>2013-09-12T09:43:53Z</time>
      </trkpt>
      <trkpt lat="52.734889565035701" lon="13.264628313481808">
        <ele>32.299999999999997</ele>
        <time>2013-09-12T09:45:08Z</time>
      </trkpt>
      <trkpt lat="52.733324998989701" lon="13.264796370640397">
        <ele>33.299999999999997</ele>
        <time>2013-09-12T09:45:38Z</time>
      </trkpt>
      <trkpt lat="52.725832499563694" lon="13.26678229495883">
        <ele>32.799999999999997</ele>
        <time>2013-09-12T09:48:05Z</time>
      </trkpt>
      <trkpt lat="52.721715727820992" lon="13.267220668494701">
        <ele>33.299999999999997</ele>
        <time>2013-09-12T09:49:24Z</time>
      </trkpt>
      <trkpt lat="52.719436269253492" lon="13.267700113356113">
        <ele>32.799999999999997</ele>
        <time>2013-09-12T09:50:06Z</time>
      </trkpt>
      <trkpt lat="52.718626158311963" lon="13.267664406448603">
        <ele>33.299999999999997</ele>
        <time>2013-09-12T09:50:24Z</time>
      </trkpt>
      <trkpt lat="52.71782903932035" lon="13.267331896349788">
        <ele>32.299999999999997</ele>
        <time>2013-09-12T09:50:42Z</time>
      </trkpt>
      <trkpt lat="52.715732473880053" lon="13.263877630233765">
        <ele>33.799999999999997</ele>
        <time>2013-09-12T09:51:39Z</time>
      </trkpt>
      <trkpt lat="52.715624263510108" lon="13.264079885557294">
        <ele>32.299999999999997</ele>
        <time>2013-09-12T09:51:47Z</time>
      </trkpt>
      <trkpt lat="52.714946502819657" lon="13.270347286015749">
        <ele>33.299999999999997</ele>
        <time>2013-09-12T09:53:30Z</time>
      </trkpt>
      <trkpt lat="52.712085423991084" lon="13.270070096477866">
        <ele>34.299999999999997</ele>
        <time>2013-09-12T09:54:44Z</time>
      </trkpt>
      <trkpt lat="52.711063418537378" lon="13.26951420865953">
        <ele>35.700000000000003</ele>
        <time>2013-09-12T09:55:11Z</time>
      </trkpt>
      <trkpt lat="52.709847958758473" lon="13.269860297441483">
        <ele>37.600000000000001</ele>
        <time>2013-09-12T09:55:46Z</time>
      </trkpt>
      <trkpt lat="52.708576759323478" lon="13.269877312704921">
        <ele>40</ele>
        <time>2013-09-12T09:56:30Z</time>
      </trkpt>
      <trkpt lat="52.707657683640718" lon="13.269332824274898">
        <ele>37.600000000000001</ele>
        <time>2013-09-12T09:56:54Z</time>
      </trkpt>
      <trkpt lat="52.706708768382668" lon="13.269412787631154">
        <ele>39.600000000000001</ele>
        <time>2013-09-12T09:57:20Z</time>
      </trkpt>
      <trkpt lat="52.706183390691876" lon="13.268592786043882">
        <ele>36.700000000000003</ele>
        <time>2013-09-12T09:57:40Z</time>
      </trkpt>
      <trkpt lat="52.706481032073498" lon="13.268211660906672">
        <ele>36.200000000000003</ele>
        <time>2013-09-12T09:57:54Z</time>
      </trkpt>
      <trkpt lat="52.706522019580007" lon="13.265387127175927">
        <ele>31.899999999999999</ele>
        <time>2013-09-12T09:58:46Z</time>
      </trkpt>
      <trkpt lat="52.707065921276808" lon="13.263584934175014">
        <ele>29</ele>
        <time>2013-09-12T09:59:09Z</time>
      </trkpt>
      <trkpt lat="52.706827539950609" lon="13.263445207849145">
        <ele>29</ele>
        <time>2013-09-12T09:59:15Z</time>
      </trkpt>
      <trkpt lat="52.70161441527307" lon="13.264982365071774">
        <ele>32.299999999999997</ele>
        <time>2013-09-12T10:01:19Z</time>
      </trkpt>
      <trkpt lat="52.700259229168296" lon="13.264814224094152">
        <ele>37.600000000000001</ele>
        <time>2013-09-12T10:02:03Z</time>
      </trkpt>
      <trkpt lat="52.697819676250219" lon="13.265197779983282">
        <ele>31.399999999999999</ele>
        <time>2013-09-12T10:02:49Z</time>
      </trkpt>
      <trkpt lat="52.6973129902035" lon="13.268037736415863">
        <ele>36.700000000000003</ele>
        <time>2013-09-12T10:03:37Z</time>
      </trkpt>
      <trkpt lat="52.693114327266812" lon="13.267820058390498">
        <ele>39.100000000000001</ele>
        <time>2013-09-12T10:05:30Z</time>
      </trkpt>
      <trkpt lat="52.689140466973186" lon="13.268133793026209">
        <ele>33.299999999999997</ele>
        <time>2013-09-12T10:06:49Z</time>
      </trkpt>
      <trkpt lat="52.688171938061714" lon="13.262581704184413">
        <ele>27.5</ele>
        <time>2013-09-12T10:08:25Z</time>
      </trkpt>
      <trkpt lat="52.686413917690516" lon="13.261715769767761">
        <ele>29.899999999999999</ele>
        <time>2013-09-12T10:09:12Z</time>
      </trkpt>
      <trkpt lat="52.686099763959646" lon="13.260993165895343">
        <ele>29.899999999999999</ele>
        <time>2013-09-12T10:09:29Z</time>
      </trkpt>
      <trkpt lat="52.685098797082901" lon="13.259589532390237">
        <ele>27.5</ele>
        <time>2013-09-12T10:09:59Z</time>
      </trkpt>
      <trkpt lat="52.684511309489608" lon="13.256984436884522">
        <ele>27.100000000000001</ele>
        <time>2013-09-12T10:10:31Z</time>
      </trkpt>
      <trkpt lat="52.684509633108974" lon="13.25433156453073">
        <ele>27.5</ele>
        <time>2013-09-12T10:11:01Z</time>
      </trkpt>
      <trkpt lat="52.683660378679633" lon="13.246849291026592">
        <ele>27.100000000000001</ele>
        <time>2013-09-12T10:12:43Z</time>
      </trkpt>
      <trkpt lat="52.683062078431249" lon="13.245840528979897">
        <ele>27.100000000000001</ele>
        <time>2013-09-12T10:13:06Z</time>
      </trkpt>
      <trkpt lat="52.682117689400911" lon="13.244713665917516">
        <ele>25.600000000000001</ele>
        <time>2013-09-12T10:13:31Z</time>
      </trkpt>
      <trkpt lat="52.681984417140484" lon="13.24442507699132">
        <ele>25.600000000000001</ele>
        <time>2013-09-12T10:13:37Z</time>
      </trkpt>
      <trkpt lat="52.682017022743821" lon="13.24339116923511">
        <ele>24.199999999999999</ele>
        <time>2013-09-12T10:13:52Z</time>
      </trkpt>
      <trkpt lat="52.680244082584977" lon="13.241758961230516">
        <ele>24.699999999999999</ele>
        <time>2013-09-12T10:14:31Z</time>
      </trkpt>
      <trkpt lat="52.679385859519243" lon="13.241619570180774">
        <ele>22.699999999999999</ele>
        <time>2013-09-12T10:14:48Z</time>
      </trkpt>
      <trkpt lat="52.678358322009444" lon="13.242167327553034">
        <ele>24.199999999999999</ele>
        <time>2013-09-12T10:15:12Z</time>
      </trkpt>
      <trkpt lat="52.678834665566683" lon="13.241962138563395">
        <ele>23.699999999999999</ele>
        <time>2013-09-12T10:15:36Z</time>
      </trkpt>
      <trkpt lat="52.678900212049484" lon="13.242903174832463">
        <ele>26.100000000000001</ele>
        <time>2013-09-12T10:15:58Z</time>
      </trkpt>
      <trkpt lat="52.678739698603749" lon="13.242927063256502">
        <ele>27.100000000000001</ele>
        <time>2013-09-12T10:22:03Z</time>
      </trkpt>
      <trkpt lat="52.678928710520267" lon="13.242769986391068">
        <ele>29.5</ele>
        <time>2013-09-12T10:35:28Z</time>
      </trkpt>
      <trkpt lat="52.678845897316933" lon="13.241896759718657">
        <ele>27.100000000000001</ele>
        <time>2013-09-12T10:35:48Z</time>
      </trkpt>
      <trkpt lat="52.678197389468551" lon="13.242287021130323">
        <ele>26.600000000000001</ele>
        <time>2013-09-12T10:36:06Z</time>
      </trkpt>
      <trkpt lat="52.67720153555274" lon="13.242246201261878">
        <ele>27.100000000000001</ele>
        <time>2013-09-12T10:36:32Z</time>
      </trkpt>
      <trkpt lat="52.674015406519175" lon="13.241069633513689">
        <ele>27.100000000000001</ele>
        <time>2013-09-12T10:37:53Z</time>
      </trkpt>
      <trkpt lat="52.673664791509509" lon="13.241709759458899">
        <ele>27.5</ele>
        <time>2013-09-12T10:38:06Z</time>
      </trkpt>
      <trkpt lat="52.672541532665491" lon="13.240961087867618">
        <ele>27.5</ele>
        <time>2013-09-12T10:38:37Z</time>
      </trkpt>
      <trkpt lat="52.669809367507696" lon="13.240074114874005">
        <ele>27.5</ele>
        <time>2013-09-12T10:39:44Z</time>
      </trkpt>
      <trkpt lat="52.668927339836955" lon="13.239119835197926">
        <ele>27.100000000000001</ele>
        <time>2013-09-12T10:40:09Z</time>
      </trkpt>
      <trkpt lat="52.668946031481028" lon="13.23854005895555">
        <ele>26.600000000000001</ele>
        <time>2013-09-12T10:40:18Z</time>
      </trkpt>
      <trkpt lat="52.671597898006439" lon="13.235950637608767">
        <ele>25.600000000000001</ele>
        <time>2013-09-12T10:41:22Z</time>
      </trkpt>
      <trkpt lat="52.672157222405076" lon="13.235540175810456">
        <ele>25.100000000000001</ele>
        <time>2013-09-12T10:41:34Z</time>
      </trkpt>
      <trkpt lat="52.672796091064811" lon="13.235404640436172">
        <ele>25.600000000000001</ele>
        <time>2013-09-12T10:41:47Z</time>
      </trkpt>
      <trkpt lat="52.672978062182665" lon="13.234843388199806">
        <ele>26.100000000000001</ele>
        <time>2013-09-12T10:41:56Z</time>
      </trkpt>
      <trkpt lat="52.672705398872495" lon="13.234172919765115">
        <ele>24.699999999999999</ele>
        <time>2013-09-12T10:42:06Z</time>
      </trkpt>
      <trkpt lat="52.672166107222438" lon="13.23357168585062">
        <ele>25.600000000000001</ele>
        <time>2013-09-12T10:42:19Z</time>
      </trkpt>
      <trkpt lat="52.67188330180943" lon="13.233578391373158">
        <ele>25.600000000000001</ele>
        <time>2013-09-12T10:42:26Z</time>
      </trkpt>
      <trkpt lat="52.671305034309626" lon="13.235054360702634">
        <ele>25.100000000000001</ele>
        <time>2013-09-12T10:42:49Z</time>
      </trkpt>
      <trkpt lat="52.670078761875629" lon="13.236543238162994">
        <ele>26.100000000000001</ele>
        <time>2013-09-12T10:43:21Z</time>
      </trkpt>
      <trkpt lat="52.668582005426288" lon="13.237948464229703">
        <ele>26.100000000000001</ele>
        <time>2013-09-12T10:43:56Z</time>
      </trkpt>
      <trkpt lat="52.668230384588242" lon="13.237878559157252">
        <ele>26.600000000000001</ele>
        <time>2013-09-12T10:44:04Z</time>
      </trkpt>
      <trkpt lat="52.66670529730618" lon="13.235022509470582">
        <ele>25.600000000000001</ele>
        <time>2013-09-12T10:44:54Z</time>
      </trkpt>
      <trkpt lat="52.666282765567303" lon="13.233809061348438">
        <ele>24.199999999999999</ele>
        <time>2013-09-12T10:45:13Z</time>
      </trkpt>
      <trkpt lat="52.665147017687559" lon="13.232387658208609">
        <ele>24.199999999999999</ele>
        <time>2013-09-12T10:45:44Z</time>
      </trkpt>
      <trkpt lat="52.664309414103627" lon="13.230684287846088">
        <ele>24.699999999999999</ele>
        <time>2013-09-12T10:46:12Z</time>
      </trkpt>
      <trkpt lat="52.663463596254587" lon="13.229407388716936">
        <ele>24.199999999999999</ele>
        <time>2013-09-12T10:46:35Z</time>
      </trkpt>
      <trkpt lat="52.662569163367152" lon="13.228770280256867">
        <ele>24.699999999999999</ele>
        <time>2013-09-12T10:46:54Z</time>
      </trkpt>
      <trkpt lat="52.661657463759184" lon="13.227549875155091">
        <ele>24.699999999999999</ele>
        <time>2013-09-12T10:47:17Z</time>
      </trkpt>
      <trkpt lat="52.660750960931182" lon="13.224785439670086">
        <ele>23.199999999999999</ele>
        <time>2013-09-12T10:47:59Z</time>
      </trkpt>
      <trkpt lat="52.659785114228725" lon="13.223730660974979">
        <ele>24.699999999999999</ele>
        <time>2013-09-12T10:48:35Z</time>
      </trkpt>
      <trkpt lat="52.659722585231066" lon="13.223867285996675">
        <ele>24.199999999999999</ele>
        <time>2013-09-12T10:48:47Z</time>
      </trkpt>
      <trkpt lat="52.659932635724545" lon="13.22419828735292">
        <ele>24.699999999999999</ele>
        <time>2013-09-12T10:48:59Z</time>
      </trkpt>
      <trkpt lat="52.660192223265767" lon="13.224361231550574">
        <ele>24.199999999999999</ele>
        <time>2013-09-12T10:49:17Z</time>
      </trkpt>
      <trkpt lat="52.660068674013019" lon="13.224509926512837">
        <ele>24.699999999999999</ele>
        <time>2013-09-12T10:49:26Z</time>
      </trkpt>
      <trkpt lat="52.659782096743584" lon="13.224687371402979">
        <ele>24.199999999999999</ele>
        <time>2013-09-12T10:49:36Z</time>
      </trkpt>
      <trkpt lat="52.658644588664174" lon="13.224565498530865">
        <ele>24.699999999999999</ele>
        <time>2013-09-12T10:50:04Z</time>
      </trkpt>
      <trkpt lat="52.658165395259857" lon="13.2252112403512">
        <ele>24.199999999999999</ele>
        <time>2013-09-12T10:50:18Z</time>
      </trkpt>
      <trkpt lat="52.657703384757042" lon="13.225041422992945">
        <ele>24.199999999999999</ele>
        <time>2013-09-12T10:50:28Z</time>
      </trkpt>
      <trkpt lat="52.657523760572076" lon="13.224133411422372">
        <ele>25.100000000000001</ele>
        <time>2013-09-12T10:50:41Z</time>
      </trkpt>
      <trkpt lat="52.656834181398153" lon="13.223621696233749">
        <ele>24.699999999999999</ele>
        <time>2013-09-12T10:50:59Z</time>
      </trkpt>
      <trkpt lat="52.656814567744732" lon="13.221647338941693">
        <ele>25.100000000000001</ele>
        <time>2013-09-12T10:51:29Z</time>
      </trkpt>
      <trkpt lat="52.656721863895655" lon="13.221437372267246">
        <ele>24.699999999999999</ele>
        <time>2013-09-12T10:51:35Z</time>
      </trkpt>
      <trkpt lat="52.654540808871388" lon="13.221301333978772">
        <ele>25.100000000000001</ele>
        <time>2013-09-12T10:52:26Z</time>
      </trkpt>
      <trkpt lat="52.648616982623935" lon="13.227333622053266">
        <ele>23.199999999999999</ele>
        <time>2013-09-12T10:54:50Z</time>
      </trkpt>
      <trkpt lat="52.647043783217669" lon="13.227249132469296">
        <ele>22.300000000000001</ele>
        <time>2013-09-12T10:55:18Z</time>
      </trkpt>
      <trkpt lat="52.64623710885644" lon="13.226503729820251">
        <ele>22.699999999999999</ele>
        <time>2013-09-12T10:55:39Z</time>
      </trkpt>
      <trkpt lat="52.644014898687601" lon="13.225596724078059">
        <ele>20.800000000000001</ele>
        <time>2013-09-12T10:56:26Z</time>
      </trkpt>
      <trkpt lat="52.643382735550404" lon="13.226993232965469">
        <ele>22.300000000000001</ele>
        <time>2013-09-12T10:57:43Z</time>
      </trkpt>
      <trkpt lat="52.642239527776837" lon="13.224778482690454">
        <ele>20.800000000000001</ele>
        <time>2013-09-12T10:58:39Z</time>
      </trkpt>
      <trkpt lat="52.641540141776204" lon="13.223870387300849">
        <ele>21.300000000000001</ele>
        <time>2013-09-12T10:58:57Z</time>
      </trkpt>
      <trkpt lat="52.63820992782712" lon="13.221269063651562">
        <ele>19.800000000000001</ele>
        <time>2013-09-12T11:00:07Z</time>
      </trkpt>
      <trkpt lat="52.636337326839566" lon="13.219559658318758">
        <ele>20.800000000000001</ele>
        <time>2013-09-12T11:00:55Z</time>
      </trkpt>
      <trkpt lat="52.636494906619191" lon="13.216963699087501">
        <ele>24.199999999999999</ele>
        <time>2013-09-12T11:01:44Z</time>
      </trkpt>
      <trkpt lat="52.637220527976751" lon="13.21344505995512">
        <ele>21.800000000000001</ele>
        <time>2013-09-12T11:02:53Z</time>
      </trkpt>
      <trkpt lat="52.636940907686949" lon="13.213847558945417">
        <ele>22.699999999999999</ele>
        <time>2013-09-12T11:03:39Z</time>
      </trkpt>
      <trkpt lat="52.635220102965832" lon="13.213542960584164">
        <ele>18.899999999999999</ele>
        <time>2013-09-12T11:04:13Z</time>
      </trkpt>
      <trkpt lat="52.634262470528483" lon="13.213052535429597">
        <ele>20.300000000000001</ele>
        <time>2013-09-12T11:05:08Z</time>
      </trkpt>
      <trkpt lat="52.634764295071363" lon="13.213414130732417">
        <ele>20.300000000000001</ele>
        <time>2013-09-12T11:06:53Z</time>
      </trkpt>
      <trkpt lat="52.634862782433629" lon="13.21325202472508">
        <ele>20.800000000000001</ele>
        <time>2013-09-12T11:07:00Z</time>
      </trkpt>
      <trkpt lat="52.634547203779221" lon="13.212075959891081">
        <ele>21.300000000000001</ele>
        <time>2013-09-12T11:07:29Z</time>
      </trkpt>
      <trkpt lat="52.634110925719142" lon="13.212308138608932">
        <ele>19.800000000000001</ele>
        <time>2013-09-12T11:07:43Z</time>
      </trkpt>
      <trkpt lat="52.633659141138196" lon="13.214698238298297">
        <ele>19.800000000000001</ele>
        <time>2013-09-12T11:08:34Z</time>
      </trkpt>
      <trkpt lat="52.633538441732526" lon="13.214610060676932">
        <ele>19.800000000000001</ele>
        <time>2013-09-12T11:08:43Z</time>
      </trkpt>
      <trkpt lat="52.63330701738596" lon="13.215646734461188">
        <ele>20.300000000000001</ele>
        <time>2013-09-12T11:09:04Z</time>
      </trkpt>
      <trkpt lat="52.632827740162611" lon="13.215609015896916">
        <ele>22.699999999999999</ele>
        <time>2013-09-12T11:09:19Z</time>
      </trkpt>
      <trkpt lat="52.630572589114308" lon="13.216257188469172">
        <ele>20.300000000000001</ele>
        <time>2013-09-12T11:10:09Z</time>
      </trkpt>
      <trkpt lat="52.630401765927672" lon="13.215894419699907">
        <ele>21.800000000000001</ele>
        <time>2013-09-12T11:10:15Z</time>
      </trkpt>
      <trkpt lat="52.63036253862083" lon="13.215054636821151">
        <ele>20.800000000000001</ele>
        <time>2013-09-12T11:10:27Z</time>
      </trkpt>
      <trkpt lat="52.630745759233832" lon="13.214510064572096">
        <ele>20.800000000000001</ele>
        <time>2013-09-12T11:10:38Z</time>
      </trkpt>
      <trkpt lat="52.631065612658858" lon="13.214344186708331">
        <ele>22.300000000000001</ele>
        <time>2013-09-12T11:10:47Z</time>
      </trkpt>
      <trkpt lat="52.630945667624474" lon="13.213827274739742">
        <ele>20.800000000000001</ele>
        <time>2013-09-12T11:10:56Z</time>
      </trkpt>
      <trkpt lat="52.630774760618806" lon="13.213727110996842">
        <ele>20.800000000000001</ele>
        <time>2013-09-12T11:11:00Z</time>
      </trkpt>
      <trkpt lat="52.629660302773118" lon="13.214121982455254">
        <ele>21.300000000000001</ele>
        <time>2013-09-12T11:11:29Z</time>
      </trkpt>
      <trkpt lat="52.629946209490299" lon="13.214015113189816">
        <ele>20.800000000000001</ele>
        <time>2013-09-12T11:11:43Z</time>
      </trkpt>
      <trkpt lat="52.629027301445603" lon="13.216349305585027">
        <ele>20.800000000000001</ele>
        <time>2013-09-12T11:12:22Z</time>
      </trkpt>
      <trkpt lat="52.627343293279409" lon="13.216154426336288">
        <ele>19.399999999999999</ele>
        <time>2013-09-12T11:12:55Z</time>
      </trkpt>
      <trkpt lat="52.624350702390075" lon="13.214791864156723">
        <ele>22.300000000000001</ele>
        <time>2013-09-12T11:14:00Z</time>
      </trkpt>
      <trkpt lat="52.621793635189533" lon="13.213287061080337">
        <ele>20.800000000000001</ele>
        <time>2013-09-12T11:14:54Z</time>
      </trkpt>
      <trkpt lat="52.620464432984591" lon="13.211551085114479">
        <ele>21.800000000000001</ele>
        <time>2013-09-12T11:15:29Z</time>
      </trkpt>
      <trkpt lat="52.618530308827758" lon="13.209441779181361">
        <ele>22.300000000000001</ele>
        <time>2013-09-12T11:16:16Z</time>
      </trkpt>
      <trkpt lat="52.617417192086577" lon="13.20776229724288">
        <ele>41</ele>
        <time>2013-09-12T11:22:56Z</time>
      </trkpt>
      <trkpt lat="52.61646349914372" lon="13.205262562260032">
        <ele>40</ele>
        <time>2013-09-12T11:23:37Z</time>
      </trkpt>
      <trkpt lat="52.616459727287292" lon="13.205118896439672">
        <ele>41.5</ele>
        <time>2013-09-12T11:23:41Z</time>
      </trkpt>
      <trkpt lat="52.617275035008788" lon="13.204759228974581">
        <ele>43.899999999999999</ele>
        <time>2013-09-12T11:24:21Z</time>
      </trkpt>
      <trkpt lat="52.617466393858194" lon="13.20450902916491">
        <ele>42.399999999999999</ele>
        <time>2013-09-12T11:25:05Z</time>
      </trkpt>
      <trkpt lat="52.617411240935326" lon="13.204274168238044">
        <ele>42</ele>
        <time>2013-09-12T11:25:32Z</time>
      </trkpt>
      <trkpt lat="52.61533671990037" lon="13.204744476824999">
        <ele>42.899999999999999</ele>
        <time>2013-09-12T11:26:37Z</time>
      </trkpt>
      <trkpt lat="52.612710166722536" lon="13.204242317005992">
        <ele>39.600000000000001</ele>
        <time>2013-09-12T11:27:39Z</time>
      </trkpt>
      <trkpt lat="52.613596636801958" lon="13.20470105856657">
        <ele>39.100000000000001</ele>
        <time>2013-09-12T11:28:13Z</time>
      </trkpt>
      <trkpt lat="52.611664524301887" lon="13.205074137076735">
        <ele>38.600000000000001</ele>
        <time>2013-09-12T11:29:01Z</time>
      </trkpt>
      <trkpt lat="52.611498981714249" lon="13.204395119100809">
        <ele>38.100000000000001</ele>
        <time>2013-09-12T11:29:15Z</time>
      </trkpt>
      <trkpt lat="52.611181475222111" lon="13.204028662294149">
        <ele>38.100000000000001</ele>
        <time>2013-09-12T11:29:25Z</time>
      </trkpt>
      <trkpt lat="52.610043799504638" lon="13.203937383368611">
        <ele>37.200000000000003</ele>
        <time>2013-09-12T11:29:54Z</time>
      </trkpt>
      <trkpt lat="52.609699470922351" lon="13.203734876587987">
        <ele>37.600000000000001</ele>
        <time>2013-09-12T11:30:02Z</time>
      </trkpt>
      <trkpt lat="52.609215918928385" lon="13.203140767291188">
        <ele>37.200000000000003</ele>
        <time>2013-09-12T11:30:15Z</time>
      </trkpt>
      <trkpt lat="52.608030969277024" lon="13.200956108048558">
        <ele>36.200000000000003</ele>
        <time>2013-09-12T11:30:53Z</time>
      </trkpt>
      <trkpt lat="52.607439123094082" lon="13.200298380106688">
        <ele>36.700000000000003</ele>
        <time>2013-09-12T11:31:09Z</time>
      </trkpt>
      <trkpt lat="52.606088882312179" lon="13.199819438159466">
        <ele>36.200000000000003</ele>
        <time>2013-09-12T11:31:39Z</time>
      </trkpt>
      <trkpt lat="52.605091100558639" lon="13.199914572760463">
        <ele>36.200000000000003</ele>
        <time>2013-09-12T11:33:40Z</time>
      </trkpt>
      <trkpt lat="52.605118760839105" lon="13.199688261374831">
        <ele>42</ele>
        <time>2013-09-12T11:38:29Z</time>
      </trkpt>
      <trkpt lat="52.605170393362641" lon="13.1998694781214">
        <ele>39.600000000000001</ele>
        <time>2013-09-12T11:39:59Z</time>
      </trkpt>
      <trkpt lat="52.605155892670155" lon="13.199708377942443">
        <ele>37.200000000000003</ele>
        <time>2013-09-12T11:40:43Z</time>
      </trkpt>
      <trkpt lat="52.605093531310558" lon="13.199870986863971">
        <ele>33.799999999999997</ele>
        <time>2013-09-12T11:42:04Z</time>
      </trkpt>
      <trkpt lat="52.604763116687536" lon="13.199835866689682">
        <ele>33.299999999999997</ele>
        <time>2013-09-12T11:43:30Z</time>
      </trkpt>
      <trkpt lat="52.603712193667889" lon="13.199206637218595">
        <ele>33.299999999999997</ele>
        <time>2013-09-12T11:44:08Z</time>
      </trkpt>
      <trkpt lat="52.602202529087663" lon="13.20033174008131">
        <ele>32.299999999999997</ele>
        <time>2013-09-12T11:44:50Z</time>
      </trkpt>
      <trkpt lat="52.600813563913107" lon="13.200749075040221">
        <ele>32.799999999999997</ele>
        <time>2013-09-12T11:45:24Z</time>
      </trkpt>
      <trkpt lat="52.600300004705787" lon="13.201521467417479">
        <ele>32.799999999999997</ele>
        <time>2013-09-12T11:45:40Z</time>
      </trkpt>
      <trkpt lat="52.599046910181642" lon="13.201997308060527">
        <ele>32.299999999999997</ele>
        <time>2013-09-12T11:46:10Z</time>
      </trkpt>
      <trkpt lat="52.598357163369656" lon="13.203333970159292">
        <ele>32.799999999999997</ele>
        <time>2013-09-12T11:46:36Z</time>
      </trkpt>
      <trkpt lat="52.597674792632461" lon="13.203916596248746">
        <ele>32.799999999999997</ele>
        <time>2013-09-12T11:46:54Z</time>
      </trkpt>
      <trkpt lat="52.597022261470556" lon="13.205719375982881">
        <ele>32.799999999999997</ele>
        <time>2013-09-12T11:48:59Z</time>
      </trkpt>
      <trkpt lat="52.596255401149392" lon="13.207137593999505">
        <ele>33.299999999999997</ele>
        <time>2013-09-12T11:49:48Z</time>
      </trkpt>
      <trkpt lat="52.595177236944437" lon="13.209695918485522">
        <ele>35.200000000000003</ele>
        <time>2013-09-12T11:50:40Z</time>
      </trkpt>
      <trkpt lat="52.592823263257742" lon="13.212674763053656">
        <ele>35.200000000000003</ele>
        <time>2013-09-12T11:51:53Z</time>
      </trkpt>
      <trkpt lat="52.590637765824795" lon="13.212402937933803">
        <ele>29.899999999999999</ele>
        <time>2013-09-12T11:52:44Z</time>
      </trkpt>
      <trkpt lat="52.588945459574461" lon="13.21299553848803">
        <ele>33.299999999999997</ele>
        <time>2013-09-12T11:53:12Z</time>
      </trkpt>
      <trkpt lat="52.588570872321725" lon="13.212947510182858">
        <ele>34.299999999999997</ele>
        <time>2013-09-12T11:53:24Z</time>
      </trkpt>
      <trkpt lat="52.587506370618939" lon="13.213476240634918">
        <ele>30.399999999999999</ele>
        <time>2013-09-12T11:53:44Z</time>
      </trkpt>
      <trkpt lat="52.587075205519795" lon="13.212921274825931">
        <ele>30.899999999999999</ele>
        <time>2013-09-12T11:53:58Z</time>
      </trkpt>
      <trkpt lat="52.586100306361914" lon="13.21264224126935">
        <ele>30.399999999999999</ele>
        <time>2013-09-12T11:54:18Z</time>
      </trkpt>
      <trkpt lat="52.585796630010009" lon="13.212298415601254">
        <ele>29.899999999999999</ele>
        <time>2013-09-12T11:54:28Z</time>
      </trkpt>
      <trkpt lat="52.585521703585982" lon="13.211569776758552">
        <ele>30.899999999999999</ele>
        <time>2013-09-12T11:54:43Z</time>
      </trkpt>
      <trkpt lat="52.585728736594319" lon="13.210993688553572">
        <ele>32.299999999999997</ele>
        <time>2013-09-12T11:54:58Z</time>
      </trkpt>
      <trkpt lat="52.585705602541566" lon="13.210355322808027">
        <ele>31.899999999999999</ele>
        <time>2013-09-12T11:55:09Z</time>
      </trkpt>
      <trkpt lat="52.585457665845752" lon="13.209936814382672">
        <ele>31.399999999999999</ele>
        <time>2013-09-12T11:55:19Z</time>
      </trkpt>
      <trkpt lat="52.585381222888827" lon="13.210500162094831">
        <ele>30.899999999999999</ele>
        <time>2013-09-12T11:55:34Z</time>
      </trkpt>
      <trkpt lat="52.584213707596064" lon="13.210821188986301">
        <ele>31.399999999999999</ele>
        <time>2013-09-12T11:56:56Z</time>
      </trkpt>
      <trkpt lat="52.583374259993434" lon="13.212655736133456">
        <ele>29</ele>
        <time>2013-09-12T11:57:27Z</time>
      </trkpt>
      <trkpt lat="52.582711083814502" lon="13.212802335619926">
        <ele>29</ele>
        <time>2013-09-12T11:57:43Z</time>
      </trkpt>
      <trkpt lat="52.582419561222196" lon="13.213070221245289">
        <ele>29.5</ele>
        <time>2013-09-12T11:57:50Z</time>
      </trkpt>
      <trkpt lat="52.581099076196551" lon="13.213250264525414">
        <ele>30.899999999999999</ele>
        <time>2013-09-12T11:58:27Z</time>
      </trkpt>
      <trkpt lat="52.58076430298388" lon="13.215825101360679">
        <ele>29.899999999999999</ele>
        <time>2013-09-12T11:59:03Z</time>
      </trkpt>
      <trkpt lat="52.580523826181889" lon="13.216226175427437">
        <ele>29.899999999999999</ele>
        <time>2013-09-12T11:59:10Z</time>
      </trkpt>
      <trkpt lat="52.579785129055381" lon="13.216515770182014">
        <ele>30.399999999999999</ele>
        <time>2013-09-12T11:59:26Z</time>
      </trkpt>
      <trkpt lat="52.57836758159101" lon="13.216419881209731">
        <ele>29.899999999999999</ele>
        <time>2013-09-12T11:59:55Z</time>
      </trkpt>
      <trkpt lat="52.577653611078858" lon="13.21712396107614">
        <ele>34.700000000000003</ele>
        <time>2013-09-12T12:00:51Z</time>
      </trkpt>
      <trkpt lat="52.577825440093875" lon="13.217137539759278">
        <ele>33.299999999999997</ele>
        <time>2013-09-12T12:01:11Z</time>
      </trkpt>
      <trkpt lat="52.577340882271528" lon="13.217211971059442">
        <ele>32.799999999999997</ele>
        <time>2013-09-12T12:04:00Z</time>
      </trkpt>
      <trkpt lat="52.576751969754696" lon="13.217786215245724">
        <ele>29</ele>
        <time>2013-09-12T12:04:26Z</time>
      </trkpt>
      <trkpt lat="52.57618828676641" lon="13.218877036124468">
        <ele>29.5</ele>
        <time>2013-09-12T12:04:46Z</time>
      </trkpt>
      <trkpt lat="52.575160330161452" lon="13.219583127647638">
        <ele>29</ele>
        <time>2013-09-12T12:05:10Z</time>
      </trkpt>
      <trkpt lat="52.574380980804563" lon="13.220714936032891">
        <ele>29.899999999999999</ele>
        <time>2013-09-12T12:05:31Z</time>
      </trkpt>
      <trkpt lat="52.573569696396589" lon="13.22285701520741">
        <ele>29.899999999999999</ele>
        <time>2013-09-12T12:06:02Z</time>
      </trkpt>
      <trkpt lat="52.573314802721143" lon="13.222903534770012">
        <ele>29.899999999999999</ele>
        <time>2013-09-12T12:06:11Z</time>
      </trkpt>
      <trkpt lat="52.572942227125168" lon="13.222180008888245">
        <ele>29.5</ele>
        <time>2013-09-12T12:06:37Z</time>
      </trkpt>
      <trkpt lat="52.572967959567904" lon="13.221272081136703">
        <ele>32.299999999999997</ele>
        <time>2013-09-12T12:07:03Z</time>
      </trkpt>
      <trkpt lat="52.57202323526144" lon="13.221097234636545">
        <ele>28</ele>
        <time>2013-09-12T12:10:42Z</time>
      </trkpt>
      <trkpt lat="52.571070967242122" lon="13.221440389752388">
        <ele>28</ele>
        <time>2013-09-12T12:11:05Z</time>
      </trkpt>
      <trkpt lat="52.570393960922956" lon="13.222765568643808">
        <ele>28</ele>
        <time>2013-09-12T12:11:30Z</time>
      </trkpt>
      <trkpt lat="52.569393580779433" lon="13.223421033471823">
        <ele>28</ele>
        <time>2013-09-12T12:11:53Z</time>
      </trkpt>
      <trkpt lat="52.569032069295645" lon="13.222642941400409">
        <ele>28</ele>
        <time>2013-09-12T12:12:06Z</time>
      </trkpt>
      <trkpt lat="52.568868789821863" lon="13.222412439063191">
        <ele>29</ele>
        <time>2013-09-12T12:12:12Z</time>
      </trkpt>
      <trkpt lat="52.568716239184141" lon="13.222515536472201">
        <ele>29</ele>
        <time>2013-09-12T12:12:18Z</time>
      </trkpt>
      <trkpt lat="52.568202093243599" lon="13.221619259566069">
        <ele>28</ele>
        <time>2013-09-12T12:12:39Z</time>
      </trkpt>
      <trkpt lat="52.567081684246659" lon="13.222146984189749">
        <ele>28</ele>
        <time>2013-09-12T12:13:02Z</time>
      </trkpt>
      <trkpt lat="52.566545326262712" lon="13.221844313666224">
        <ele>28.5</ele>
        <time>2013-09-12T12:13:14Z</time>
      </trkpt>
      <trkpt lat="52.56617090664804" lon="13.221079967916012">
        <ele>28.5</ele>
        <time>2013-09-12T12:13:27Z</time>
      </trkpt>
      <trkpt lat="52.566436780616641" lon="13.216833863407373">
        <ele>29</ele>
        <time>2013-09-12T12:14:26Z</time>
      </trkpt>
      <trkpt lat="52.564695607870817" lon="13.215881260111928">
        <ele>29</ele>
        <time>2013-09-12T12:15:19Z</time>
      </trkpt>
      <trkpt lat="52.561110081151128" lon="13.212491115555167">
        <ele>30.399999999999999</ele>
        <time>2013-09-12T12:17:07Z</time>
      </trkpt>
      <trkpt lat="52.56109306588769" lon="13.212197832763195">
        <ele>29.5</ele>
        <time>2013-09-12T12:17:13Z</time>
      </trkpt>
      <trkpt lat="52.560595935210586" lon="13.211518479511142">
        <ele>29.899999999999999</ele>
        <time>2013-09-12T12:17:34Z</time>
      </trkpt>
      <trkpt lat="52.559145279228687" lon="13.208533935248852">
        <ele>29.899999999999999</ele>
        <time>2013-09-12T12:18:35Z</time>
      </trkpt>
      <trkpt lat="52.559179309755564" lon="13.208040241152048">
        <ele>31.399999999999999</ele>
        <time>2013-09-12T12:19:08Z</time>
      </trkpt>
      <trkpt lat="52.555703585967422" lon="13.207532465457916">
        <ele>31.399999999999999</ele>
        <time>2013-09-12T12:20:45Z</time>
      </trkpt>
      <trkpt lat="52.555667795240879" lon="13.200099309906363">
        <ele>30.899999999999999</ele>
        <time>2013-09-12T12:22:30Z</time>
      </trkpt>
      <trkpt lat="52.555276276543736" lon="13.196040540933609">
        <ele>30.899999999999999</ele>
        <time>2013-09-12T12:23:28Z</time>
      </trkpt>
      <trkpt lat="52.551507437601686" lon="13.191783539950848">
        <ele>30.899999999999999</ele>
        <time>2013-09-12T12:25:01Z</time>
      </trkpt>
      <trkpt lat="52.549944883212447" lon="13.191043920814991">
        <ele>30.399999999999999</ele>
        <time>2013-09-12T12:26:13Z</time>
      </trkpt>
      <trkpt lat="52.546074958518147" lon="13.191524287685752">
        <ele>29.899999999999999</ele>
        <time>2013-09-12T12:27:55Z</time>
      </trkpt>
      <trkpt lat="52.541324598714709" lon="13.194500533863902">
        <ele>29</ele>
        <time>2013-09-12T12:29:51Z</time>
      </trkpt>
      <trkpt lat="52.538411635905504" lon="13.197026839479804">
        <ele>30.399999999999999</ele>
        <time>2013-09-12T12:31:09Z</time>
      </trkpt>
      <trkpt lat="52.537803612649441" lon="13.196421163156629">
        <ele>30.399999999999999</ele>
        <time>2013-09-12T12:31:36Z</time>
      </trkpt>
      <trkpt lat="52.537373034283519" lon="13.197338562458754">
        <ele>29.899999999999999</ele>
        <time>2013-09-12T12:31:59Z</time>
      </trkpt>
      <trkpt lat="52.537064077332616" lon="13.197622876614332">
        <ele>29.899999999999999</ele>
        <time>2013-09-12T12:32:07Z</time>
      </trkpt>
      <trkpt lat="52.535075973719358" lon="13.198520913720131">
        <ele>29.5</ele>
        <time>2013-09-12T12:32:55Z</time>
      </trkpt>
      <trkpt lat="52.534789312630892" lon="13.19915316067636">
        <ele>29.5</ele>
        <time>2013-09-12T12:33:22Z</time>
      </trkpt>
      <trkpt lat="52.534649921581149" lon="13.199059367179871">
        <ele>29</ele>
        <time>2013-09-12T12:33:42Z</time>
      </trkpt>
      <trkpt lat="52.534645898267627" lon="13.19861764088273">
        <ele>28.5</ele>
        <time>2013-09-12T12:34:11Z</time>
      </trkpt>
    </trkseg>
  </trk>

</gpx>
